<?xml version="1.0" encoding="UTF-8" standalone="no" ?>
<gpx xmlns="http://www.topografix.com/GPX/1/1" xmlns:xsi="http://www.w3.org/2001/XMLSchema-instance" xsi:schemaLocation="http://www.topografix.com/GPX/1/1 http://www.topografix.com/GPX/1/1/gpx.xsd" version="1.1" creator="VisuGPX - https://www.visugpx.com">
  <metadata>
    <name>Tour du mont Viso. Jour 01. De Ristolas au Petit Belvédère du Viso</name>
    <desc><![CDATA[Trace AlpineQuest 30/08/2026 10:02:30]]></desc>
  </metadata>
  <trk>
    <name><![CDATA[visugpx_WLsvIWjyYh_1]]></name>
    <extensions>
      <line xmlns="http://www.topografix.com/GPX/gpx_style/0/2">
        <color>0000FF</color>
        <width>4</width>
      </line>
    </extensions>
    <trkseg>
      <trkpt lat="44.77348" lon="6.95685">
        <ele>1614.1</ele>
        <time>2026-08-30T08:02:30Z</time>
      </trkpt>
      <trkpt lat="44.77348" lon="6.95687">
        <ele>1614.1</ele>
        <time>2026-08-30T08:02:36Z</time>
      </trkpt>
      <trkpt lat="44.77349" lon="6.95688">
        <ele>1614</ele>
        <time>2026-08-30T08:02:41Z</time>
      </trkpt>
      <trkpt lat="44.77349" lon="6.95688">
        <ele>1614</ele>
        <time>2026-08-30T08:02:46Z</time>
      </trkpt>
      <trkpt lat="44.77349" lon="6.95688">
        <ele>1614</ele>
        <time>2026-08-30T08:02:51Z</time>
      </trkpt>
      <trkpt lat="44.77349" lon="6.95688">
        <ele>1614</ele>
        <time>2026-08-30T08:02:57Z</time>
      </trkpt>
      <trkpt lat="44.77349" lon="6.95688">
        <ele>1614</ele>
        <time>2026-08-30T08:03:02Z</time>
      </trkpt>
      <trkpt lat="44.77349" lon="6.95688">
        <ele>1614</ele>
        <time>2026-08-30T08:03:07Z</time>
      </trkpt>
      <trkpt lat="44.77344" lon="6.95689">
        <ele>1614.1</ele>
        <time>2026-08-30T08:03:13Z</time>
      </trkpt>
      <trkpt lat="44.77338" lon="6.95696">
        <ele>1614.2</ele>
        <time>2026-08-30T08:03:18Z</time>
      </trkpt>
      <trkpt lat="44.77335" lon="6.95704">
        <ele>1614.1</ele>
        <time>2026-08-30T08:03:23Z</time>
      </trkpt>
      <trkpt lat="44.77332" lon="6.95713">
        <ele>1614.2</ele>
        <time>2026-08-30T08:03:29Z</time>
      </trkpt>
      <trkpt lat="44.77331" lon="6.95722">
        <ele>1614.3</ele>
        <time>2026-08-30T08:03:34Z</time>
      </trkpt>
      <trkpt lat="44.77329" lon="6.95731">
        <ele>1614.6</ele>
        <time>2026-08-30T08:03:39Z</time>
      </trkpt>
      <trkpt lat="44.77325" lon="6.95739">
        <ele>1615.4</ele>
        <time>2026-08-30T08:03:45Z</time>
      </trkpt>
      <trkpt lat="44.77322" lon="6.95746">
        <ele>1616</ele>
        <time>2026-08-30T08:03:50Z</time>
      </trkpt>
      <trkpt lat="44.7732" lon="6.95756">
        <ele>1616.2</ele>
        <time>2026-08-30T08:03:55Z</time>
      </trkpt>
      <trkpt lat="44.77317" lon="6.95767">
        <ele>1616.7</ele>
        <time>2026-08-30T08:04:01Z</time>
      </trkpt>
      <trkpt lat="44.77314" lon="6.95776">
        <ele>1617.1</ele>
        <time>2026-08-30T08:04:06Z</time>
      </trkpt>
      <trkpt lat="44.77312" lon="6.95787">
        <ele>1617.3</ele>
        <time>2026-08-30T08:04:11Z</time>
      </trkpt>
      <trkpt lat="44.77309" lon="6.95798">
        <ele>1617.5</ele>
        <time>2026-08-30T08:04:17Z</time>
      </trkpt>
      <trkpt lat="44.77308" lon="6.95807">
        <ele>1617.5</ele>
        <time>2026-08-30T08:04:22Z</time>
      </trkpt>
      <trkpt lat="44.77304" lon="6.95816">
        <ele>1617.9</ele>
        <time>2026-08-30T08:04:27Z</time>
      </trkpt>
      <trkpt lat="44.773" lon="6.95828">
        <ele>1618.2</ele>
        <time>2026-08-30T08:04:33Z</time>
      </trkpt>
      <trkpt lat="44.77298" lon="6.95837">
        <ele>1618.3</ele>
        <time>2026-08-30T08:04:38Z</time>
      </trkpt>
      <trkpt lat="44.77297" lon="6.95848">
        <ele>1618.2</ele>
        <time>2026-08-30T08:04:43Z</time>
      </trkpt>
      <trkpt lat="44.77296" lon="6.9586">
        <ele>1618.1</ele>
        <time>2026-08-30T08:04:49Z</time>
      </trkpt>
      <trkpt lat="44.77295" lon="6.95871">
        <ele>1618</ele>
        <time>2026-08-30T08:04:54Z</time>
      </trkpt>
      <trkpt lat="44.77297" lon="6.95882">
        <ele>1617.4</ele>
        <time>2026-08-30T08:04:59Z</time>
      </trkpt>
      <trkpt lat="44.77297" lon="6.95893">
        <ele>1617.2</ele>
        <time>2026-08-30T08:05:05Z</time>
      </trkpt>
      <trkpt lat="44.77297" lon="6.95901">
        <ele>1617</ele>
        <time>2026-08-30T08:05:10Z</time>
      </trkpt>
      <trkpt lat="44.77294" lon="6.95909">
        <ele>1617.3</ele>
        <time>2026-08-30T08:05:15Z</time>
      </trkpt>
      <trkpt lat="44.77291" lon="6.95921">
        <ele>1617.6</ele>
        <time>2026-08-30T08:05:21Z</time>
      </trkpt>
      <trkpt lat="44.77288" lon="6.95929">
        <ele>1617.9</ele>
        <time>2026-08-30T08:05:26Z</time>
      </trkpt>
      <trkpt lat="44.77288" lon="6.95935">
        <ele>1617.8</ele>
        <time>2026-08-30T08:05:31Z</time>
      </trkpt>
      <trkpt lat="44.77288" lon="6.95945">
        <ele>1617.7</ele>
        <time>2026-08-30T08:05:37Z</time>
      </trkpt>
      <trkpt lat="44.77287" lon="6.95953">
        <ele>1617.7</ele>
        <time>2026-08-30T08:05:42Z</time>
      </trkpt>
      <trkpt lat="44.77284" lon="6.95955">
        <ele>1618.2</ele>
        <time>2026-08-30T08:05:47Z</time>
      </trkpt>
      <trkpt lat="44.77284" lon="6.95957">
        <ele>1618.1</ele>
        <time>2026-08-30T08:05:53Z</time>
      </trkpt>
      <trkpt lat="44.77284" lon="6.95957">
        <ele>1618.1</ele>
        <time>2026-08-30T08:05:58Z</time>
      </trkpt>
      <trkpt lat="44.77282" lon="6.95961">
        <ele>1618.4</ele>
        <time>2026-08-30T08:06:03Z</time>
      </trkpt>
      <trkpt lat="44.77283" lon="6.95964">
        <ele>1618.2</ele>
        <time>2026-08-30T08:06:09Z</time>
      </trkpt>
      <trkpt lat="44.77283" lon="6.95964">
        <ele>1618.2</ele>
        <time>2026-08-30T08:06:14Z</time>
      </trkpt>
      <trkpt lat="44.77283" lon="6.95964">
        <ele>1618.2</ele>
        <time>2026-08-30T08:06:19Z</time>
      </trkpt>
      <trkpt lat="44.77283" lon="6.95964">
        <ele>1618.2</ele>
        <time>2026-08-30T08:06:25Z</time>
      </trkpt>
      <trkpt lat="44.77283" lon="6.95964">
        <ele>1618.2</ele>
        <time>2026-08-30T08:06:30Z</time>
      </trkpt>
      <trkpt lat="44.77283" lon="6.95964">
        <ele>1618.2</ele>
        <time>2026-08-30T08:06:35Z</time>
      </trkpt>
      <trkpt lat="44.77283" lon="6.95964">
        <ele>1618.2</ele>
        <time>2026-08-30T08:06:41Z</time>
      </trkpt>
      <trkpt lat="44.77283" lon="6.95964">
        <ele>1618.2</ele>
        <time>2026-08-30T08:06:46Z</time>
      </trkpt>
      <trkpt lat="44.77283" lon="6.95964">
        <ele>1618.2</ele>
        <time>2026-08-30T08:06:51Z</time>
      </trkpt>
      <trkpt lat="44.77283" lon="6.95964">
        <ele>1618.2</ele>
        <time>2026-08-30T08:06:57Z</time>
      </trkpt>
      <trkpt lat="44.77283" lon="6.95964">
        <ele>1618.2</ele>
        <time>2026-08-30T08:07:02Z</time>
      </trkpt>
      <trkpt lat="44.77283" lon="6.95964">
        <ele>1618.2</ele>
        <time>2026-08-30T08:07:07Z</time>
      </trkpt>
      <trkpt lat="44.77283" lon="6.95964">
        <ele>1618.2</ele>
        <time>2026-08-30T08:07:13Z</time>
      </trkpt>
      <trkpt lat="44.77283" lon="6.95964">
        <ele>1618.2</ele>
        <time>2026-08-30T08:07:18Z</time>
      </trkpt>
      <trkpt lat="44.77283" lon="6.95964">
        <ele>1618.2</ele>
        <time>2026-08-30T08:07:23Z</time>
      </trkpt>
      <trkpt lat="44.77283" lon="6.95964">
        <ele>1618.2</ele>
        <time>2026-08-30T08:07:29Z</time>
      </trkpt>
      <trkpt lat="44.77283" lon="6.95964">
        <ele>1618.2</ele>
        <time>2026-08-30T08:07:34Z</time>
      </trkpt>
      <trkpt lat="44.77283" lon="6.95964">
        <ele>1618.2</ele>
        <time>2026-08-30T08:07:39Z</time>
      </trkpt>
      <trkpt lat="44.77283" lon="6.95964">
        <ele>1618.2</ele>
        <time>2026-08-30T08:07:45Z</time>
      </trkpt>
      <trkpt lat="44.77283" lon="6.95964">
        <ele>1618.2</ele>
        <time>2026-08-30T08:07:50Z</time>
      </trkpt>
      <trkpt lat="44.77283" lon="6.95964">
        <ele>1618.2</ele>
        <time>2026-08-30T08:07:55Z</time>
      </trkpt>
      <trkpt lat="44.77278" lon="6.95974">
        <ele>1618.7</ele>
        <time>2026-08-30T08:08:01Z</time>
      </trkpt>
      <trkpt lat="44.77277" lon="6.95984">
        <ele>1618.7</ele>
        <time>2026-08-30T08:08:06Z</time>
      </trkpt>
      <trkpt lat="44.77277" lon="6.95993">
        <ele>1618.5</ele>
        <time>2026-08-30T08:08:11Z</time>
      </trkpt>
      <trkpt lat="44.77275" lon="6.96004">
        <ele>1618.6</ele>
        <time>2026-08-30T08:08:17Z</time>
      </trkpt>
      <trkpt lat="44.77274" lon="6.96015">
        <ele>1618.6</ele>
        <time>2026-08-30T08:08:22Z</time>
      </trkpt>
      <trkpt lat="44.77273" lon="6.96025">
        <ele>1618.6</ele>
        <time>2026-08-30T08:08:27Z</time>
      </trkpt>
      <trkpt lat="44.77273" lon="6.96037">
        <ele>1618.4</ele>
        <time>2026-08-30T08:08:33Z</time>
      </trkpt>
      <trkpt lat="44.77272" lon="6.96049">
        <ele>1618.4</ele>
        <time>2026-08-30T08:08:38Z</time>
      </trkpt>
      <trkpt lat="44.77271" lon="6.9606">
        <ele>1618.3</ele>
        <time>2026-08-30T08:08:43Z</time>
      </trkpt>
      <trkpt lat="44.77271" lon="6.96072">
        <ele>1618.2</ele>
        <time>2026-08-30T08:08:49Z</time>
      </trkpt>
      <trkpt lat="44.77271" lon="6.96083">
        <ele>1618</ele>
        <time>2026-08-30T08:08:54Z</time>
      </trkpt>
      <trkpt lat="44.77271" lon="6.96093">
        <ele>1617.8</ele>
        <time>2026-08-30T08:08:59Z</time>
      </trkpt>
      <trkpt lat="44.77271" lon="6.96106">
        <ele>1617.6</ele>
        <time>2026-08-30T08:09:05Z</time>
      </trkpt>
      <trkpt lat="44.7727" lon="6.96117">
        <ele>1617.6</ele>
        <time>2026-08-30T08:09:10Z</time>
      </trkpt>
      <trkpt lat="44.77269" lon="6.96127">
        <ele>1617.5</ele>
        <time>2026-08-30T08:09:15Z</time>
      </trkpt>
      <trkpt lat="44.77268" lon="6.96139">
        <ele>1617.4</ele>
        <time>2026-08-30T08:09:21Z</time>
      </trkpt>
      <trkpt lat="44.77269" lon="6.96148">
        <ele>1617.2</ele>
        <time>2026-08-30T08:09:26Z</time>
      </trkpt>
      <trkpt lat="44.7727" lon="6.96149">
        <ele>1617.1</ele>
        <time>2026-08-30T08:09:31Z</time>
      </trkpt>
      <trkpt lat="44.77269" lon="6.9615">
        <ele>1617.1</ele>
        <time>2026-08-30T08:09:37Z</time>
      </trkpt>
      <trkpt lat="44.77269" lon="6.9615">
        <ele>1617.1</ele>
        <time>2026-08-30T08:09:42Z</time>
      </trkpt>
      <trkpt lat="44.77269" lon="6.9615">
        <ele>1617.1</ele>
        <time>2026-08-30T08:09:47Z</time>
      </trkpt>
      <trkpt lat="44.77269" lon="6.9615">
        <ele>1617.1</ele>
        <time>2026-08-30T08:09:53Z</time>
      </trkpt>
      <trkpt lat="44.77269" lon="6.9615">
        <ele>1617.1</ele>
        <time>2026-08-30T08:09:58Z</time>
      </trkpt>
      <trkpt lat="44.77269" lon="6.9615">
        <ele>1617.1</ele>
        <time>2026-08-30T08:10:03Z</time>
      </trkpt>
      <trkpt lat="44.77269" lon="6.9615">
        <ele>1617.1</ele>
        <time>2026-08-30T08:10:09Z</time>
      </trkpt>
      <trkpt lat="44.77269" lon="6.9615">
        <ele>1617.1</ele>
        <time>2026-08-30T08:10:14Z</time>
      </trkpt>
      <trkpt lat="44.77269" lon="6.9615">
        <ele>1617.1</ele>
        <time>2026-08-30T08:10:19Z</time>
      </trkpt>
      <trkpt lat="44.77269" lon="6.9615">
        <ele>1617.1</ele>
        <time>2026-08-30T08:10:25Z</time>
      </trkpt>
      <trkpt lat="44.77269" lon="6.9615">
        <ele>1617.1</ele>
        <time>2026-08-30T08:10:30Z</time>
      </trkpt>
      <trkpt lat="44.77269" lon="6.9615">
        <ele>1617.1</ele>
        <time>2026-08-30T08:10:35Z</time>
      </trkpt>
      <trkpt lat="44.77269" lon="6.9615">
        <ele>1617.1</ele>
        <time>2026-08-30T08:10:41Z</time>
      </trkpt>
      <trkpt lat="44.77269" lon="6.9615">
        <ele>1617.1</ele>
        <time>2026-08-30T08:10:46Z</time>
      </trkpt>
      <trkpt lat="44.77269" lon="6.9615">
        <ele>1617.1</ele>
        <time>2026-08-30T08:10:51Z</time>
      </trkpt>
      <trkpt lat="44.77269" lon="6.9615">
        <ele>1617.1</ele>
        <time>2026-08-30T08:10:57Z</time>
      </trkpt>
      <trkpt lat="44.77269" lon="6.9615">
        <ele>1617.1</ele>
        <time>2026-08-30T08:11:02Z</time>
      </trkpt>
      <trkpt lat="44.77269" lon="6.9615">
        <ele>1617.1</ele>
        <time>2026-08-30T08:11:07Z</time>
      </trkpt>
      <trkpt lat="44.77269" lon="6.9615">
        <ele>1617.1</ele>
        <time>2026-08-30T08:11:13Z</time>
      </trkpt>
      <trkpt lat="44.77269" lon="6.9615">
        <ele>1617.1</ele>
        <time>2026-08-30T08:11:18Z</time>
      </trkpt>
      <trkpt lat="44.77269" lon="6.9615">
        <ele>1617.1</ele>
        <time>2026-08-30T08:11:23Z</time>
      </trkpt>
      <trkpt lat="44.77269" lon="6.9615">
        <ele>1617.1</ele>
        <time>2026-08-30T08:11:29Z</time>
      </trkpt>
      <trkpt lat="44.77269" lon="6.9615">
        <ele>1617.1</ele>
        <time>2026-08-30T08:11:34Z</time>
      </trkpt>
      <trkpt lat="44.77269" lon="6.9615">
        <ele>1617.1</ele>
        <time>2026-08-30T08:11:39Z</time>
      </trkpt>
      <trkpt lat="44.77268" lon="6.96153">
        <ele>1617.1</ele>
        <time>2026-08-30T08:11:45Z</time>
      </trkpt>
      <trkpt lat="44.77267" lon="6.96163">
        <ele>1617</ele>
        <time>2026-08-30T08:11:50Z</time>
      </trkpt>
      <trkpt lat="44.77265" lon="6.96173">
        <ele>1617.3</ele>
        <time>2026-08-30T08:11:55Z</time>
      </trkpt>
      <trkpt lat="44.77265" lon="6.96183">
        <ele>1617.6</ele>
        <time>2026-08-30T08:12:01Z</time>
      </trkpt>
      <trkpt lat="44.77263" lon="6.96193">
        <ele>1618</ele>
        <time>2026-08-30T08:12:06Z</time>
      </trkpt>
      <trkpt lat="44.77263" lon="6.96204">
        <ele>1618.3</ele>
        <time>2026-08-30T08:12:11Z</time>
      </trkpt>
      <trkpt lat="44.77261" lon="6.96215">
        <ele>1618.7</ele>
        <time>2026-08-30T08:12:17Z</time>
      </trkpt>
      <trkpt lat="44.7726" lon="6.96223">
        <ele>1619</ele>
        <time>2026-08-30T08:12:22Z</time>
      </trkpt>
      <trkpt lat="44.77258" lon="6.96233">
        <ele>1619.3</ele>
        <time>2026-08-30T08:12:27Z</time>
      </trkpt>
      <trkpt lat="44.77256" lon="6.96245">
        <ele>1619.7</ele>
        <time>2026-08-30T08:12:33Z</time>
      </trkpt>
      <trkpt lat="44.77254" lon="6.96253">
        <ele>1620.1</ele>
        <time>2026-08-30T08:12:38Z</time>
      </trkpt>
      <trkpt lat="44.77253" lon="6.96263">
        <ele>1620.7</ele>
        <time>2026-08-30T08:12:43Z</time>
      </trkpt>
      <trkpt lat="44.77252" lon="6.96277">
        <ele>1621.5</ele>
        <time>2026-08-30T08:12:49Z</time>
      </trkpt>
      <trkpt lat="44.77252" lon="6.96286">
        <ele>1622.1</ele>
        <time>2026-08-30T08:12:54Z</time>
      </trkpt>
      <trkpt lat="44.77249" lon="6.96295">
        <ele>1623.1</ele>
        <time>2026-08-30T08:12:59Z</time>
      </trkpt>
      <trkpt lat="44.77246" lon="6.96306">
        <ele>1624.8</ele>
        <time>2026-08-30T08:13:05Z</time>
      </trkpt>
      <trkpt lat="44.77243" lon="6.96314">
        <ele>1626.2</ele>
        <time>2026-08-30T08:13:10Z</time>
      </trkpt>
      <trkpt lat="44.77242" lon="6.96322">
        <ele>1627</ele>
        <time>2026-08-30T08:13:15Z</time>
      </trkpt>
      <trkpt lat="44.77238" lon="6.96333">
        <ele>1628.9</ele>
        <time>2026-08-30T08:13:21Z</time>
      </trkpt>
      <trkpt lat="44.77235" lon="6.96342">
        <ele>1630.4</ele>
        <time>2026-08-30T08:13:26Z</time>
      </trkpt>
      <trkpt lat="44.77233" lon="6.96352">
        <ele>1631.5</ele>
        <time>2026-08-30T08:13:31Z</time>
      </trkpt>
      <trkpt lat="44.7723" lon="6.96363">
        <ele>1632.9</ele>
        <time>2026-08-30T08:13:37Z</time>
      </trkpt>
      <trkpt lat="44.77229" lon="6.96373">
        <ele>1633.7</ele>
        <time>2026-08-30T08:13:42Z</time>
      </trkpt>
      <trkpt lat="44.77227" lon="6.96379">
        <ele>1634.5</ele>
        <time>2026-08-30T08:13:47Z</time>
      </trkpt>
      <trkpt lat="44.77227" lon="6.9639">
        <ele>1635</ele>
        <time>2026-08-30T08:13:53Z</time>
      </trkpt>
      <trkpt lat="44.77225" lon="6.96396">
        <ele>1635.7</ele>
        <time>2026-08-30T08:13:58Z</time>
      </trkpt>
      <trkpt lat="44.77221" lon="6.96405">
        <ele>1636.8</ele>
        <time>2026-08-30T08:14:03Z</time>
      </trkpt>
      <trkpt lat="44.77219" lon="6.96417">
        <ele>1637.6</ele>
        <time>2026-08-30T08:14:09Z</time>
      </trkpt>
      <trkpt lat="44.77219" lon="6.96424">
        <ele>1637.7</ele>
        <time>2026-08-30T08:14:14Z</time>
      </trkpt>
      <trkpt lat="44.77216" lon="6.96431">
        <ele>1638.3</ele>
        <time>2026-08-30T08:14:19Z</time>
      </trkpt>
      <trkpt lat="44.77215" lon="6.96441">
        <ele>1638.7</ele>
        <time>2026-08-30T08:14:25Z</time>
      </trkpt>
      <trkpt lat="44.77215" lon="6.96451">
        <ele>1638.8</ele>
        <time>2026-08-30T08:14:30Z</time>
      </trkpt>
      <trkpt lat="44.77214" lon="6.9646">
        <ele>1639.2</ele>
        <time>2026-08-30T08:14:35Z</time>
      </trkpt>
      <trkpt lat="44.77212" lon="6.96471">
        <ele>1639.7</ele>
        <time>2026-08-30T08:14:41Z</time>
      </trkpt>
      <trkpt lat="44.77211" lon="6.9648">
        <ele>1640.1</ele>
        <time>2026-08-30T08:14:46Z</time>
      </trkpt>
      <trkpt lat="44.77213" lon="6.96489">
        <ele>1639.8</ele>
        <time>2026-08-30T08:14:51Z</time>
      </trkpt>
      <trkpt lat="44.77213" lon="6.96501">
        <ele>1640</ele>
        <time>2026-08-30T08:14:57Z</time>
      </trkpt>
      <trkpt lat="44.77213" lon="6.96511">
        <ele>1639.7</ele>
        <time>2026-08-30T08:15:02Z</time>
      </trkpt>
      <trkpt lat="44.77213" lon="6.96518">
        <ele>1639.4</ele>
        <time>2026-08-30T08:15:07Z</time>
      </trkpt>
      <trkpt lat="44.77211" lon="6.96529">
        <ele>1639.5</ele>
        <time>2026-08-30T08:15:13Z</time>
      </trkpt>
      <trkpt lat="44.7721" lon="6.96538">
        <ele>1639.5</ele>
        <time>2026-08-30T08:15:18Z</time>
      </trkpt>
      <trkpt lat="44.77206" lon="6.96547">
        <ele>1640.1</ele>
        <time>2026-08-30T08:15:23Z</time>
      </trkpt>
      <trkpt lat="44.77203" lon="6.96558">
        <ele>1640.5</ele>
        <time>2026-08-30T08:15:29Z</time>
      </trkpt>
      <trkpt lat="44.77199" lon="6.96565">
        <ele>1641.2</ele>
        <time>2026-08-30T08:15:34Z</time>
      </trkpt>
      <trkpt lat="44.77197" lon="6.96575">
        <ele>1641.3</ele>
        <time>2026-08-30T08:15:39Z</time>
      </trkpt>
      <trkpt lat="44.77194" lon="6.96584">
        <ele>1641.7</ele>
        <time>2026-08-30T08:15:45Z</time>
      </trkpt>
      <trkpt lat="44.7719" lon="6.96592">
        <ele>1642.3</ele>
        <time>2026-08-30T08:15:50Z</time>
      </trkpt>
      <trkpt lat="44.77185" lon="6.966">
        <ele>1643</ele>
        <time>2026-08-30T08:15:55Z</time>
      </trkpt>
      <trkpt lat="44.7718" lon="6.96609">
        <ele>1643.6</ele>
        <time>2026-08-30T08:16:01Z</time>
      </trkpt>
      <trkpt lat="44.77178" lon="6.96616">
        <ele>1643.7</ele>
        <time>2026-08-30T08:16:06Z</time>
      </trkpt>
      <trkpt lat="44.77174" lon="6.96623">
        <ele>1644.1</ele>
        <time>2026-08-30T08:16:11Z</time>
      </trkpt>
      <trkpt lat="44.7717" lon="6.96636">
        <ele>1644.2</ele>
        <time>2026-08-30T08:16:17Z</time>
      </trkpt>
      <trkpt lat="44.77167" lon="6.96643">
        <ele>1644.4</ele>
        <time>2026-08-30T08:16:22Z</time>
      </trkpt>
      <trkpt lat="44.77164" lon="6.9665">
        <ele>1645</ele>
        <time>2026-08-30T08:16:27Z</time>
      </trkpt>
      <trkpt lat="44.7716" lon="6.96661">
        <ele>1645.8</ele>
        <time>2026-08-30T08:16:33Z</time>
      </trkpt>
      <trkpt lat="44.77155" lon="6.96669">
        <ele>1646.9</ele>
        <time>2026-08-30T08:16:38Z</time>
      </trkpt>
      <trkpt lat="44.77154" lon="6.96678">
        <ele>1646.2</ele>
        <time>2026-08-30T08:16:43Z</time>
      </trkpt>
      <trkpt lat="44.7715" lon="6.96688">
        <ele>1646.4</ele>
        <time>2026-08-30T08:16:49Z</time>
      </trkpt>
      <trkpt lat="44.77147" lon="6.96697">
        <ele>1646.3</ele>
        <time>2026-08-30T08:16:54Z</time>
      </trkpt>
      <trkpt lat="44.77143" lon="6.96704">
        <ele>1646.7</ele>
        <time>2026-08-30T08:16:59Z</time>
      </trkpt>
      <trkpt lat="44.77138" lon="6.96714">
        <ele>1647</ele>
        <time>2026-08-30T08:17:05Z</time>
      </trkpt>
      <trkpt lat="44.77134" lon="6.96721">
        <ele>1647.4</ele>
        <time>2026-08-30T08:17:10Z</time>
      </trkpt>
      <trkpt lat="44.77131" lon="6.96728">
        <ele>1647.3</ele>
        <time>2026-08-30T08:17:15Z</time>
      </trkpt>
      <trkpt lat="44.77128" lon="6.96739">
        <ele>1646.7</ele>
        <time>2026-08-30T08:17:21Z</time>
      </trkpt>
      <trkpt lat="44.77126" lon="6.9675">
        <ele>1645.7</ele>
        <time>2026-08-30T08:17:26Z</time>
      </trkpt>
      <trkpt lat="44.77124" lon="6.9676">
        <ele>1645.4</ele>
        <time>2026-08-30T08:17:31Z</time>
      </trkpt>
      <trkpt lat="44.77124" lon="6.9677">
        <ele>1644.6</ele>
        <time>2026-08-30T08:17:37Z</time>
      </trkpt>
      <trkpt lat="44.77122" lon="6.9678">
        <ele>1644.3</ele>
        <time>2026-08-30T08:17:42Z</time>
      </trkpt>
      <trkpt lat="44.77121" lon="6.96789">
        <ele>1643.8</ele>
        <time>2026-08-30T08:17:47Z</time>
      </trkpt>
      <trkpt lat="44.77122" lon="6.96802">
        <ele>1642.4</ele>
        <time>2026-08-30T08:17:53Z</time>
      </trkpt>
      <trkpt lat="44.77121" lon="6.96813">
        <ele>1641.7</ele>
        <time>2026-08-30T08:17:58Z</time>
      </trkpt>
      <trkpt lat="44.7712" lon="6.96824">
        <ele>1641</ele>
        <time>2026-08-30T08:18:03Z</time>
      </trkpt>
      <trkpt lat="44.7712" lon="6.96835">
        <ele>1640.1</ele>
        <time>2026-08-30T08:18:09Z</time>
      </trkpt>
      <trkpt lat="44.77119" lon="6.96844">
        <ele>1640.1</ele>
        <time>2026-08-30T08:18:14Z</time>
      </trkpt>
      <trkpt lat="44.77118" lon="6.96853">
        <ele>1640</ele>
        <time>2026-08-30T08:18:19Z</time>
      </trkpt>
      <trkpt lat="44.77117" lon="6.96864">
        <ele>1639.8</ele>
        <time>2026-08-30T08:18:25Z</time>
      </trkpt>
      <trkpt lat="44.77118" lon="6.96873">
        <ele>1639.3</ele>
        <time>2026-08-30T08:18:30Z</time>
      </trkpt>
      <trkpt lat="44.77117" lon="6.96881">
        <ele>1639.2</ele>
        <time>2026-08-30T08:18:35Z</time>
      </trkpt>
      <trkpt lat="44.77114" lon="6.96892">
        <ele>1639.4</ele>
        <time>2026-08-30T08:18:41Z</time>
      </trkpt>
      <trkpt lat="44.77113" lon="6.96901">
        <ele>1639.3</ele>
        <time>2026-08-30T08:18:46Z</time>
      </trkpt>
      <trkpt lat="44.77113" lon="6.96911">
        <ele>1638.9</ele>
        <time>2026-08-30T08:18:51Z</time>
      </trkpt>
      <trkpt lat="44.77114" lon="6.9692">
        <ele>1638.4</ele>
        <time>2026-08-30T08:18:57Z</time>
      </trkpt>
      <trkpt lat="44.77114" lon="6.96929">
        <ele>1638.3</ele>
        <time>2026-08-30T08:19:02Z</time>
      </trkpt>
      <trkpt lat="44.77116" lon="6.96941">
        <ele>1637.7</ele>
        <time>2026-08-30T08:19:07Z</time>
      </trkpt>
      <trkpt lat="44.77117" lon="6.96953">
        <ele>1637.3</ele>
        <time>2026-08-30T08:19:13Z</time>
      </trkpt>
      <trkpt lat="44.77115" lon="6.96963">
        <ele>1637.5</ele>
        <time>2026-08-30T08:19:18Z</time>
      </trkpt>
      <trkpt lat="44.77114" lon="6.96972">
        <ele>1637.5</ele>
        <time>2026-08-30T08:19:23Z</time>
      </trkpt>
      <trkpt lat="44.77112" lon="6.96983">
        <ele>1637.5</ele>
        <time>2026-08-30T08:19:29Z</time>
      </trkpt>
      <trkpt lat="44.7711" lon="6.96992">
        <ele>1637.6</ele>
        <time>2026-08-30T08:19:34Z</time>
      </trkpt>
      <trkpt lat="44.77107" lon="6.97001">
        <ele>1637.9</ele>
        <time>2026-08-30T08:19:39Z</time>
      </trkpt>
      <trkpt lat="44.77106" lon="6.97011">
        <ele>1638.8</ele>
        <time>2026-08-30T08:19:45Z</time>
      </trkpt>
      <trkpt lat="44.77104" lon="6.97018">
        <ele>1639.5</ele>
        <time>2026-08-30T08:19:50Z</time>
      </trkpt>
      <trkpt lat="44.77104" lon="6.97028">
        <ele>1640.2</ele>
        <time>2026-08-30T08:19:55Z</time>
      </trkpt>
      <trkpt lat="44.77106" lon="6.9704">
        <ele>1640.7</ele>
        <time>2026-08-30T08:20:01Z</time>
      </trkpt>
      <trkpt lat="44.77105" lon="6.9705">
        <ele>1641.6</ele>
        <time>2026-08-30T08:20:06Z</time>
      </trkpt>
      <trkpt lat="44.77103" lon="6.97057">
        <ele>1642.4</ele>
        <time>2026-08-30T08:20:11Z</time>
      </trkpt>
      <trkpt lat="44.77102" lon="6.97067">
        <ele>1643.3</ele>
        <time>2026-08-30T08:20:17Z</time>
      </trkpt>
      <trkpt lat="44.77101" lon="6.97075">
        <ele>1644</ele>
        <time>2026-08-30T08:20:22Z</time>
      </trkpt>
      <trkpt lat="44.77099" lon="6.97083">
        <ele>1645</ele>
        <time>2026-08-30T08:20:27Z</time>
      </trkpt>
      <trkpt lat="44.77096" lon="6.97093">
        <ele>1646</ele>
        <time>2026-08-30T08:20:33Z</time>
      </trkpt>
      <trkpt lat="44.77092" lon="6.97102">
        <ele>1647.3</ele>
        <time>2026-08-30T08:20:38Z</time>
      </trkpt>
      <trkpt lat="44.7709" lon="6.9711">
        <ele>1648</ele>
        <time>2026-08-30T08:20:43Z</time>
      </trkpt>
      <trkpt lat="44.77087" lon="6.97118">
        <ele>1649</ele>
        <time>2026-08-30T08:20:49Z</time>
      </trkpt>
      <trkpt lat="44.77084" lon="6.97125">
        <ele>1649.9</ele>
        <time>2026-08-30T08:20:54Z</time>
      </trkpt>
      <trkpt lat="44.77082" lon="6.97134">
        <ele>1650.8</ele>
        <time>2026-08-30T08:20:59Z</time>
      </trkpt>
      <trkpt lat="44.77079" lon="6.97146">
        <ele>1652.2</ele>
        <time>2026-08-30T08:21:05Z</time>
      </trkpt>
      <trkpt lat="44.77076" lon="6.97153">
        <ele>1653.3</ele>
        <time>2026-08-30T08:21:10Z</time>
      </trkpt>
      <trkpt lat="44.77073" lon="6.97161">
        <ele>1654.4</ele>
        <time>2026-08-30T08:21:15Z</time>
      </trkpt>
      <trkpt lat="44.77069" lon="6.97167">
        <ele>1655.6</ele>
        <time>2026-08-30T08:21:21Z</time>
      </trkpt>
      <trkpt lat="44.77066" lon="6.97173">
        <ele>1656.2</ele>
        <time>2026-08-30T08:21:26Z</time>
      </trkpt>
      <trkpt lat="44.77061" lon="6.97178">
        <ele>1657.3</ele>
        <time>2026-08-30T08:21:31Z</time>
      </trkpt>
      <trkpt lat="44.77056" lon="6.97186">
        <ele>1658.3</ele>
        <time>2026-08-30T08:21:37Z</time>
      </trkpt>
      <trkpt lat="44.77053" lon="6.97192">
        <ele>1658.8</ele>
        <time>2026-08-30T08:21:42Z</time>
      </trkpt>
      <trkpt lat="44.77049" lon="6.97199">
        <ele>1659.6</ele>
        <time>2026-08-30T08:21:47Z</time>
      </trkpt>
      <trkpt lat="44.77044" lon="6.97206">
        <ele>1660.7</ele>
        <time>2026-08-30T08:21:53Z</time>
      </trkpt>
      <trkpt lat="44.7704" lon="6.97212">
        <ele>1661.6</ele>
        <time>2026-08-30T08:21:58Z</time>
      </trkpt>
      <trkpt lat="44.77037" lon="6.97219">
        <ele>1662.1</ele>
        <time>2026-08-30T08:22:03Z</time>
      </trkpt>
      <trkpt lat="44.77034" lon="6.97226">
        <ele>1662.7</ele>
        <time>2026-08-30T08:22:09Z</time>
      </trkpt>
      <trkpt lat="44.7703" lon="6.97232">
        <ele>1663.6</ele>
        <time>2026-08-30T08:22:14Z</time>
      </trkpt>
      <trkpt lat="44.77026" lon="6.97238">
        <ele>1664.5</ele>
        <time>2026-08-30T08:22:19Z</time>
      </trkpt>
      <trkpt lat="44.77022" lon="6.97245">
        <ele>1665.3</ele>
        <time>2026-08-30T08:22:25Z</time>
      </trkpt>
      <trkpt lat="44.77019" lon="6.97253">
        <ele>1665.5</ele>
        <time>2026-08-30T08:22:30Z</time>
      </trkpt>
      <trkpt lat="44.77017" lon="6.97261">
        <ele>1664.8</ele>
        <time>2026-08-30T08:22:35Z</time>
      </trkpt>
      <trkpt lat="44.77015" lon="6.97268">
        <ele>1664.2</ele>
        <time>2026-08-30T08:22:41Z</time>
      </trkpt>
      <trkpt lat="44.7701" lon="6.97273">
        <ele>1664.7</ele>
        <time>2026-08-30T08:22:46Z</time>
      </trkpt>
      <trkpt lat="44.77006" lon="6.97278">
        <ele>1664.9</ele>
        <time>2026-08-30T08:22:51Z</time>
      </trkpt>
      <trkpt lat="44.77001" lon="6.97284">
        <ele>1665.1</ele>
        <time>2026-08-30T08:22:57Z</time>
      </trkpt>
      <trkpt lat="44.76997" lon="6.97288">
        <ele>1665.7</ele>
        <time>2026-08-30T08:23:02Z</time>
      </trkpt>
      <trkpt lat="44.76994" lon="6.97292">
        <ele>1666.1</ele>
        <time>2026-08-30T08:23:07Z</time>
      </trkpt>
      <trkpt lat="44.76987" lon="6.97298">
        <ele>1667.6</ele>
        <time>2026-08-30T08:23:13Z</time>
      </trkpt>
      <trkpt lat="44.76983" lon="6.97302">
        <ele>1668.3</ele>
        <time>2026-08-30T08:23:18Z</time>
      </trkpt>
      <trkpt lat="44.76983" lon="6.97305">
        <ele>1667.8</ele>
        <time>2026-08-30T08:23:23Z</time>
      </trkpt>
      <trkpt lat="44.76981" lon="6.97307">
        <ele>1668.2</ele>
        <time>2026-08-30T08:23:29Z</time>
      </trkpt>
      <trkpt lat="44.76981" lon="6.97307">
        <ele>1668.2</ele>
        <time>2026-08-30T08:23:34Z</time>
      </trkpt>
      <trkpt lat="44.76981" lon="6.97307">
        <ele>1668.2</ele>
        <time>2026-08-30T08:23:39Z</time>
      </trkpt>
      <trkpt lat="44.76981" lon="6.97307">
        <ele>1668.2</ele>
        <time>2026-08-30T08:23:45Z</time>
      </trkpt>
      <trkpt lat="44.76981" lon="6.97307">
        <ele>1668.2</ele>
        <time>2026-08-30T08:23:50Z</time>
      </trkpt>
      <trkpt lat="44.76981" lon="6.97307">
        <ele>1668.2</ele>
        <time>2026-08-30T08:23:55Z</time>
      </trkpt>
      <trkpt lat="44.76976" lon="6.9731">
        <ele>1669.4</ele>
        <time>2026-08-30T08:24:01Z</time>
      </trkpt>
      <trkpt lat="44.76973" lon="6.97317">
        <ele>1669.3</ele>
        <time>2026-08-30T08:24:06Z</time>
      </trkpt>
      <trkpt lat="44.76968" lon="6.97322">
        <ele>1670.1</ele>
        <time>2026-08-30T08:24:11Z</time>
      </trkpt>
      <trkpt lat="44.76967" lon="6.97324">
        <ele>1670.1</ele>
        <time>2026-08-30T08:24:17Z</time>
      </trkpt>
      <trkpt lat="44.76965" lon="6.97328">
        <ele>1670.1</ele>
        <time>2026-08-30T08:24:22Z</time>
      </trkpt>
      <trkpt lat="44.7696" lon="6.97333">
        <ele>1671</ele>
        <time>2026-08-30T08:24:27Z</time>
      </trkpt>
      <trkpt lat="44.76954" lon="6.97341">
        <ele>1671.8</ele>
        <time>2026-08-30T08:24:33Z</time>
      </trkpt>
      <trkpt lat="44.76948" lon="6.97348">
        <ele>1672.7</ele>
        <time>2026-08-30T08:24:38Z</time>
      </trkpt>
      <trkpt lat="44.76943" lon="6.97354">
        <ele>1673.4</ele>
        <time>2026-08-30T08:24:43Z</time>
      </trkpt>
      <trkpt lat="44.76935" lon="6.97361">
        <ele>1675</ele>
        <time>2026-08-30T08:24:49Z</time>
      </trkpt>
      <trkpt lat="44.7693" lon="6.97366">
        <ele>1675.9</ele>
        <time>2026-08-30T08:24:54Z</time>
      </trkpt>
      <trkpt lat="44.76924" lon="6.97371">
        <ele>1677.2</ele>
        <time>2026-08-30T08:24:59Z</time>
      </trkpt>
      <trkpt lat="44.76918" lon="6.97377">
        <ele>1678.2</ele>
        <time>2026-08-30T08:25:05Z</time>
      </trkpt>
      <trkpt lat="44.76911" lon="6.97382">
        <ele>1681.3</ele>
        <time>2026-08-30T08:25:10Z</time>
      </trkpt>
      <trkpt lat="44.76906" lon="6.97386">
        <ele>1683.7</ele>
        <time>2026-08-30T08:25:15Z</time>
      </trkpt>
      <trkpt lat="44.769" lon="6.97394">
        <ele>1685.9</ele>
        <time>2026-08-30T08:25:21Z</time>
      </trkpt>
      <trkpt lat="44.76894" lon="6.97403">
        <ele>1687.8</ele>
        <time>2026-08-30T08:25:26Z</time>
      </trkpt>
      <trkpt lat="44.76889" lon="6.97409">
        <ele>1689.5</ele>
        <time>2026-08-30T08:25:31Z</time>
      </trkpt>
      <trkpt lat="44.76884" lon="6.97417">
        <ele>1690.7</ele>
        <time>2026-08-30T08:25:37Z</time>
      </trkpt>
      <trkpt lat="44.76879" lon="6.97423">
        <ele>1692.2</ele>
        <time>2026-08-30T08:25:42Z</time>
      </trkpt>
      <trkpt lat="44.76875" lon="6.97429">
        <ele>1693.1</ele>
        <time>2026-08-30T08:25:47Z</time>
      </trkpt>
      <trkpt lat="44.76869" lon="6.97433">
        <ele>1695.5</ele>
        <time>2026-08-30T08:25:53Z</time>
      </trkpt>
      <trkpt lat="44.76862" lon="6.97438">
        <ele>1698.1</ele>
        <time>2026-08-30T08:25:58Z</time>
      </trkpt>
      <trkpt lat="44.76857" lon="6.97441">
        <ele>1700.1</ele>
        <time>2026-08-30T08:26:03Z</time>
      </trkpt>
      <trkpt lat="44.7685" lon="6.97445">
        <ele>1702.9</ele>
        <time>2026-08-30T08:26:09Z</time>
      </trkpt>
      <trkpt lat="44.76844" lon="6.9745">
        <ele>1704.7</ele>
        <time>2026-08-30T08:26:14Z</time>
      </trkpt>
      <trkpt lat="44.76839" lon="6.97458">
        <ele>1705.1</ele>
        <time>2026-08-30T08:26:19Z</time>
      </trkpt>
      <trkpt lat="44.76835" lon="6.97466">
        <ele>1704.9</ele>
        <time>2026-08-30T08:26:25Z</time>
      </trkpt>
      <trkpt lat="44.76832" lon="6.97474">
        <ele>1704.5</ele>
        <time>2026-08-30T08:26:30Z</time>
      </trkpt>
      <trkpt lat="44.76831" lon="6.97484">
        <ele>1702.3</ele>
        <time>2026-08-30T08:26:35Z</time>
      </trkpt>
      <trkpt lat="44.76831" lon="6.97495">
        <ele>1699.1</ele>
        <time>2026-08-30T08:26:41Z</time>
      </trkpt>
      <trkpt lat="44.7683" lon="6.97505">
        <ele>1697.3</ele>
        <time>2026-08-30T08:26:46Z</time>
      </trkpt>
      <trkpt lat="44.76828" lon="6.97517">
        <ele>1696.3</ele>
        <time>2026-08-30T08:26:51Z</time>
      </trkpt>
      <trkpt lat="44.76826" lon="6.97528">
        <ele>1695.5</ele>
        <time>2026-08-30T08:26:57Z</time>
      </trkpt>
      <trkpt lat="44.76824" lon="6.97538">
        <ele>1694.7</ele>
        <time>2026-08-30T08:27:02Z</time>
      </trkpt>
      <trkpt lat="44.76823" lon="6.97546">
        <ele>1693.7</ele>
        <time>2026-08-30T08:27:07Z</time>
      </trkpt>
      <trkpt lat="44.76822" lon="6.97556">
        <ele>1692.3</ele>
        <time>2026-08-30T08:27:13Z</time>
      </trkpt>
      <trkpt lat="44.76821" lon="6.97564">
        <ele>1691.3</ele>
        <time>2026-08-30T08:27:18Z</time>
      </trkpt>
      <trkpt lat="44.7682" lon="6.97572">
        <ele>1690.2</ele>
        <time>2026-08-30T08:27:23Z</time>
      </trkpt>
      <trkpt lat="44.7682" lon="6.9758">
        <ele>1688.5</ele>
        <time>2026-08-30T08:27:29Z</time>
      </trkpt>
      <trkpt lat="44.76816" lon="6.97588">
        <ele>1689.5</ele>
        <time>2026-08-30T08:27:34Z</time>
      </trkpt>
      <trkpt lat="44.76814" lon="6.97595">
        <ele>1689.6</ele>
        <time>2026-08-30T08:27:39Z</time>
      </trkpt>
      <trkpt lat="44.76809" lon="6.97604">
        <ele>1691.1</ele>
        <time>2026-08-30T08:27:45Z</time>
      </trkpt>
      <trkpt lat="44.76805" lon="6.97611">
        <ele>1692.2</ele>
        <time>2026-08-30T08:27:50Z</time>
      </trkpt>
      <trkpt lat="44.76801" lon="6.97618">
        <ele>1693.3</ele>
        <time>2026-08-30T08:27:55Z</time>
      </trkpt>
      <trkpt lat="44.76798" lon="6.97626">
        <ele>1693.6</ele>
        <time>2026-08-30T08:28:01Z</time>
      </trkpt>
      <trkpt lat="44.76795" lon="6.97634">
        <ele>1693.9</ele>
        <time>2026-08-30T08:28:06Z</time>
      </trkpt>
      <trkpt lat="44.76794" lon="6.97644">
        <ele>1692.7</ele>
        <time>2026-08-30T08:28:11Z</time>
      </trkpt>
      <trkpt lat="44.76791" lon="6.97657">
        <ele>1692</ele>
        <time>2026-08-30T08:28:17Z</time>
      </trkpt>
      <trkpt lat="44.76788" lon="6.97664">
        <ele>1692.3</ele>
        <time>2026-08-30T08:28:22Z</time>
      </trkpt>
      <trkpt lat="44.76784" lon="6.9767">
        <ele>1693.1</ele>
        <time>2026-08-30T08:28:27Z</time>
      </trkpt>
      <trkpt lat="44.76779" lon="6.97678">
        <ele>1693.5</ele>
        <time>2026-08-30T08:28:33Z</time>
      </trkpt>
      <trkpt lat="44.76774" lon="6.97684">
        <ele>1694.5</ele>
        <time>2026-08-30T08:28:38Z</time>
      </trkpt>
      <trkpt lat="44.76772" lon="6.97691">
        <ele>1693.6</ele>
        <time>2026-08-30T08:28:43Z</time>
      </trkpt>
      <trkpt lat="44.76769" lon="6.97698">
        <ele>1693.2</ele>
        <time>2026-08-30T08:28:49Z</time>
      </trkpt>
      <trkpt lat="44.76767" lon="6.97704">
        <ele>1692.5</ele>
        <time>2026-08-30T08:28:54Z</time>
      </trkpt>
      <trkpt lat="44.76765" lon="6.9771">
        <ele>1691.8</ele>
        <time>2026-08-30T08:28:59Z</time>
      </trkpt>
      <trkpt lat="44.76759" lon="6.97716">
        <ele>1692.8</ele>
        <time>2026-08-30T08:29:05Z</time>
      </trkpt>
      <trkpt lat="44.76755" lon="6.97721">
        <ele>1693.2</ele>
        <time>2026-08-30T08:29:10Z</time>
      </trkpt>
      <trkpt lat="44.7675" lon="6.97728">
        <ele>1693.3</ele>
        <time>2026-08-30T08:29:15Z</time>
      </trkpt>
      <trkpt lat="44.76745" lon="6.97737">
        <ele>1693.6</ele>
        <time>2026-08-30T08:29:21Z</time>
      </trkpt>
      <trkpt lat="44.76741" lon="6.97745">
        <ele>1693.4</ele>
        <time>2026-08-30T08:29:26Z</time>
      </trkpt>
      <trkpt lat="44.76736" lon="6.97754">
        <ele>1694</ele>
        <time>2026-08-30T08:29:31Z</time>
      </trkpt>
      <trkpt lat="44.76734" lon="6.97762">
        <ele>1693.5</ele>
        <time>2026-08-30T08:29:37Z</time>
      </trkpt>
      <trkpt lat="44.76731" lon="6.97767">
        <ele>1694.1</ele>
        <time>2026-08-30T08:29:42Z</time>
      </trkpt>
      <trkpt lat="44.76726" lon="6.97775">
        <ele>1695.1</ele>
        <time>2026-08-30T08:29:47Z</time>
      </trkpt>
      <trkpt lat="44.76722" lon="6.97784">
        <ele>1695.4</ele>
        <time>2026-08-30T08:29:53Z</time>
      </trkpt>
      <trkpt lat="44.76716" lon="6.97787">
        <ele>1697.8</ele>
        <time>2026-08-30T08:29:58Z</time>
      </trkpt>
      <trkpt lat="44.76712" lon="6.97793">
        <ele>1698.6</ele>
        <time>2026-08-30T08:30:03Z</time>
      </trkpt>
      <trkpt lat="44.76706" lon="6.97798">
        <ele>1700.5</ele>
        <time>2026-08-30T08:30:09Z</time>
      </trkpt>
      <trkpt lat="44.76701" lon="6.97806">
        <ele>1701.2</ele>
        <time>2026-08-30T08:30:14Z</time>
      </trkpt>
      <trkpt lat="44.76696" lon="6.97812">
        <ele>1702.3</ele>
        <time>2026-08-30T08:30:19Z</time>
      </trkpt>
      <trkpt lat="44.76689" lon="6.9782">
        <ele>1703.8</ele>
        <time>2026-08-30T08:30:25Z</time>
      </trkpt>
      <trkpt lat="44.76684" lon="6.97827">
        <ele>1704.4</ele>
        <time>2026-08-30T08:30:30Z</time>
      </trkpt>
      <trkpt lat="44.7668" lon="6.97833">
        <ele>1704.8</ele>
        <time>2026-08-30T08:30:35Z</time>
      </trkpt>
      <trkpt lat="44.76674" lon="6.97839">
        <ele>1705.9</ele>
        <time>2026-08-30T08:30:41Z</time>
      </trkpt>
      <trkpt lat="44.76671" lon="6.97843">
        <ele>1706.1</ele>
        <time>2026-08-30T08:30:46Z</time>
      </trkpt>
      <trkpt lat="44.76668" lon="6.97848">
        <ele>1706</ele>
        <time>2026-08-30T08:30:51Z</time>
      </trkpt>
      <trkpt lat="44.76664" lon="6.97855">
        <ele>1706.6</ele>
        <time>2026-08-30T08:30:57Z</time>
      </trkpt>
      <trkpt lat="44.76661" lon="6.97861">
        <ele>1707.1</ele>
        <time>2026-08-30T08:31:02Z</time>
      </trkpt>
      <trkpt lat="44.76658" lon="6.97867">
        <ele>1707.6</ele>
        <time>2026-08-30T08:31:07Z</time>
      </trkpt>
      <trkpt lat="44.76654" lon="6.97876">
        <ele>1708</ele>
        <time>2026-08-30T08:31:13Z</time>
      </trkpt>
      <trkpt lat="44.76651" lon="6.97882">
        <ele>1708.5</ele>
        <time>2026-08-30T08:31:18Z</time>
      </trkpt>
      <trkpt lat="44.7665" lon="6.97889">
        <ele>1707.1</ele>
        <time>2026-08-30T08:31:23Z</time>
      </trkpt>
      <trkpt lat="44.76648" lon="6.97897">
        <ele>1706.2</ele>
        <time>2026-08-30T08:31:29Z</time>
      </trkpt>
      <trkpt lat="44.76645" lon="6.97902">
        <ele>1706.9</ele>
        <time>2026-08-30T08:31:34Z</time>
      </trkpt>
      <trkpt lat="44.76641" lon="6.97908">
        <ele>1708.1</ele>
        <time>2026-08-30T08:31:39Z</time>
      </trkpt>
      <trkpt lat="44.76638" lon="6.97918">
        <ele>1707.5</ele>
        <time>2026-08-30T08:31:45Z</time>
      </trkpt>
      <trkpt lat="44.76635" lon="6.97927">
        <ele>1708.3</ele>
        <time>2026-08-30T08:31:50Z</time>
      </trkpt>
      <trkpt lat="44.76632" lon="6.97933">
        <ele>1709.6</ele>
        <time>2026-08-30T08:31:55Z</time>
      </trkpt>
      <trkpt lat="44.76624" lon="6.97939">
        <ele>1714.5</ele>
        <time>2026-08-30T08:32:01Z</time>
      </trkpt>
      <trkpt lat="44.76618" lon="6.97945">
        <ele>1717.8</ele>
        <time>2026-08-30T08:32:06Z</time>
      </trkpt>
      <trkpt lat="44.76611" lon="6.97951">
        <ele>1721.8</ele>
        <time>2026-08-30T08:32:11Z</time>
      </trkpt>
      <trkpt lat="44.76606" lon="6.97958">
        <ele>1724</ele>
        <time>2026-08-30T08:32:17Z</time>
      </trkpt>
      <trkpt lat="44.76601" lon="6.97965">
        <ele>1726.2</ele>
        <time>2026-08-30T08:32:22Z</time>
      </trkpt>
      <trkpt lat="44.76596" lon="6.97971">
        <ele>1728.5</ele>
        <time>2026-08-30T08:32:27Z</time>
      </trkpt>
      <trkpt lat="44.76591" lon="6.97977">
        <ele>1730.7</ele>
        <time>2026-08-30T08:32:33Z</time>
      </trkpt>
      <trkpt lat="44.76586" lon="6.97982">
        <ele>1733.1</ele>
        <time>2026-08-30T08:32:38Z</time>
      </trkpt>
      <trkpt lat="44.76583" lon="6.97986">
        <ele>1734.3</ele>
        <time>2026-08-30T08:32:43Z</time>
      </trkpt>
      <trkpt lat="44.76578" lon="6.97991">
        <ele>1737</ele>
        <time>2026-08-30T08:32:49Z</time>
      </trkpt>
      <trkpt lat="44.76576" lon="6.97997">
        <ele>1737.1</ele>
        <time>2026-08-30T08:32:54Z</time>
      </trkpt>
      <trkpt lat="44.76573" lon="6.98002">
        <ele>1738.2</ele>
        <time>2026-08-30T08:32:59Z</time>
      </trkpt>
      <trkpt lat="44.76571" lon="6.98007">
        <ele>1738.6</ele>
        <time>2026-08-30T08:33:05Z</time>
      </trkpt>
      <trkpt lat="44.76568" lon="6.98011">
        <ele>1739.8</ele>
        <time>2026-08-30T08:33:10Z</time>
      </trkpt>
      <trkpt lat="44.76568" lon="6.98017">
        <ele>1738.4</ele>
        <time>2026-08-30T08:33:15Z</time>
      </trkpt>
      <trkpt lat="44.76567" lon="6.98025">
        <ele>1737.2</ele>
        <time>2026-08-30T08:33:21Z</time>
      </trkpt>
      <trkpt lat="44.76566" lon="6.98033">
        <ele>1735.9</ele>
        <time>2026-08-30T08:33:26Z</time>
      </trkpt>
      <trkpt lat="44.76565" lon="6.98041">
        <ele>1734.7</ele>
        <time>2026-08-30T08:33:31Z</time>
      </trkpt>
      <trkpt lat="44.76566" lon="6.98042">
        <ele>1733.8</ele>
        <time>2026-08-30T08:33:37Z</time>
      </trkpt>
      <trkpt lat="44.76567" lon="6.98042">
        <ele>1733.1</ele>
        <time>2026-08-30T08:33:42Z</time>
      </trkpt>
      <trkpt lat="44.76567" lon="6.98042">
        <ele>1733.1</ele>
        <time>2026-08-30T08:33:47Z</time>
      </trkpt>
      <trkpt lat="44.76567" lon="6.98042">
        <ele>1733.1</ele>
        <time>2026-08-30T08:33:53Z</time>
      </trkpt>
      <trkpt lat="44.76567" lon="6.98042">
        <ele>1733.1</ele>
        <time>2026-08-30T08:33:58Z</time>
      </trkpt>
      <trkpt lat="44.76566" lon="6.98054">
        <ele>1730.9</ele>
        <time>2026-08-30T08:34:03Z</time>
      </trkpt>
      <trkpt lat="44.76565" lon="6.98054">
        <ele>1731.5</ele>
        <time>2026-08-30T08:34:09Z</time>
      </trkpt>
      <trkpt lat="44.76565" lon="6.98054">
        <ele>1731.5</ele>
        <time>2026-08-30T08:34:14Z</time>
      </trkpt>
      <trkpt lat="44.76565" lon="6.98054">
        <ele>1731.5</ele>
        <time>2026-08-30T08:34:19Z</time>
      </trkpt>
      <trkpt lat="44.76561" lon="6.98059">
        <ele>1732.7</ele>
        <time>2026-08-30T08:34:25Z</time>
      </trkpt>
      <trkpt lat="44.7656" lon="6.98065">
        <ele>1731.8</ele>
        <time>2026-08-30T08:34:30Z</time>
      </trkpt>
      <trkpt lat="44.7656" lon="6.98071">
        <ele>1730.3</ele>
        <time>2026-08-30T08:34:35Z</time>
      </trkpt>
      <trkpt lat="44.7656" lon="6.98081">
        <ele>1727.8</ele>
        <time>2026-08-30T08:34:41Z</time>
      </trkpt>
      <trkpt lat="44.76557" lon="6.98089">
        <ele>1727.2</ele>
        <time>2026-08-30T08:34:46Z</time>
      </trkpt>
      <trkpt lat="44.76554" lon="6.98097">
        <ele>1726.5</ele>
        <time>2026-08-30T08:34:51Z</time>
      </trkpt>
      <trkpt lat="44.7655" lon="6.98105">
        <ele>1726.4</ele>
        <time>2026-08-30T08:34:57Z</time>
      </trkpt>
      <trkpt lat="44.76548" lon="6.9811">
        <ele>1725.9</ele>
        <time>2026-08-30T08:35:02Z</time>
      </trkpt>
      <trkpt lat="44.76547" lon="6.98115">
        <ele>1725</ele>
        <time>2026-08-30T08:35:07Z</time>
      </trkpt>
      <trkpt lat="44.76545" lon="6.98121">
        <ele>1724.2</ele>
        <time>2026-08-30T08:35:13Z</time>
      </trkpt>
      <trkpt lat="44.76545" lon="6.98129">
        <ele>1721.8</ele>
        <time>2026-08-30T08:35:18Z</time>
      </trkpt>
      <trkpt lat="44.76546" lon="6.98136">
        <ele>1719.2</ele>
        <time>2026-08-30T08:35:23Z</time>
      </trkpt>
      <trkpt lat="44.76542" lon="6.98144">
        <ele>1718.8</ele>
        <time>2026-08-30T08:35:29Z</time>
      </trkpt>
      <trkpt lat="44.7654" lon="6.98152">
        <ele>1717.3</ele>
        <time>2026-08-30T08:35:34Z</time>
      </trkpt>
      <trkpt lat="44.76538" lon="6.98159">
        <ele>1716.1</ele>
        <time>2026-08-30T08:35:39Z</time>
      </trkpt>
      <trkpt lat="44.76533" lon="6.98168">
        <ele>1715.8</ele>
        <time>2026-08-30T08:35:45Z</time>
      </trkpt>
      <trkpt lat="44.76529" lon="6.98178">
        <ele>1714.6</ele>
        <time>2026-08-30T08:35:50Z</time>
      </trkpt>
      <trkpt lat="44.76527" lon="6.98186">
        <ele>1713.2</ele>
        <time>2026-08-30T08:35:55Z</time>
      </trkpt>
      <trkpt lat="44.76524" lon="6.98195">
        <ele>1711.8</ele>
        <time>2026-08-30T08:36:01Z</time>
      </trkpt>
      <trkpt lat="44.76518" lon="6.98202">
        <ele>1712.4</ele>
        <time>2026-08-30T08:36:06Z</time>
      </trkpt>
      <trkpt lat="44.76513" lon="6.98208">
        <ele>1712.8</ele>
        <time>2026-08-30T08:36:11Z</time>
      </trkpt>
      <trkpt lat="44.76505" lon="6.98216">
        <ele>1713.8</ele>
        <time>2026-08-30T08:36:17Z</time>
      </trkpt>
      <trkpt lat="44.765" lon="6.98226">
        <ele>1712.8</ele>
        <time>2026-08-30T08:36:22Z</time>
      </trkpt>
      <trkpt lat="44.76496" lon="6.98234">
        <ele>1712.9</ele>
        <time>2026-08-30T08:36:27Z</time>
      </trkpt>
      <trkpt lat="44.7649" lon="6.9824">
        <ele>1714.8</ele>
        <time>2026-08-30T08:36:33Z</time>
      </trkpt>
      <trkpt lat="44.76486" lon="6.98247">
        <ele>1715.1</ele>
        <time>2026-08-30T08:36:38Z</time>
      </trkpt>
      <trkpt lat="44.76483" lon="6.98256">
        <ele>1714.3</ele>
        <time>2026-08-30T08:36:43Z</time>
      </trkpt>
      <trkpt lat="44.76478" lon="6.98266">
        <ele>1714.5</ele>
        <time>2026-08-30T08:36:49Z</time>
      </trkpt>
      <trkpt lat="44.76474" lon="6.98273">
        <ele>1714.9</ele>
        <time>2026-08-30T08:36:54Z</time>
      </trkpt>
      <trkpt lat="44.76469" lon="6.98281">
        <ele>1715.5</ele>
        <time>2026-08-30T08:36:59Z</time>
      </trkpt>
      <trkpt lat="44.76463" lon="6.9829">
        <ele>1716.3</ele>
        <time>2026-08-30T08:37:05Z</time>
      </trkpt>
      <trkpt lat="44.76461" lon="6.983">
        <ele>1714.3</ele>
        <time>2026-08-30T08:37:10Z</time>
      </trkpt>
      <trkpt lat="44.76458" lon="6.9831">
        <ele>1712.7</ele>
        <time>2026-08-30T08:37:15Z</time>
      </trkpt>
      <trkpt lat="44.76453" lon="6.98322">
        <ele>1711.6</ele>
        <time>2026-08-30T08:37:21Z</time>
      </trkpt>
      <trkpt lat="44.76452" lon="6.98333">
        <ele>1708.5</ele>
        <time>2026-08-30T08:37:26Z</time>
      </trkpt>
      <trkpt lat="44.7645" lon="6.98344">
        <ele>1707.3</ele>
        <time>2026-08-30T08:37:31Z</time>
      </trkpt>
      <trkpt lat="44.7645" lon="6.98354">
        <ele>1705.3</ele>
        <time>2026-08-30T08:37:37Z</time>
      </trkpt>
      <trkpt lat="44.76449" lon="6.98364">
        <ele>1703.8</ele>
        <time>2026-08-30T08:37:42Z</time>
      </trkpt>
      <trkpt lat="44.76446" lon="6.9837">
        <ele>1704</ele>
        <time>2026-08-30T08:37:47Z</time>
      </trkpt>
      <trkpt lat="44.76446" lon="6.9837">
        <ele>1704</ele>
        <time>2026-08-30T08:37:53Z</time>
      </trkpt>
      <trkpt lat="44.76444" lon="6.98372">
        <ele>1704.5</ele>
        <time>2026-08-30T08:37:58Z</time>
      </trkpt>
      <trkpt lat="44.76441" lon="6.9838">
        <ele>1704.2</ele>
        <time>2026-08-30T08:38:03Z</time>
      </trkpt>
      <trkpt lat="44.76434" lon="6.98385">
        <ele>1706.2</ele>
        <time>2026-08-30T08:38:09Z</time>
      </trkpt>
      <trkpt lat="44.76429" lon="6.98388">
        <ele>1707.8</ele>
        <time>2026-08-30T08:38:14Z</time>
      </trkpt>
      <trkpt lat="44.76424" lon="6.98391">
        <ele>1709.3</ele>
        <time>2026-08-30T08:38:19Z</time>
      </trkpt>
      <trkpt lat="44.76419" lon="6.98398">
        <ele>1709.7</ele>
        <time>2026-08-30T08:38:25Z</time>
      </trkpt>
      <trkpt lat="44.76415" lon="6.98404">
        <ele>1710</ele>
        <time>2026-08-30T08:38:30Z</time>
      </trkpt>
      <trkpt lat="44.76413" lon="6.98413">
        <ele>1708.7</ele>
        <time>2026-08-30T08:38:35Z</time>
      </trkpt>
      <trkpt lat="44.76407" lon="6.98422">
        <ele>1709.3</ele>
        <time>2026-08-30T08:38:41Z</time>
      </trkpt>
      <trkpt lat="44.76403" lon="6.98431">
        <ele>1708.8</ele>
        <time>2026-08-30T08:38:46Z</time>
      </trkpt>
      <trkpt lat="44.76399" lon="6.98438">
        <ele>1708.7</ele>
        <time>2026-08-30T08:38:51Z</time>
      </trkpt>
      <trkpt lat="44.76395" lon="6.98447">
        <ele>1708</ele>
        <time>2026-08-30T08:38:57Z</time>
      </trkpt>
      <trkpt lat="44.76391" lon="6.98455">
        <ele>1707.4</ele>
        <time>2026-08-30T08:39:02Z</time>
      </trkpt>
      <trkpt lat="44.76388" lon="6.98463">
        <ele>1706.3</ele>
        <time>2026-08-30T08:39:07Z</time>
      </trkpt>
      <trkpt lat="44.76383" lon="6.98474">
        <ele>1705.1</ele>
        <time>2026-08-30T08:39:13Z</time>
      </trkpt>
      <trkpt lat="44.7638" lon="6.98482">
        <ele>1703.8</ele>
        <time>2026-08-30T08:39:18Z</time>
      </trkpt>
      <trkpt lat="44.76377" lon="6.98489">
        <ele>1702.7</ele>
        <time>2026-08-30T08:39:23Z</time>
      </trkpt>
      <trkpt lat="44.76373" lon="6.985">
        <ele>1700.7</ele>
        <time>2026-08-30T08:39:29Z</time>
      </trkpt>
      <trkpt lat="44.76369" lon="6.98508">
        <ele>1700.1</ele>
        <time>2026-08-30T08:39:34Z</time>
      </trkpt>
      <trkpt lat="44.76364" lon="6.98515">
        <ele>1700</ele>
        <time>2026-08-30T08:39:39Z</time>
      </trkpt>
      <trkpt lat="44.76359" lon="6.9852">
        <ele>1700.2</ele>
        <time>2026-08-30T08:39:45Z</time>
      </trkpt>
      <trkpt lat="44.76354" lon="6.98526">
        <ele>1700.1</ele>
        <time>2026-08-30T08:39:50Z</time>
      </trkpt>
      <trkpt lat="44.76348" lon="6.98532">
        <ele>1700.2</ele>
        <time>2026-08-30T08:39:55Z</time>
      </trkpt>
      <trkpt lat="44.76342" lon="6.98539">
        <ele>1699.9</ele>
        <time>2026-08-30T08:40:01Z</time>
      </trkpt>
      <trkpt lat="44.76337" lon="6.98547">
        <ele>1698.8</ele>
        <time>2026-08-30T08:40:06Z</time>
      </trkpt>
      <trkpt lat="44.76333" lon="6.98554">
        <ele>1697.7</ele>
        <time>2026-08-30T08:40:11Z</time>
      </trkpt>
      <trkpt lat="44.76329" lon="6.98561">
        <ele>1697.3</ele>
        <time>2026-08-30T08:40:17Z</time>
      </trkpt>
      <trkpt lat="44.76325" lon="6.98571">
        <ele>1695.9</ele>
        <time>2026-08-30T08:40:22Z</time>
      </trkpt>
      <trkpt lat="44.76324" lon="6.9858">
        <ele>1693.4</ele>
        <time>2026-08-30T08:40:27Z</time>
      </trkpt>
      <trkpt lat="44.76324" lon="6.98583">
        <ele>1692.4</ele>
        <time>2026-08-30T08:40:33Z</time>
      </trkpt>
      <trkpt lat="44.76324" lon="6.98583">
        <ele>1692.4</ele>
        <time>2026-08-30T08:40:38Z</time>
      </trkpt>
      <trkpt lat="44.76321" lon="6.98587">
        <ele>1693.1</ele>
        <time>2026-08-30T08:40:43Z</time>
      </trkpt>
      <trkpt lat="44.7632" lon="6.98598">
        <ele>1692</ele>
        <time>2026-08-30T08:40:49Z</time>
      </trkpt>
      <trkpt lat="44.76319" lon="6.986">
        <ele>1692.2</ele>
        <time>2026-08-30T08:40:54Z</time>
      </trkpt>
      <trkpt lat="44.76319" lon="6.98601">
        <ele>1692</ele>
        <time>2026-08-30T08:40:59Z</time>
      </trkpt>
      <trkpt lat="44.76319" lon="6.98601">
        <ele>1692</ele>
        <time>2026-08-30T08:41:05Z</time>
      </trkpt>
      <trkpt lat="44.76315" lon="6.98608">
        <ele>1692.6</ele>
        <time>2026-08-30T08:41:10Z</time>
      </trkpt>
      <trkpt lat="44.7631" lon="6.98614">
        <ele>1693.6</ele>
        <time>2026-08-30T08:41:15Z</time>
      </trkpt>
      <trkpt lat="44.76303" lon="6.9862">
        <ele>1695.1</ele>
        <time>2026-08-30T08:41:21Z</time>
      </trkpt>
      <trkpt lat="44.76299" lon="6.98626">
        <ele>1695.5</ele>
        <time>2026-08-30T08:41:26Z</time>
      </trkpt>
      <trkpt lat="44.76295" lon="6.98632">
        <ele>1695.7</ele>
        <time>2026-08-30T08:41:31Z</time>
      </trkpt>
      <trkpt lat="44.7629" lon="6.98641">
        <ele>1695.4</ele>
        <time>2026-08-30T08:41:37Z</time>
      </trkpt>
      <trkpt lat="44.76284" lon="6.98646">
        <ele>1696.2</ele>
        <time>2026-08-30T08:41:42Z</time>
      </trkpt>
      <trkpt lat="44.76279" lon="6.98651">
        <ele>1696.5</ele>
        <time>2026-08-30T08:41:47Z</time>
      </trkpt>
      <trkpt lat="44.76274" lon="6.98659">
        <ele>1695.9</ele>
        <time>2026-08-30T08:41:53Z</time>
      </trkpt>
      <trkpt lat="44.7627" lon="6.98666">
        <ele>1695.1</ele>
        <time>2026-08-30T08:41:58Z</time>
      </trkpt>
      <trkpt lat="44.76266" lon="6.98674">
        <ele>1695.2</ele>
        <time>2026-08-30T08:42:03Z</time>
      </trkpt>
      <trkpt lat="44.76265" lon="6.98677">
        <ele>1695.2</ele>
        <time>2026-08-30T08:42:09Z</time>
      </trkpt>
      <trkpt lat="44.76265" lon="6.98677">
        <ele>1695.2</ele>
        <time>2026-08-30T08:42:14Z</time>
      </trkpt>
      <trkpt lat="44.76263" lon="6.98686">
        <ele>1694.8</ele>
        <time>2026-08-30T08:42:19Z</time>
      </trkpt>
      <trkpt lat="44.76261" lon="6.98695">
        <ele>1694.3</ele>
        <time>2026-08-30T08:42:25Z</time>
      </trkpt>
      <trkpt lat="44.76258" lon="6.98704">
        <ele>1694.1</ele>
        <time>2026-08-30T08:42:30Z</time>
      </trkpt>
      <trkpt lat="44.76255" lon="6.98712">
        <ele>1694</ele>
        <time>2026-08-30T08:42:35Z</time>
      </trkpt>
      <trkpt lat="44.76252" lon="6.98722">
        <ele>1693.6</ele>
        <time>2026-08-30T08:42:41Z</time>
      </trkpt>
      <trkpt lat="44.76249" lon="6.98729">
        <ele>1693.5</ele>
        <time>2026-08-30T08:42:46Z</time>
      </trkpt>
      <trkpt lat="44.76246" lon="6.98735">
        <ele>1693.6</ele>
        <time>2026-08-30T08:42:51Z</time>
      </trkpt>
      <trkpt lat="44.76241" lon="6.98743">
        <ele>1693.9</ele>
        <time>2026-08-30T08:42:57Z</time>
      </trkpt>
      <trkpt lat="44.76238" lon="6.98751">
        <ele>1693.8</ele>
        <time>2026-08-30T08:43:02Z</time>
      </trkpt>
      <trkpt lat="44.76235" lon="6.98759">
        <ele>1694.2</ele>
        <time>2026-08-30T08:43:07Z</time>
      </trkpt>
      <trkpt lat="44.76231" lon="6.98767">
        <ele>1694.8</ele>
        <time>2026-08-30T08:43:13Z</time>
      </trkpt>
      <trkpt lat="44.76228" lon="6.98775">
        <ele>1695.1</ele>
        <time>2026-08-30T08:43:18Z</time>
      </trkpt>
      <trkpt lat="44.76226" lon="6.98783">
        <ele>1695.2</ele>
        <time>2026-08-30T08:43:23Z</time>
      </trkpt>
      <trkpt lat="44.76221" lon="6.98791">
        <ele>1696</ele>
        <time>2026-08-30T08:43:29Z</time>
      </trkpt>
      <trkpt lat="44.76217" lon="6.98795">
        <ele>1696.7</ele>
        <time>2026-08-30T08:43:34Z</time>
      </trkpt>
      <trkpt lat="44.76213" lon="6.98801">
        <ele>1697.2</ele>
        <time>2026-08-30T08:43:39Z</time>
      </trkpt>
      <trkpt lat="44.76209" lon="6.98808">
        <ele>1697.7</ele>
        <time>2026-08-30T08:43:45Z</time>
      </trkpt>
      <trkpt lat="44.76205" lon="6.98814">
        <ele>1698.3</ele>
        <time>2026-08-30T08:43:50Z</time>
      </trkpt>
      <trkpt lat="44.76202" lon="6.98821">
        <ele>1698.5</ele>
        <time>2026-08-30T08:43:55Z</time>
      </trkpt>
      <trkpt lat="44.76198" lon="6.9883">
        <ele>1698.8</ele>
        <time>2026-08-30T08:44:01Z</time>
      </trkpt>
      <trkpt lat="44.76195" lon="6.98836">
        <ele>1699</ele>
        <time>2026-08-30T08:44:06Z</time>
      </trkpt>
      <trkpt lat="44.76191" lon="6.98843">
        <ele>1699.3</ele>
        <time>2026-08-30T08:44:11Z</time>
      </trkpt>
      <trkpt lat="44.76187" lon="6.98851">
        <ele>1699.5</ele>
        <time>2026-08-30T08:44:17Z</time>
      </trkpt>
      <trkpt lat="44.76185" lon="6.98858">
        <ele>1699.3</ele>
        <time>2026-08-30T08:44:22Z</time>
      </trkpt>
      <trkpt lat="44.76183" lon="6.98867">
        <ele>1698.9</ele>
        <time>2026-08-30T08:44:27Z</time>
      </trkpt>
      <trkpt lat="44.76181" lon="6.98877">
        <ele>1698.4</ele>
        <time>2026-08-30T08:44:33Z</time>
      </trkpt>
      <trkpt lat="44.76179" lon="6.98885">
        <ele>1698.1</ele>
        <time>2026-08-30T08:44:38Z</time>
      </trkpt>
      <trkpt lat="44.76178" lon="6.98893">
        <ele>1697.5</ele>
        <time>2026-08-30T08:44:43Z</time>
      </trkpt>
      <trkpt lat="44.76176" lon="6.98905">
        <ele>1696.8</ele>
        <time>2026-08-30T08:44:49Z</time>
      </trkpt>
      <trkpt lat="44.76176" lon="6.98908">
        <ele>1696.5</ele>
        <time>2026-08-30T08:44:54Z</time>
      </trkpt>
      <trkpt lat="44.76175" lon="6.98917">
        <ele>1695.9</ele>
        <time>2026-08-30T08:44:59Z</time>
      </trkpt>
      <trkpt lat="44.76172" lon="6.98927">
        <ele>1695.6</ele>
        <time>2026-08-30T08:45:05Z</time>
      </trkpt>
      <trkpt lat="44.7617" lon="6.98933">
        <ele>1695.4</ele>
        <time>2026-08-30T08:45:10Z</time>
      </trkpt>
      <trkpt lat="44.76166" lon="6.9894">
        <ele>1695.4</ele>
        <time>2026-08-30T08:45:15Z</time>
      </trkpt>
      <trkpt lat="44.76163" lon="6.98949">
        <ele>1695.3</ele>
        <time>2026-08-30T08:45:21Z</time>
      </trkpt>
      <trkpt lat="44.76159" lon="6.98956">
        <ele>1695.6</ele>
        <time>2026-08-30T08:45:26Z</time>
      </trkpt>
      <trkpt lat="44.76154" lon="6.98963">
        <ele>1695.9</ele>
        <time>2026-08-30T08:45:31Z</time>
      </trkpt>
      <trkpt lat="44.7615" lon="6.98971">
        <ele>1696</ele>
        <time>2026-08-30T08:45:37Z</time>
      </trkpt>
      <trkpt lat="44.76146" lon="6.98979">
        <ele>1696.1</ele>
        <time>2026-08-30T08:45:42Z</time>
      </trkpt>
      <trkpt lat="44.76142" lon="6.98986">
        <ele>1696.3</ele>
        <time>2026-08-30T08:45:47Z</time>
      </trkpt>
      <trkpt lat="44.76141" lon="6.98989">
        <ele>1696.2</ele>
        <time>2026-08-30T08:45:53Z</time>
      </trkpt>
      <trkpt lat="44.76141" lon="6.98989">
        <ele>1696.2</ele>
        <time>2026-08-30T08:45:58Z</time>
      </trkpt>
      <trkpt lat="44.76141" lon="6.98989">
        <ele>1696.2</ele>
        <time>2026-08-30T08:46:03Z</time>
      </trkpt>
      <trkpt lat="44.76142" lon="6.98993">
        <ele>1695.7</ele>
        <time>2026-08-30T08:46:09Z</time>
      </trkpt>
      <trkpt lat="44.76139" lon="6.99">
        <ele>1695.6</ele>
        <time>2026-08-30T08:46:14Z</time>
      </trkpt>
      <trkpt lat="44.76137" lon="6.99006">
        <ele>1695.7</ele>
        <time>2026-08-30T08:46:19Z</time>
      </trkpt>
      <trkpt lat="44.76137" lon="6.99013">
        <ele>1695.3</ele>
        <time>2026-08-30T08:46:25Z</time>
      </trkpt>
      <trkpt lat="44.76136" lon="6.99017">
        <ele>1695.3</ele>
        <time>2026-08-30T08:46:30Z</time>
      </trkpt>
      <trkpt lat="44.76136" lon="6.99021">
        <ele>1695.1</ele>
        <time>2026-08-30T08:46:35Z</time>
      </trkpt>
      <trkpt lat="44.76134" lon="6.99028">
        <ele>1695.1</ele>
        <time>2026-08-30T08:46:41Z</time>
      </trkpt>
      <trkpt lat="44.76131" lon="6.99034">
        <ele>1695.2</ele>
        <time>2026-08-30T08:46:46Z</time>
      </trkpt>
      <trkpt lat="44.76127" lon="6.99041">
        <ele>1695.5</ele>
        <time>2026-08-30T08:46:51Z</time>
      </trkpt>
      <trkpt lat="44.76121" lon="6.99045">
        <ele>1696.2</ele>
        <time>2026-08-30T08:46:57Z</time>
      </trkpt>
      <trkpt lat="44.76116" lon="6.99054">
        <ele>1696.4</ele>
        <time>2026-08-30T08:47:02Z</time>
      </trkpt>
      <trkpt lat="44.76111" lon="6.9906">
        <ele>1696.7</ele>
        <time>2026-08-30T08:47:07Z</time>
      </trkpt>
      <trkpt lat="44.76107" lon="6.99065">
        <ele>1697</ele>
        <time>2026-08-30T08:47:13Z</time>
      </trkpt>
      <trkpt lat="44.76103" lon="6.99071">
        <ele>1697.2</ele>
        <time>2026-08-30T08:47:18Z</time>
      </trkpt>
      <trkpt lat="44.76098" lon="6.99077">
        <ele>1697.5</ele>
        <time>2026-08-30T08:47:23Z</time>
      </trkpt>
      <trkpt lat="44.76094" lon="6.99083">
        <ele>1697.6</ele>
        <time>2026-08-30T08:47:29Z</time>
      </trkpt>
      <trkpt lat="44.7609" lon="6.99088">
        <ele>1697.8</ele>
        <time>2026-08-30T08:47:34Z</time>
      </trkpt>
      <trkpt lat="44.76087" lon="6.99094">
        <ele>1697.8</ele>
        <time>2026-08-30T08:47:39Z</time>
      </trkpt>
      <trkpt lat="44.76081" lon="6.99103">
        <ele>1697.8</ele>
        <time>2026-08-30T08:47:45Z</time>
      </trkpt>
      <trkpt lat="44.76078" lon="6.99106">
        <ele>1697.9</ele>
        <time>2026-08-30T08:47:50Z</time>
      </trkpt>
      <trkpt lat="44.76072" lon="6.9911">
        <ele>1698.2</ele>
        <time>2026-08-30T08:47:55Z</time>
      </trkpt>
      <trkpt lat="44.76066" lon="6.99112">
        <ele>1698.6</ele>
        <time>2026-08-30T08:48:01Z</time>
      </trkpt>
      <trkpt lat="44.76061" lon="6.99113">
        <ele>1699</ele>
        <time>2026-08-30T08:48:06Z</time>
      </trkpt>
      <trkpt lat="44.76056" lon="6.99115">
        <ele>1699.3</ele>
        <time>2026-08-30T08:48:11Z</time>
      </trkpt>
      <trkpt lat="44.76049" lon="6.99116">
        <ele>1699.8</ele>
        <time>2026-08-30T08:48:17Z</time>
      </trkpt>
      <trkpt lat="44.76043" lon="6.99117">
        <ele>1700.2</ele>
        <time>2026-08-30T08:48:22Z</time>
      </trkpt>
      <trkpt lat="44.7604" lon="6.99119">
        <ele>1700.3</ele>
        <time>2026-08-30T08:48:27Z</time>
      </trkpt>
      <trkpt lat="44.76035" lon="6.99122">
        <ele>1700.4</ele>
        <time>2026-08-30T08:48:33Z</time>
      </trkpt>
      <trkpt lat="44.76031" lon="6.99124">
        <ele>1700.5</ele>
        <time>2026-08-30T08:48:38Z</time>
      </trkpt>
      <trkpt lat="44.76026" lon="6.99127">
        <ele>1700.6</ele>
        <time>2026-08-30T08:48:43Z</time>
      </trkpt>
      <trkpt lat="44.7602" lon="6.99131">
        <ele>1700.6</ele>
        <time>2026-08-30T08:48:49Z</time>
      </trkpt>
      <trkpt lat="44.76015" lon="6.99134">
        <ele>1700.6</ele>
        <time>2026-08-30T08:48:54Z</time>
      </trkpt>
      <trkpt lat="44.7601" lon="6.99137">
        <ele>1700.5</ele>
        <time>2026-08-30T08:48:59Z</time>
      </trkpt>
      <trkpt lat="44.76005" lon="6.99141">
        <ele>1700.3</ele>
        <time>2026-08-30T08:49:05Z</time>
      </trkpt>
      <trkpt lat="44.76002" lon="6.99143">
        <ele>1700.3</ele>
        <time>2026-08-30T08:49:10Z</time>
      </trkpt>
      <trkpt lat="44.75997" lon="6.99144">
        <ele>1700.2</ele>
        <time>2026-08-30T08:49:15Z</time>
      </trkpt>
      <trkpt lat="44.75991" lon="6.99146">
        <ele>1699.8</ele>
        <time>2026-08-30T08:49:21Z</time>
      </trkpt>
      <trkpt lat="44.75986" lon="6.99146">
        <ele>1699.7</ele>
        <time>2026-08-30T08:49:26Z</time>
      </trkpt>
      <trkpt lat="44.75981" lon="6.99144">
        <ele>1699.9</ele>
        <time>2026-08-30T08:49:31Z</time>
      </trkpt>
      <trkpt lat="44.75977" lon="6.99144">
        <ele>1699.8</ele>
        <time>2026-08-30T08:49:37Z</time>
      </trkpt>
      <trkpt lat="44.75973" lon="6.99144">
        <ele>1699.7</ele>
        <time>2026-08-30T08:49:42Z</time>
      </trkpt>
      <trkpt lat="44.7597" lon="6.99143">
        <ele>1699.8</ele>
        <time>2026-08-30T08:49:47Z</time>
      </trkpt>
      <trkpt lat="44.75966" lon="6.99141">
        <ele>1700</ele>
        <time>2026-08-30T08:49:53Z</time>
      </trkpt>
      <trkpt lat="44.75961" lon="6.9914">
        <ele>1700.1</ele>
        <time>2026-08-30T08:49:58Z</time>
      </trkpt>
      <trkpt lat="44.75956" lon="6.9914">
        <ele>1700</ele>
        <time>2026-08-30T08:50:03Z</time>
      </trkpt>
      <trkpt lat="44.75951" lon="6.99138">
        <ele>1700.2</ele>
        <time>2026-08-30T08:50:09Z</time>
      </trkpt>
      <trkpt lat="44.75947" lon="6.99137">
        <ele>1700.2</ele>
        <time>2026-08-30T08:50:14Z</time>
      </trkpt>
      <trkpt lat="44.75944" lon="6.99137">
        <ele>1700.2</ele>
        <time>2026-08-30T08:50:19Z</time>
      </trkpt>
      <trkpt lat="44.75939" lon="6.99135">
        <ele>1700.4</ele>
        <time>2026-08-30T08:50:25Z</time>
      </trkpt>
      <trkpt lat="44.75933" lon="6.99136">
        <ele>1700.1</ele>
        <time>2026-08-30T08:50:30Z</time>
      </trkpt>
      <trkpt lat="44.75928" lon="6.99135">
        <ele>1700.2</ele>
        <time>2026-08-30T08:50:35Z</time>
      </trkpt>
      <trkpt lat="44.75922" lon="6.9914">
        <ele>1699.3</ele>
        <time>2026-08-30T08:50:41Z</time>
      </trkpt>
      <trkpt lat="44.75918" lon="6.99144">
        <ele>1698.6</ele>
        <time>2026-08-30T08:50:46Z</time>
      </trkpt>
      <trkpt lat="44.75914" lon="6.99146">
        <ele>1698.3</ele>
        <time>2026-08-30T08:50:51Z</time>
      </trkpt>
      <trkpt lat="44.7591" lon="6.99149">
        <ele>1698</ele>
        <time>2026-08-30T08:50:57Z</time>
      </trkpt>
      <trkpt lat="44.75907" lon="6.99152">
        <ele>1697.6</ele>
        <time>2026-08-30T08:51:02Z</time>
      </trkpt>
      <trkpt lat="44.75904" lon="6.99154">
        <ele>1697.4</ele>
        <time>2026-08-30T08:51:07Z</time>
      </trkpt>
      <trkpt lat="44.75897" lon="6.99157">
        <ele>1697.3</ele>
        <time>2026-08-30T08:51:13Z</time>
      </trkpt>
      <trkpt lat="44.75893" lon="6.9916">
        <ele>1697</ele>
        <time>2026-08-30T08:51:18Z</time>
      </trkpt>
      <trkpt lat="44.75889" lon="6.99163">
        <ele>1696.8</ele>
        <time>2026-08-30T08:51:23Z</time>
      </trkpt>
      <trkpt lat="44.7588" lon="6.99164">
        <ele>1697.1</ele>
        <time>2026-08-30T08:51:29Z</time>
      </trkpt>
      <trkpt lat="44.75872" lon="6.99163">
        <ele>1697.6</ele>
        <time>2026-08-30T08:51:34Z</time>
      </trkpt>
      <trkpt lat="44.75866" lon="6.99161">
        <ele>1698.1</ele>
        <time>2026-08-30T08:51:39Z</time>
      </trkpt>
      <trkpt lat="44.75859" lon="6.99158">
        <ele>1698.7</ele>
        <time>2026-08-30T08:51:45Z</time>
      </trkpt>
      <trkpt lat="44.75852" lon="6.99157">
        <ele>1699.1</ele>
        <time>2026-08-30T08:51:50Z</time>
      </trkpt>
      <trkpt lat="44.75846" lon="6.99155">
        <ele>1699.5</ele>
        <time>2026-08-30T08:51:55Z</time>
      </trkpt>
      <trkpt lat="44.7584" lon="6.99153">
        <ele>1699.9</ele>
        <time>2026-08-30T08:52:01Z</time>
      </trkpt>
      <trkpt lat="44.75833" lon="6.9915">
        <ele>1700.4</ele>
        <time>2026-08-30T08:52:06Z</time>
      </trkpt>
      <trkpt lat="44.75827" lon="6.99145">
        <ele>1701</ele>
        <time>2026-08-30T08:52:11Z</time>
      </trkpt>
      <trkpt lat="44.75819" lon="6.99141">
        <ele>1701.4</ele>
        <time>2026-08-30T08:52:17Z</time>
      </trkpt>
      <trkpt lat="44.75813" lon="6.99135">
        <ele>1702.1</ele>
        <time>2026-08-30T08:52:22Z</time>
      </trkpt>
      <trkpt lat="44.75808" lon="6.99131">
        <ele>1702.5</ele>
        <time>2026-08-30T08:52:27Z</time>
      </trkpt>
      <trkpt lat="44.758" lon="6.99127">
        <ele>1702.9</ele>
        <time>2026-08-30T08:52:33Z</time>
      </trkpt>
      <trkpt lat="44.75795" lon="6.99125">
        <ele>1703.2</ele>
        <time>2026-08-30T08:52:38Z</time>
      </trkpt>
      <trkpt lat="44.75788" lon="6.99122">
        <ele>1703.5</ele>
        <time>2026-08-30T08:52:43Z</time>
      </trkpt>
      <trkpt lat="44.75781" lon="6.99119">
        <ele>1703.9</ele>
        <time>2026-08-30T08:52:49Z</time>
      </trkpt>
      <trkpt lat="44.75779" lon="6.99115">
        <ele>1704.2</ele>
        <time>2026-08-30T08:52:54Z</time>
      </trkpt>
      <trkpt lat="44.75774" lon="6.9911">
        <ele>1704.7</ele>
        <time>2026-08-30T08:52:59Z</time>
      </trkpt>
      <trkpt lat="44.75768" lon="6.99106">
        <ele>1705.1</ele>
        <time>2026-08-30T08:53:05Z</time>
      </trkpt>
      <trkpt lat="44.75762" lon="6.99102">
        <ele>1705.5</ele>
        <time>2026-08-30T08:53:10Z</time>
      </trkpt>
      <trkpt lat="44.75757" lon="6.99098">
        <ele>1705.8</ele>
        <time>2026-08-30T08:53:15Z</time>
      </trkpt>
      <trkpt lat="44.7575" lon="6.99095">
        <ele>1706.2</ele>
        <time>2026-08-30T08:53:21Z</time>
      </trkpt>
      <trkpt lat="44.75743" lon="6.99094">
        <ele>1706.8</ele>
        <time>2026-08-30T08:53:26Z</time>
      </trkpt>
      <trkpt lat="44.75736" lon="6.99092">
        <ele>1707.5</ele>
        <time>2026-08-30T08:53:31Z</time>
      </trkpt>
      <trkpt lat="44.75727" lon="6.99092">
        <ele>1708.2</ele>
        <time>2026-08-30T08:53:37Z</time>
      </trkpt>
      <trkpt lat="44.7572" lon="6.9909">
        <ele>1708.9</ele>
        <time>2026-08-30T08:53:42Z</time>
      </trkpt>
      <trkpt lat="44.75714" lon="6.99088">
        <ele>1709.6</ele>
        <time>2026-08-30T08:53:47Z</time>
      </trkpt>
      <trkpt lat="44.75708" lon="6.99086">
        <ele>1710.3</ele>
        <time>2026-08-30T08:53:53Z</time>
      </trkpt>
      <trkpt lat="44.75705" lon="6.99087">
        <ele>1710.4</ele>
        <time>2026-08-30T08:53:58Z</time>
      </trkpt>
      <trkpt lat="44.757" lon="6.99087">
        <ele>1710.8</ele>
        <time>2026-08-30T08:54:03Z</time>
      </trkpt>
      <trkpt lat="44.75694" lon="6.99084">
        <ele>1711.6</ele>
        <time>2026-08-30T08:54:09Z</time>
      </trkpt>
      <trkpt lat="44.75689" lon="6.99084">
        <ele>1712.1</ele>
        <time>2026-08-30T08:54:14Z</time>
      </trkpt>
      <trkpt lat="44.75683" lon="6.99083">
        <ele>1712.8</ele>
        <time>2026-08-30T08:54:19Z</time>
      </trkpt>
      <trkpt lat="44.75676" lon="6.99084">
        <ele>1713.1</ele>
        <time>2026-08-30T08:54:25Z</time>
      </trkpt>
      <trkpt lat="44.7567" lon="6.99084">
        <ele>1713.6</ele>
        <time>2026-08-30T08:54:30Z</time>
      </trkpt>
      <trkpt lat="44.75663" lon="6.99083">
        <ele>1714.9</ele>
        <time>2026-08-30T08:54:35Z</time>
      </trkpt>
      <trkpt lat="44.75656" lon="6.99082">
        <ele>1716.8</ele>
        <time>2026-08-30T08:54:41Z</time>
      </trkpt>
      <trkpt lat="44.7565" lon="6.99082">
        <ele>1718</ele>
        <time>2026-08-30T08:54:46Z</time>
      </trkpt>
      <trkpt lat="44.75644" lon="6.99082">
        <ele>1719.1</ele>
        <time>2026-08-30T08:54:51Z</time>
      </trkpt>
      <trkpt lat="44.75637" lon="6.99085">
        <ele>1719.4</ele>
        <time>2026-08-30T08:54:57Z</time>
      </trkpt>
      <trkpt lat="44.75631" lon="6.99087">
        <ele>1720.2</ele>
        <time>2026-08-30T08:55:02Z</time>
      </trkpt>
      <trkpt lat="44.75623" lon="6.99089">
        <ele>1721.3</ele>
        <time>2026-08-30T08:55:07Z</time>
      </trkpt>
      <trkpt lat="44.75616" lon="6.99093">
        <ele>1721.7</ele>
        <time>2026-08-30T08:55:13Z</time>
      </trkpt>
      <trkpt lat="44.75611" lon="6.99094">
        <ele>1722.4</ele>
        <time>2026-08-30T08:55:18Z</time>
      </trkpt>
      <trkpt lat="44.75607" lon="6.99094">
        <ele>1723.1</ele>
        <time>2026-08-30T08:55:23Z</time>
      </trkpt>
      <trkpt lat="44.75598" lon="6.99097">
        <ele>1723.9</ele>
        <time>2026-08-30T08:55:29Z</time>
      </trkpt>
      <trkpt lat="44.75592" lon="6.99099">
        <ele>1724.4</ele>
        <time>2026-08-30T08:55:34Z</time>
      </trkpt>
      <trkpt lat="44.75586" lon="6.99096">
        <ele>1726.2</ele>
        <time>2026-08-30T08:55:39Z</time>
      </trkpt>
      <trkpt lat="44.7558" lon="6.99097">
        <ele>1727.4</ele>
        <time>2026-08-30T08:55:45Z</time>
      </trkpt>
      <trkpt lat="44.7558" lon="6.99096">
        <ele>1727.7</ele>
        <time>2026-08-30T08:55:50Z</time>
      </trkpt>
      <trkpt lat="44.75578" lon="6.99096">
        <ele>1728.3</ele>
        <time>2026-08-30T08:55:55Z</time>
      </trkpt>
      <trkpt lat="44.75578" lon="6.99096">
        <ele>1728.3</ele>
        <time>2026-08-30T08:56:01Z</time>
      </trkpt>
      <trkpt lat="44.75573" lon="6.991">
        <ele>1728.7</ele>
        <time>2026-08-30T08:56:06Z</time>
      </trkpt>
      <trkpt lat="44.75566" lon="6.99099">
        <ele>1731.2</ele>
        <time>2026-08-30T08:56:11Z</time>
      </trkpt>
      <trkpt lat="44.75559" lon="6.99096">
        <ele>1734.3</ele>
        <time>2026-08-30T08:56:17Z</time>
      </trkpt>
      <trkpt lat="44.75553" lon="6.99096">
        <ele>1736.2</ele>
        <time>2026-08-30T08:56:22Z</time>
      </trkpt>
      <trkpt lat="44.75547" lon="6.99096">
        <ele>1738</ele>
        <time>2026-08-30T08:56:27Z</time>
      </trkpt>
      <trkpt lat="44.75541" lon="6.99094">
        <ele>1740.7</ele>
        <time>2026-08-30T08:56:33Z</time>
      </trkpt>
      <trkpt lat="44.75537" lon="6.99094">
        <ele>1742</ele>
        <time>2026-08-30T08:56:38Z</time>
      </trkpt>
      <trkpt lat="44.75533" lon="6.99093">
        <ele>1743.6</ele>
        <time>2026-08-30T08:56:43Z</time>
      </trkpt>
      <trkpt lat="44.75525" lon="6.99097">
        <ele>1744.5</ele>
        <time>2026-08-30T08:56:49Z</time>
      </trkpt>
      <trkpt lat="44.75518" lon="6.99098">
        <ele>1746.2</ele>
        <time>2026-08-30T08:56:54Z</time>
      </trkpt>
      <trkpt lat="44.75512" lon="6.99099">
        <ele>1747.6</ele>
        <time>2026-08-30T08:56:59Z</time>
      </trkpt>
      <trkpt lat="44.75505" lon="6.991">
        <ele>1749.3</ele>
        <time>2026-08-30T08:57:05Z</time>
      </trkpt>
      <trkpt lat="44.755" lon="6.991">
        <ele>1750.8</ele>
        <time>2026-08-30T08:57:10Z</time>
      </trkpt>
      <trkpt lat="44.75494" lon="6.99102">
        <ele>1750.7</ele>
        <time>2026-08-30T08:57:15Z</time>
      </trkpt>
      <trkpt lat="44.75485" lon="6.99107">
        <ele>1749.6</ele>
        <time>2026-08-30T08:57:21Z</time>
      </trkpt>
      <trkpt lat="44.7548" lon="6.99108">
        <ele>1749.9</ele>
        <time>2026-08-30T08:57:26Z</time>
      </trkpt>
      <trkpt lat="44.75474" lon="6.9911">
        <ele>1749.9</ele>
        <time>2026-08-30T08:57:31Z</time>
      </trkpt>
      <trkpt lat="44.75466" lon="6.99111">
        <ele>1750.7</ele>
        <time>2026-08-30T08:57:37Z</time>
      </trkpt>
      <trkpt lat="44.75461" lon="6.99114">
        <ele>1750.1</ele>
        <time>2026-08-30T08:57:42Z</time>
      </trkpt>
      <trkpt lat="44.75455" lon="6.99114">
        <ele>1751</ele>
        <time>2026-08-30T08:57:47Z</time>
      </trkpt>
      <trkpt lat="44.75447" lon="6.99119">
        <ele>1750.1</ele>
        <time>2026-08-30T08:57:53Z</time>
      </trkpt>
      <trkpt lat="44.75443" lon="6.9912">
        <ele>1750.3</ele>
        <time>2026-08-30T08:57:58Z</time>
      </trkpt>
      <trkpt lat="44.75437" lon="6.99124">
        <ele>1749.5</ele>
        <time>2026-08-30T08:58:03Z</time>
      </trkpt>
      <trkpt lat="44.75431" lon="6.99127">
        <ele>1749.2</ele>
        <time>2026-08-30T08:58:09Z</time>
      </trkpt>
      <trkpt lat="44.75424" lon="6.99127">
        <ele>1750.4</ele>
        <time>2026-08-30T08:58:14Z</time>
      </trkpt>
      <trkpt lat="44.75419" lon="6.99133">
        <ele>1748.7</ele>
        <time>2026-08-30T08:58:19Z</time>
      </trkpt>
      <trkpt lat="44.75412" lon="6.9914">
        <ele>1747.8</ele>
        <time>2026-08-30T08:58:25Z</time>
      </trkpt>
      <trkpt lat="44.75408" lon="6.99145">
        <ele>1747.2</ele>
        <time>2026-08-30T08:58:30Z</time>
      </trkpt>
      <trkpt lat="44.75403" lon="6.99151">
        <ele>1746.6</ele>
        <time>2026-08-30T08:58:35Z</time>
      </trkpt>
      <trkpt lat="44.75396" lon="6.99152">
        <ele>1748.8</ele>
        <time>2026-08-30T08:58:41Z</time>
      </trkpt>
      <trkpt lat="44.75393" lon="6.99152">
        <ele>1749.9</ele>
        <time>2026-08-30T08:58:46Z</time>
      </trkpt>
      <trkpt lat="44.75391" lon="6.99158">
        <ele>1748.4</ele>
        <time>2026-08-30T08:58:51Z</time>
      </trkpt>
      <trkpt lat="44.75389" lon="6.99168">
        <ele>1745.6</ele>
        <time>2026-08-30T08:58:57Z</time>
      </trkpt>
      <trkpt lat="44.75385" lon="6.99173">
        <ele>1746</ele>
        <time>2026-08-30T08:59:02Z</time>
      </trkpt>
      <trkpt lat="44.75381" lon="6.99179">
        <ele>1746</ele>
        <time>2026-08-30T08:59:07Z</time>
      </trkpt>
      <trkpt lat="44.75375" lon="6.99187">
        <ele>1746.1</ele>
        <time>2026-08-30T08:59:13Z</time>
      </trkpt>
      <trkpt lat="44.75371" lon="6.99194">
        <ele>1745.6</ele>
        <time>2026-08-30T08:59:18Z</time>
      </trkpt>
      <trkpt lat="44.75367" lon="6.992">
        <ele>1745.3</ele>
        <time>2026-08-30T08:59:23Z</time>
      </trkpt>
      <trkpt lat="44.75361" lon="6.99206">
        <ele>1745.4</ele>
        <time>2026-08-30T08:59:29Z</time>
      </trkpt>
      <trkpt lat="44.7536" lon="6.9921">
        <ele>1744.5</ele>
        <time>2026-08-30T08:59:34Z</time>
      </trkpt>
      <trkpt lat="44.7536" lon="6.99212">
        <ele>1743.9</ele>
        <time>2026-08-30T08:59:39Z</time>
      </trkpt>
      <trkpt lat="44.75354" lon="6.99217">
        <ele>1744.1</ele>
        <time>2026-08-30T08:59:45Z</time>
      </trkpt>
      <trkpt lat="44.75347" lon="6.99222">
        <ele>1744.4</ele>
        <time>2026-08-30T08:59:50Z</time>
      </trkpt>
      <trkpt lat="44.75342" lon="6.99223">
        <ele>1745.4</ele>
        <time>2026-08-30T08:59:55Z</time>
      </trkpt>
      <trkpt lat="44.75336" lon="6.99226">
        <ele>1745.9</ele>
        <time>2026-08-30T09:00:01Z</time>
      </trkpt>
      <trkpt lat="44.75331" lon="6.9923">
        <ele>1745.8</ele>
        <time>2026-08-30T09:00:06Z</time>
      </trkpt>
      <trkpt lat="44.75325" lon="6.99235">
        <ele>1745.4</ele>
        <time>2026-08-30T09:00:11Z</time>
      </trkpt>
      <trkpt lat="44.75317" lon="6.99241">
        <ele>1744.8</ele>
        <time>2026-08-30T09:00:17Z</time>
      </trkpt>
      <trkpt lat="44.75311" lon="6.99243">
        <ele>1745.2</ele>
        <time>2026-08-30T09:00:22Z</time>
      </trkpt>
      <trkpt lat="44.75306" lon="6.99243">
        <ele>1746.2</ele>
        <time>2026-08-30T09:00:27Z</time>
      </trkpt>
      <trkpt lat="44.75299" lon="6.99245">
        <ele>1746.7</ele>
        <time>2026-08-30T09:00:33Z</time>
      </trkpt>
      <trkpt lat="44.75292" lon="6.99247">
        <ele>1747</ele>
        <time>2026-08-30T09:00:38Z</time>
      </trkpt>
      <trkpt lat="44.75289" lon="6.99246">
        <ele>1748.1</ele>
        <time>2026-08-30T09:00:43Z</time>
      </trkpt>
      <trkpt lat="44.75284" lon="6.99247">
        <ele>1748.6</ele>
        <time>2026-08-30T09:00:49Z</time>
      </trkpt>
      <trkpt lat="44.75278" lon="6.99249">
        <ele>1748.5</ele>
        <time>2026-08-30T09:00:54Z</time>
      </trkpt>
      <trkpt lat="44.75272" lon="6.99252">
        <ele>1748.4</ele>
        <time>2026-08-30T09:00:59Z</time>
      </trkpt>
      <trkpt lat="44.75264" lon="6.99257">
        <ele>1748.2</ele>
        <time>2026-08-30T09:01:05Z</time>
      </trkpt>
      <trkpt lat="44.75256" lon="6.99262">
        <ele>1747.9</ele>
        <time>2026-08-30T09:01:10Z</time>
      </trkpt>
      <trkpt lat="44.75254" lon="6.99264">
        <ele>1747.5</ele>
        <time>2026-08-30T09:01:15Z</time>
      </trkpt>
      <trkpt lat="44.75247" lon="6.99269">
        <ele>1746.9</ele>
        <time>2026-08-30T09:01:21Z</time>
      </trkpt>
      <trkpt lat="44.75241" lon="6.99272">
        <ele>1747</ele>
        <time>2026-08-30T09:01:26Z</time>
      </trkpt>
      <trkpt lat="44.75236" lon="6.99276">
        <ele>1746.4</ele>
        <time>2026-08-30T09:01:31Z</time>
      </trkpt>
      <trkpt lat="44.7523" lon="6.99279">
        <ele>1746.3</ele>
        <time>2026-08-30T09:01:37Z</time>
      </trkpt>
      <trkpt lat="44.75223" lon="6.99283">
        <ele>1745.9</ele>
        <time>2026-08-30T09:01:42Z</time>
      </trkpt>
      <trkpt lat="44.75219" lon="6.99288">
        <ele>1744.6</ele>
        <time>2026-08-30T09:01:47Z</time>
      </trkpt>
      <trkpt lat="44.75211" lon="6.99294">
        <ele>1743.4</ele>
        <time>2026-08-30T09:01:53Z</time>
      </trkpt>
      <trkpt lat="44.75206" lon="6.99299">
        <ele>1742</ele>
        <time>2026-08-30T09:01:58Z</time>
      </trkpt>
      <trkpt lat="44.75199" lon="6.99305">
        <ele>1740.4</ele>
        <time>2026-08-30T09:02:03Z</time>
      </trkpt>
      <trkpt lat="44.75193" lon="6.99309">
        <ele>1739.5</ele>
        <time>2026-08-30T09:02:09Z</time>
      </trkpt>
      <trkpt lat="44.75186" lon="6.99313">
        <ele>1738.5</ele>
        <time>2026-08-30T09:02:14Z</time>
      </trkpt>
      <trkpt lat="44.75181" lon="6.99315">
        <ele>1738.2</ele>
        <time>2026-08-30T09:02:19Z</time>
      </trkpt>
      <trkpt lat="44.75174" lon="6.99319">
        <ele>1737.1</ele>
        <time>2026-08-30T09:02:25Z</time>
      </trkpt>
      <trkpt lat="44.75167" lon="6.99322">
        <ele>1736.4</ele>
        <time>2026-08-30T09:02:30Z</time>
      </trkpt>
      <trkpt lat="44.75161" lon="6.99325">
        <ele>1735.5</ele>
        <time>2026-08-30T09:02:35Z</time>
      </trkpt>
      <trkpt lat="44.75154" lon="6.99325">
        <ele>1736.1</ele>
        <time>2026-08-30T09:02:41Z</time>
      </trkpt>
      <trkpt lat="44.75148" lon="6.99322">
        <ele>1738.1</ele>
        <time>2026-08-30T09:02:46Z</time>
      </trkpt>
      <trkpt lat="44.75143" lon="6.99322">
        <ele>1738.5</ele>
        <time>2026-08-30T09:02:51Z</time>
      </trkpt>
      <trkpt lat="44.7514" lon="6.99324">
        <ele>1737.8</ele>
        <time>2026-08-30T09:02:57Z</time>
      </trkpt>
      <trkpt lat="44.7514" lon="6.99324">
        <ele>1737.8</ele>
        <time>2026-08-30T09:03:02Z</time>
      </trkpt>
      <trkpt lat="44.7514" lon="6.99324">
        <ele>1737.8</ele>
        <time>2026-08-30T09:03:07Z</time>
      </trkpt>
      <trkpt lat="44.75131" lon="6.99321">
        <ele>1740</ele>
        <time>2026-08-30T09:03:13Z</time>
      </trkpt>
      <trkpt lat="44.75124" lon="6.99324">
        <ele>1739.2</ele>
        <time>2026-08-30T09:03:18Z</time>
      </trkpt>
      <trkpt lat="44.75118" lon="6.99325">
        <ele>1739.2</ele>
        <time>2026-08-30T09:03:23Z</time>
      </trkpt>
      <trkpt lat="44.75111" lon="6.99326">
        <ele>1739.3</ele>
        <time>2026-08-30T09:03:29Z</time>
      </trkpt>
      <trkpt lat="44.7511" lon="6.99328">
        <ele>1738.4</ele>
        <time>2026-08-30T09:03:34Z</time>
      </trkpt>
      <trkpt lat="44.75108" lon="6.9933">
        <ele>1737.6</ele>
        <time>2026-08-30T09:03:39Z</time>
      </trkpt>
      <trkpt lat="44.75108" lon="6.9933">
        <ele>1737.6</ele>
        <time>2026-08-30T09:03:45Z</time>
      </trkpt>
      <trkpt lat="44.75108" lon="6.9933">
        <ele>1737.6</ele>
        <time>2026-08-30T09:03:50Z</time>
      </trkpt>
      <trkpt lat="44.75103" lon="6.99332">
        <ele>1737</ele>
        <time>2026-08-30T09:03:55Z</time>
      </trkpt>
      <trkpt lat="44.75101" lon="6.99334">
        <ele>1736.4</ele>
        <time>2026-08-30T09:04:01Z</time>
      </trkpt>
      <trkpt lat="44.75101" lon="6.99334">
        <ele>1736.4</ele>
        <time>2026-08-30T09:04:06Z</time>
      </trkpt>
      <trkpt lat="44.75099" lon="6.99331">
        <ele>1737.8</ele>
        <time>2026-08-30T09:04:11Z</time>
      </trkpt>
      <trkpt lat="44.75096" lon="6.99328">
        <ele>1739.6</ele>
        <time>2026-08-30T09:04:17Z</time>
      </trkpt>
      <trkpt lat="44.75089" lon="6.99328">
        <ele>1740.2</ele>
        <time>2026-08-30T09:04:22Z</time>
      </trkpt>
      <trkpt lat="44.75083" lon="6.99327">
        <ele>1741.2</ele>
        <time>2026-08-30T09:04:27Z</time>
      </trkpt>
      <trkpt lat="44.75078" lon="6.99328">
        <ele>1740.7</ele>
        <time>2026-08-30T09:04:33Z</time>
      </trkpt>
      <trkpt lat="44.75077" lon="6.99329">
        <ele>1740.3</ele>
        <time>2026-08-30T09:04:38Z</time>
      </trkpt>
      <trkpt lat="44.75075" lon="6.99329">
        <ele>1740.3</ele>
        <time>2026-08-30T09:04:43Z</time>
      </trkpt>
      <trkpt lat="44.75069" lon="6.99328">
        <ele>1740.8</ele>
        <time>2026-08-30T09:04:49Z</time>
      </trkpt>
      <trkpt lat="44.75063" lon="6.99328">
        <ele>1740.9</ele>
        <time>2026-08-30T09:04:54Z</time>
      </trkpt>
      <trkpt lat="44.75058" lon="6.99327">
        <ele>1741.4</ele>
        <time>2026-08-30T09:04:59Z</time>
      </trkpt>
      <trkpt lat="44.75051" lon="6.99328">
        <ele>1741</ele>
        <time>2026-08-30T09:05:05Z</time>
      </trkpt>
      <trkpt lat="44.75045" lon="6.99329">
        <ele>1740.6</ele>
        <time>2026-08-30T09:05:10Z</time>
      </trkpt>
      <trkpt lat="44.75038" lon="6.99329">
        <ele>1740.7</ele>
        <time>2026-08-30T09:05:15Z</time>
      </trkpt>
      <trkpt lat="44.75031" lon="6.99329">
        <ele>1740.7</ele>
        <time>2026-08-30T09:05:21Z</time>
      </trkpt>
      <trkpt lat="44.75023" lon="6.99332">
        <ele>1739.4</ele>
        <time>2026-08-30T09:05:26Z</time>
      </trkpt>
      <trkpt lat="44.75017" lon="6.99336">
        <ele>1738.5</ele>
        <time>2026-08-30T09:05:31Z</time>
      </trkpt>
      <trkpt lat="44.75009" lon="6.99338">
        <ele>1738.4</ele>
        <time>2026-08-30T09:05:37Z</time>
      </trkpt>
      <trkpt lat="44.75004" lon="6.99338">
        <ele>1738.4</ele>
        <time>2026-08-30T09:05:42Z</time>
      </trkpt>
      <trkpt lat="44.74998" lon="6.99338">
        <ele>1738.5</ele>
        <time>2026-08-30T09:05:47Z</time>
      </trkpt>
      <trkpt lat="44.74992" lon="6.9934">
        <ele>1738.2</ele>
        <time>2026-08-30T09:05:53Z</time>
      </trkpt>
      <trkpt lat="44.74985" lon="6.99342">
        <ele>1737.9</ele>
        <time>2026-08-30T09:05:58Z</time>
      </trkpt>
      <trkpt lat="44.74979" lon="6.99343">
        <ele>1737.8</ele>
        <time>2026-08-30T09:06:03Z</time>
      </trkpt>
      <trkpt lat="44.74971" lon="6.99343">
        <ele>1737.7</ele>
        <time>2026-08-30T09:06:09Z</time>
      </trkpt>
      <trkpt lat="44.74967" lon="6.99343">
        <ele>1737.7</ele>
        <time>2026-08-30T09:06:14Z</time>
      </trkpt>
      <trkpt lat="44.74962" lon="6.99341">
        <ele>1737.8</ele>
        <time>2026-08-30T09:06:19Z</time>
      </trkpt>
      <trkpt lat="44.74955" lon="6.9934">
        <ele>1737.8</ele>
        <time>2026-08-30T09:06:25Z</time>
      </trkpt>
      <trkpt lat="44.74949" lon="6.9934">
        <ele>1737.8</ele>
        <time>2026-08-30T09:06:30Z</time>
      </trkpt>
      <trkpt lat="44.74944" lon="6.99341">
        <ele>1737.6</ele>
        <time>2026-08-30T09:06:35Z</time>
      </trkpt>
      <trkpt lat="44.74938" lon="6.99342">
        <ele>1737.5</ele>
        <time>2026-08-30T09:06:41Z</time>
      </trkpt>
      <trkpt lat="44.74933" lon="6.99341">
        <ele>1737.5</ele>
        <time>2026-08-30T09:06:46Z</time>
      </trkpt>
      <trkpt lat="44.74928" lon="6.99343">
        <ele>1737.3</ele>
        <time>2026-08-30T09:06:51Z</time>
      </trkpt>
      <trkpt lat="44.74922" lon="6.99342">
        <ele>1737.3</ele>
        <time>2026-08-30T09:06:57Z</time>
      </trkpt>
      <trkpt lat="44.74917" lon="6.9934">
        <ele>1737.4</ele>
        <time>2026-08-30T09:07:02Z</time>
      </trkpt>
      <trkpt lat="44.74909" lon="6.99336">
        <ele>1738.3</ele>
        <time>2026-08-30T09:07:07Z</time>
      </trkpt>
      <trkpt lat="44.74901" lon="6.99335">
        <ele>1739</ele>
        <time>2026-08-30T09:07:13Z</time>
      </trkpt>
      <trkpt lat="44.74897" lon="6.99333">
        <ele>1739.6</ele>
        <time>2026-08-30T09:07:18Z</time>
      </trkpt>
      <trkpt lat="44.74891" lon="6.99333">
        <ele>1740</ele>
        <time>2026-08-30T09:07:23Z</time>
      </trkpt>
      <trkpt lat="44.74884" lon="6.99331">
        <ele>1741.2</ele>
        <time>2026-08-30T09:07:29Z</time>
      </trkpt>
      <trkpt lat="44.74879" lon="6.9933">
        <ele>1741.9</ele>
        <time>2026-08-30T09:07:34Z</time>
      </trkpt>
      <trkpt lat="44.74877" lon="6.99328">
        <ele>1742.7</ele>
        <time>2026-08-30T09:07:39Z</time>
      </trkpt>
      <trkpt lat="44.74877" lon="6.99328">
        <ele>1742.7</ele>
        <time>2026-08-30T09:07:45Z</time>
      </trkpt>
      <trkpt lat="44.74874" lon="6.99332">
        <ele>1741.5</ele>
        <time>2026-08-30T09:07:50Z</time>
      </trkpt>
      <trkpt lat="44.74867" lon="6.99332">
        <ele>1742</ele>
        <time>2026-08-30T09:07:55Z</time>
      </trkpt>
      <trkpt lat="44.74859" lon="6.99333">
        <ele>1742.3</ele>
        <time>2026-08-30T09:08:01Z</time>
      </trkpt>
      <trkpt lat="44.74852" lon="6.99336">
        <ele>1742.4</ele>
        <time>2026-08-30T09:08:06Z</time>
      </trkpt>
      <trkpt lat="44.74848" lon="6.99338">
        <ele>1742.5</ele>
        <time>2026-08-30T09:08:11Z</time>
      </trkpt>
      <trkpt lat="44.7484" lon="6.99339">
        <ele>1743</ele>
        <time>2026-08-30T09:08:17Z</time>
      </trkpt>
      <trkpt lat="44.74833" lon="6.99339">
        <ele>1743.5</ele>
        <time>2026-08-30T09:08:22Z</time>
      </trkpt>
      <trkpt lat="44.74828" lon="6.99338">
        <ele>1743.8</ele>
        <time>2026-08-30T09:08:27Z</time>
      </trkpt>
      <trkpt lat="44.74828" lon="6.99338">
        <ele>1743.8</ele>
        <time>2026-08-30T09:08:33Z</time>
      </trkpt>
      <trkpt lat="44.74828" lon="6.99338">
        <ele>1743.8</ele>
        <time>2026-08-30T09:08:38Z</time>
      </trkpt>
      <trkpt lat="44.74826" lon="6.99337">
        <ele>1744</ele>
        <time>2026-08-30T09:08:43Z</time>
      </trkpt>
      <trkpt lat="44.74816" lon="6.99336">
        <ele>1744.6</ele>
        <time>2026-08-30T09:08:49Z</time>
      </trkpt>
      <trkpt lat="44.74809" lon="6.99335">
        <ele>1745</ele>
        <time>2026-08-30T09:08:54Z</time>
      </trkpt>
      <trkpt lat="44.74804" lon="6.99333">
        <ele>1745.5</ele>
        <time>2026-08-30T09:08:59Z</time>
      </trkpt>
      <trkpt lat="44.74796" lon="6.99332">
        <ele>1746.1</ele>
        <time>2026-08-30T09:09:05Z</time>
      </trkpt>
      <trkpt lat="44.74791" lon="6.99332">
        <ele>1746.3</ele>
        <time>2026-08-30T09:09:10Z</time>
      </trkpt>
      <trkpt lat="44.74785" lon="6.99331">
        <ele>1746.8</ele>
        <time>2026-08-30T09:09:15Z</time>
      </trkpt>
      <trkpt lat="44.74776" lon="6.99331">
        <ele>1747.2</ele>
        <time>2026-08-30T09:09:21Z</time>
      </trkpt>
      <trkpt lat="44.74771" lon="6.99333">
        <ele>1747</ele>
        <time>2026-08-30T09:09:26Z</time>
      </trkpt>
      <trkpt lat="44.74764" lon="6.99332">
        <ele>1747.5</ele>
        <time>2026-08-30T09:09:31Z</time>
      </trkpt>
      <trkpt lat="44.74757" lon="6.99333">
        <ele>1747.7</ele>
        <time>2026-08-30T09:09:37Z</time>
      </trkpt>
      <trkpt lat="44.74752" lon="6.99339">
        <ele>1747.4</ele>
        <time>2026-08-30T09:09:42Z</time>
      </trkpt>
      <trkpt lat="44.74746" lon="6.99347">
        <ele>1747.6</ele>
        <time>2026-08-30T09:09:47Z</time>
      </trkpt>
      <trkpt lat="44.74741" lon="6.9935">
        <ele>1748.2</ele>
        <time>2026-08-30T09:09:53Z</time>
      </trkpt>
      <trkpt lat="44.74735" lon="6.99355">
        <ele>1748.9</ele>
        <time>2026-08-30T09:09:58Z</time>
      </trkpt>
      <trkpt lat="44.74731" lon="6.99357">
        <ele>1749.4</ele>
        <time>2026-08-30T09:10:03Z</time>
      </trkpt>
      <trkpt lat="44.74723" lon="6.99363">
        <ele>1750.2</ele>
        <time>2026-08-30T09:10:09Z</time>
      </trkpt>
      <trkpt lat="44.74717" lon="6.99367">
        <ele>1750.9</ele>
        <time>2026-08-30T09:10:14Z</time>
      </trkpt>
      <trkpt lat="44.74713" lon="6.99373">
        <ele>1750.9</ele>
        <time>2026-08-30T09:10:19Z</time>
      </trkpt>
      <trkpt lat="44.74706" lon="6.99382">
        <ele>1751.1</ele>
        <time>2026-08-30T09:10:25Z</time>
      </trkpt>
      <trkpt lat="44.74702" lon="6.99388">
        <ele>1751.1</ele>
        <time>2026-08-30T09:10:30Z</time>
      </trkpt>
      <trkpt lat="44.74698" lon="6.99394">
        <ele>1751.1</ele>
        <time>2026-08-30T09:10:35Z</time>
      </trkpt>
      <trkpt lat="44.74692" lon="6.994">
        <ele>1751.3</ele>
        <time>2026-08-30T09:10:41Z</time>
      </trkpt>
      <trkpt lat="44.74688" lon="6.99406">
        <ele>1751.2</ele>
        <time>2026-08-30T09:10:46Z</time>
      </trkpt>
      <trkpt lat="44.74683" lon="6.99412">
        <ele>1751.2</ele>
        <time>2026-08-30T09:10:51Z</time>
      </trkpt>
      <trkpt lat="44.74677" lon="6.99415">
        <ele>1751.7</ele>
        <time>2026-08-30T09:10:57Z</time>
      </trkpt>
      <trkpt lat="44.74671" lon="6.9942">
        <ele>1752.4</ele>
        <time>2026-08-30T09:11:02Z</time>
      </trkpt>
      <trkpt lat="44.74665" lon="6.99422">
        <ele>1753.1</ele>
        <time>2026-08-30T09:11:07Z</time>
      </trkpt>
      <trkpt lat="44.74659" lon="6.99425">
        <ele>1753.5</ele>
        <time>2026-08-30T09:11:13Z</time>
      </trkpt>
      <trkpt lat="44.74654" lon="6.99427">
        <ele>1753.8</ele>
        <time>2026-08-30T09:11:18Z</time>
      </trkpt>
      <trkpt lat="44.74648" lon="6.99426">
        <ele>1754.1</ele>
        <time>2026-08-30T09:11:23Z</time>
      </trkpt>
      <trkpt lat="44.74642" lon="6.99424">
        <ele>1754.4</ele>
        <time>2026-08-30T09:11:29Z</time>
      </trkpt>
      <trkpt lat="44.74637" lon="6.99422">
        <ele>1754.6</ele>
        <time>2026-08-30T09:11:34Z</time>
      </trkpt>
      <trkpt lat="44.74632" lon="6.99419">
        <ele>1754.8</ele>
        <time>2026-08-30T09:11:39Z</time>
      </trkpt>
      <trkpt lat="44.74626" lon="6.99418">
        <ele>1755</ele>
        <time>2026-08-30T09:11:45Z</time>
      </trkpt>
      <trkpt lat="44.74622" lon="6.99417">
        <ele>1755.2</ele>
        <time>2026-08-30T09:11:50Z</time>
      </trkpt>
      <trkpt lat="44.74617" lon="6.99417">
        <ele>1755.4</ele>
        <time>2026-08-30T09:11:55Z</time>
      </trkpt>
      <trkpt lat="44.74613" lon="6.99418">
        <ele>1755.7</ele>
        <time>2026-08-30T09:12:01Z</time>
      </trkpt>
      <trkpt lat="44.74608" lon="6.99418">
        <ele>1755.9</ele>
        <time>2026-08-30T09:12:06Z</time>
      </trkpt>
      <trkpt lat="44.74604" lon="6.99422">
        <ele>1756.4</ele>
        <time>2026-08-30T09:12:11Z</time>
      </trkpt>
      <trkpt lat="44.74598" lon="6.99425">
        <ele>1757</ele>
        <time>2026-08-30T09:12:17Z</time>
      </trkpt>
      <trkpt lat="44.74592" lon="6.99428">
        <ele>1757.7</ele>
        <time>2026-08-30T09:12:22Z</time>
      </trkpt>
      <trkpt lat="44.74586" lon="6.99429">
        <ele>1758.2</ele>
        <time>2026-08-30T09:12:27Z</time>
      </trkpt>
      <trkpt lat="44.74579" lon="6.99429">
        <ele>1758.5</ele>
        <time>2026-08-30T09:12:33Z</time>
      </trkpt>
      <trkpt lat="44.74578" lon="6.99427">
        <ele>1758.3</ele>
        <time>2026-08-30T09:12:38Z</time>
      </trkpt>
      <trkpt lat="44.74572" lon="6.99428">
        <ele>1758.5</ele>
        <time>2026-08-30T09:12:43Z</time>
      </trkpt>
      <trkpt lat="44.74566" lon="6.99428">
        <ele>1758.7</ele>
        <time>2026-08-30T09:12:49Z</time>
      </trkpt>
      <trkpt lat="44.74561" lon="6.99427">
        <ele>1758.7</ele>
        <time>2026-08-30T09:12:54Z</time>
      </trkpt>
      <trkpt lat="44.74556" lon="6.99427">
        <ele>1758.8</ele>
        <time>2026-08-30T09:12:59Z</time>
      </trkpt>
      <trkpt lat="44.74551" lon="6.99426">
        <ele>1758.7</ele>
        <time>2026-08-30T09:13:05Z</time>
      </trkpt>
      <trkpt lat="44.74547" lon="6.99425">
        <ele>1758.6</ele>
        <time>2026-08-30T09:13:10Z</time>
      </trkpt>
      <trkpt lat="44.74544" lon="6.99424">
        <ele>1758.5</ele>
        <time>2026-08-30T09:13:15Z</time>
      </trkpt>
      <trkpt lat="44.74544" lon="6.99424">
        <ele>1758.5</ele>
        <time>2026-08-30T09:13:21Z</time>
      </trkpt>
      <trkpt lat="44.74544" lon="6.99424">
        <ele>1758.5</ele>
        <time>2026-08-30T09:13:26Z</time>
      </trkpt>
      <trkpt lat="44.74544" lon="6.99424">
        <ele>1758.5</ele>
        <time>2026-08-30T09:13:31Z</time>
      </trkpt>
      <trkpt lat="44.74544" lon="6.99424">
        <ele>1758.5</ele>
        <time>2026-08-30T09:13:37Z</time>
      </trkpt>
      <trkpt lat="44.74544" lon="6.99424">
        <ele>1758.5</ele>
        <time>2026-08-30T09:13:42Z</time>
      </trkpt>
      <trkpt lat="44.74544" lon="6.99424">
        <ele>1758.5</ele>
        <time>2026-08-30T09:13:47Z</time>
      </trkpt>
      <trkpt lat="44.74544" lon="6.99424">
        <ele>1758.5</ele>
        <time>2026-08-30T09:13:53Z</time>
      </trkpt>
      <trkpt lat="44.74544" lon="6.99424">
        <ele>1758.5</ele>
        <time>2026-08-30T09:13:58Z</time>
      </trkpt>
      <trkpt lat="44.74544" lon="6.99424">
        <ele>1758.5</ele>
        <time>2026-08-30T09:14:03Z</time>
      </trkpt>
      <trkpt lat="44.74544" lon="6.99424">
        <ele>1758.5</ele>
        <time>2026-08-30T09:14:09Z</time>
      </trkpt>
      <trkpt lat="44.74544" lon="6.99424">
        <ele>1758.5</ele>
        <time>2026-08-30T09:14:14Z</time>
      </trkpt>
      <trkpt lat="44.74533" lon="6.99421">
        <ele>1758</ele>
        <time>2026-08-30T09:14:19Z</time>
      </trkpt>
      <trkpt lat="44.74533" lon="6.99421">
        <ele>1758</ele>
        <time>2026-08-30T09:14:25Z</time>
      </trkpt>
      <trkpt lat="44.74533" lon="6.99421">
        <ele>1758</ele>
        <time>2026-08-30T09:14:30Z</time>
      </trkpt>
      <trkpt lat="44.74533" lon="6.99421">
        <ele>1758</ele>
        <time>2026-08-30T09:14:35Z</time>
      </trkpt>
      <trkpt lat="44.74526" lon="6.99421">
        <ele>1758.1</ele>
        <time>2026-08-30T09:14:41Z</time>
      </trkpt>
      <trkpt lat="44.7452" lon="6.99418">
        <ele>1757.4</ele>
        <time>2026-08-30T09:14:46Z</time>
      </trkpt>
      <trkpt lat="44.74514" lon="6.99419">
        <ele>1757.6</ele>
        <time>2026-08-30T09:14:51Z</time>
      </trkpt>
      <trkpt lat="44.74507" lon="6.99413">
        <ele>1757.2</ele>
        <time>2026-08-30T09:14:57Z</time>
      </trkpt>
      <trkpt lat="44.74501" lon="6.99413">
        <ele>1757.2</ele>
        <time>2026-08-30T09:15:02Z</time>
      </trkpt>
      <trkpt lat="44.74496" lon="6.99413">
        <ele>1757.3</ele>
        <time>2026-08-30T09:15:07Z</time>
      </trkpt>
      <trkpt lat="44.74489" lon="6.99412">
        <ele>1757.6</ele>
        <time>2026-08-30T09:15:13Z</time>
      </trkpt>
      <trkpt lat="44.74483" lon="6.99409">
        <ele>1757.9</ele>
        <time>2026-08-30T09:15:18Z</time>
      </trkpt>
      <trkpt lat="44.74481" lon="6.9941">
        <ele>1757.9</ele>
        <time>2026-08-30T09:15:23Z</time>
      </trkpt>
      <trkpt lat="44.74476" lon="6.99409">
        <ele>1758.1</ele>
        <time>2026-08-30T09:15:29Z</time>
      </trkpt>
      <trkpt lat="44.74473" lon="6.99407">
        <ele>1758.3</ele>
        <time>2026-08-30T09:15:34Z</time>
      </trkpt>
      <trkpt lat="44.74469" lon="6.99405">
        <ele>1758.5</ele>
        <time>2026-08-30T09:15:39Z</time>
      </trkpt>
      <trkpt lat="44.74463" lon="6.99403">
        <ele>1758.8</ele>
        <time>2026-08-30T09:15:45Z</time>
      </trkpt>
      <trkpt lat="44.74459" lon="6.99399">
        <ele>1759.1</ele>
        <time>2026-08-30T09:15:50Z</time>
      </trkpt>
      <trkpt lat="44.74458" lon="6.99398">
        <ele>1759.2</ele>
        <time>2026-08-30T09:15:55Z</time>
      </trkpt>
      <trkpt lat="44.74455" lon="6.99395">
        <ele>1759.5</ele>
        <time>2026-08-30T09:16:01Z</time>
      </trkpt>
      <trkpt lat="44.74451" lon="6.99392">
        <ele>1759.8</ele>
        <time>2026-08-30T09:16:06Z</time>
      </trkpt>
      <trkpt lat="44.74446" lon="6.99387">
        <ele>1760.3</ele>
        <time>2026-08-30T09:16:11Z</time>
      </trkpt>
      <trkpt lat="44.74438" lon="6.99384">
        <ele>1760.7</ele>
        <time>2026-08-30T09:16:17Z</time>
      </trkpt>
      <trkpt lat="44.74432" lon="6.9938">
        <ele>1761.2</ele>
        <time>2026-08-30T09:16:22Z</time>
      </trkpt>
      <trkpt lat="44.74426" lon="6.99376">
        <ele>1761.6</ele>
        <time>2026-08-30T09:16:27Z</time>
      </trkpt>
      <trkpt lat="44.7442" lon="6.99373">
        <ele>1762</ele>
        <time>2026-08-30T09:16:33Z</time>
      </trkpt>
      <trkpt lat="44.74415" lon="6.99371">
        <ele>1762.4</ele>
        <time>2026-08-30T09:16:38Z</time>
      </trkpt>
      <trkpt lat="44.74414" lon="6.99373">
        <ele>1762.3</ele>
        <time>2026-08-30T09:16:43Z</time>
      </trkpt>
      <trkpt lat="44.74411" lon="6.99372">
        <ele>1762.5</ele>
        <time>2026-08-30T09:16:49Z</time>
      </trkpt>
      <trkpt lat="44.7441" lon="6.99373">
        <ele>1762.5</ele>
        <time>2026-08-30T09:16:54Z</time>
      </trkpt>
      <trkpt lat="44.7441" lon="6.99373">
        <ele>1762.5</ele>
        <time>2026-08-30T09:16:59Z</time>
      </trkpt>
      <trkpt lat="44.7441" lon="6.99373">
        <ele>1762.5</ele>
        <time>2026-08-30T09:17:05Z</time>
      </trkpt>
      <trkpt lat="44.74405" lon="6.99375">
        <ele>1762.6</ele>
        <time>2026-08-30T09:17:10Z</time>
      </trkpt>
      <trkpt lat="44.74402" lon="6.99374">
        <ele>1762.9</ele>
        <time>2026-08-30T09:17:15Z</time>
      </trkpt>
      <trkpt lat="44.74399" lon="6.99371">
        <ele>1763.2</ele>
        <time>2026-08-30T09:17:21Z</time>
      </trkpt>
      <trkpt lat="44.744" lon="6.99368">
        <ele>1763.3</ele>
        <time>2026-08-30T09:17:26Z</time>
      </trkpt>
      <trkpt lat="44.74399" lon="6.99368">
        <ele>1763.4</ele>
        <time>2026-08-30T09:17:31Z</time>
      </trkpt>
      <trkpt lat="44.74399" lon="6.99368">
        <ele>1763.4</ele>
        <time>2026-08-30T09:17:37Z</time>
      </trkpt>
      <trkpt lat="44.74399" lon="6.99368">
        <ele>1763.4</ele>
        <time>2026-08-30T09:17:42Z</time>
      </trkpt>
      <trkpt lat="44.74399" lon="6.99368">
        <ele>1763.4</ele>
        <time>2026-08-30T09:17:47Z</time>
      </trkpt>
      <trkpt lat="44.74403" lon="6.99381">
        <ele>1762.4</ele>
        <time>2026-08-30T09:17:53Z</time>
      </trkpt>
      <trkpt lat="44.74401" lon="6.99387">
        <ele>1762.1</ele>
        <time>2026-08-30T09:17:58Z</time>
      </trkpt>
      <trkpt lat="44.744" lon="6.99383">
        <ele>1762.4</ele>
        <time>2026-08-30T09:18:03Z</time>
      </trkpt>
      <trkpt lat="44.74401" lon="6.99372">
        <ele>1763</ele>
        <time>2026-08-30T09:18:09Z</time>
      </trkpt>
      <trkpt lat="44.74402" lon="6.99368">
        <ele>1763.2</ele>
        <time>2026-08-30T09:18:14Z</time>
      </trkpt>
      <trkpt lat="44.74405" lon="6.99364">
        <ele>1763.3</ele>
        <time>2026-08-30T09:18:19Z</time>
      </trkpt>
      <trkpt lat="44.74406" lon="6.99358">
        <ele>1763.7</ele>
        <time>2026-08-30T09:18:25Z</time>
      </trkpt>
      <trkpt lat="44.74405" lon="6.99353">
        <ele>1764</ele>
        <time>2026-08-30T09:18:30Z</time>
      </trkpt>
      <trkpt lat="44.74403" lon="6.99349">
        <ele>1764.4</ele>
        <time>2026-08-30T09:18:35Z</time>
      </trkpt>
      <trkpt lat="44.74402" lon="6.99342">
        <ele>1764.8</ele>
        <time>2026-08-30T09:18:41Z</time>
      </trkpt>
      <trkpt lat="44.74401" lon="6.99341">
        <ele>1764.9</ele>
        <time>2026-08-30T09:18:46Z</time>
      </trkpt>
      <trkpt lat="44.744" lon="6.9934">
        <ele>1765</ele>
        <time>2026-08-30T09:18:51Z</time>
      </trkpt>
      <trkpt lat="44.744" lon="6.99336">
        <ele>1765.2</ele>
        <time>2026-08-30T09:18:57Z</time>
      </trkpt>
      <trkpt lat="44.74399" lon="6.99334">
        <ele>1765.4</ele>
        <time>2026-08-30T09:19:02Z</time>
      </trkpt>
      <trkpt lat="44.74402" lon="6.9934">
        <ele>1764.9</ele>
        <time>2026-08-30T09:19:07Z</time>
      </trkpt>
      <trkpt lat="44.74403" lon="6.99349">
        <ele>1764.4</ele>
        <time>2026-08-30T09:19:13Z</time>
      </trkpt>
      <trkpt lat="44.74402" lon="6.99358">
        <ele>1763.8</ele>
        <time>2026-08-30T09:19:18Z</time>
      </trkpt>
      <trkpt lat="44.74404" lon="6.99364">
        <ele>1763.4</ele>
        <time>2026-08-30T09:19:23Z</time>
      </trkpt>
      <trkpt lat="44.74404" lon="6.99369">
        <ele>1763.1</ele>
        <time>2026-08-30T09:19:29Z</time>
      </trkpt>
      <trkpt lat="44.74404" lon="6.99372">
        <ele>1762.9</ele>
        <time>2026-08-30T09:19:34Z</time>
      </trkpt>
      <trkpt lat="44.74403" lon="6.99373">
        <ele>1762.9</ele>
        <time>2026-08-30T09:19:39Z</time>
      </trkpt>
      <trkpt lat="44.74402" lon="6.99372">
        <ele>1763</ele>
        <time>2026-08-30T09:19:45Z</time>
      </trkpt>
      <trkpt lat="44.74402" lon="6.99372">
        <ele>1763</ele>
        <time>2026-08-30T09:19:50Z</time>
      </trkpt>
      <trkpt lat="44.74402" lon="6.99372">
        <ele>1763</ele>
        <time>2026-08-30T09:19:55Z</time>
      </trkpt>
      <trkpt lat="44.74399" lon="6.99371">
        <ele>1763.2</ele>
        <time>2026-08-30T09:20:01Z</time>
      </trkpt>
      <trkpt lat="44.74399" lon="6.99372">
        <ele>1763.1</ele>
        <time>2026-08-30T09:20:06Z</time>
      </trkpt>
      <trkpt lat="44.74399" lon="6.99372">
        <ele>1763.1</ele>
        <time>2026-08-30T09:20:11Z</time>
      </trkpt>
      <trkpt lat="44.74399" lon="6.99372">
        <ele>1763.1</ele>
        <time>2026-08-30T09:20:17Z</time>
      </trkpt>
      <trkpt lat="44.74399" lon="6.99372">
        <ele>1763.1</ele>
        <time>2026-08-30T09:20:22Z</time>
      </trkpt>
      <trkpt lat="44.74399" lon="6.99372">
        <ele>1763.1</ele>
        <time>2026-08-30T09:20:27Z</time>
      </trkpt>
      <trkpt lat="44.74399" lon="6.99372">
        <ele>1763.1</ele>
        <time>2026-08-30T09:20:33Z</time>
      </trkpt>
      <trkpt lat="44.74399" lon="6.99372">
        <ele>1763.1</ele>
        <time>2026-08-30T09:20:38Z</time>
      </trkpt>
      <trkpt lat="44.74399" lon="6.99372">
        <ele>1763.1</ele>
        <time>2026-08-30T09:20:43Z</time>
      </trkpt>
      <trkpt lat="44.74395" lon="6.99377">
        <ele>1763.1</ele>
        <time>2026-08-30T09:20:49Z</time>
      </trkpt>
      <trkpt lat="44.7439" lon="6.99377">
        <ele>1763.3</ele>
        <time>2026-08-30T09:20:54Z</time>
      </trkpt>
      <trkpt lat="44.74385" lon="6.99376">
        <ele>1763.7</ele>
        <time>2026-08-30T09:20:59Z</time>
      </trkpt>
      <trkpt lat="44.74377" lon="6.99375">
        <ele>1764.1</ele>
        <time>2026-08-30T09:21:05Z</time>
      </trkpt>
      <trkpt lat="44.74372" lon="6.99372">
        <ele>1764.5</ele>
        <time>2026-08-30T09:21:10Z</time>
      </trkpt>
      <trkpt lat="44.74367" lon="6.99372">
        <ele>1764.8</ele>
        <time>2026-08-30T09:21:15Z</time>
      </trkpt>
      <trkpt lat="44.74359" lon="6.99369">
        <ele>1765.3</ele>
        <time>2026-08-30T09:21:21Z</time>
      </trkpt>
      <trkpt lat="44.74355" lon="6.9937">
        <ele>1765.5</ele>
        <time>2026-08-30T09:21:26Z</time>
      </trkpt>
      <trkpt lat="44.7435" lon="6.9937">
        <ele>1765.7</ele>
        <time>2026-08-30T09:21:31Z</time>
      </trkpt>
      <trkpt lat="44.74344" lon="6.99367">
        <ele>1766.1</ele>
        <time>2026-08-30T09:21:37Z</time>
      </trkpt>
      <trkpt lat="44.74343" lon="6.99361">
        <ele>1766.2</ele>
        <time>2026-08-30T09:21:42Z</time>
      </trkpt>
      <trkpt lat="44.74344" lon="6.99359">
        <ele>1766.2</ele>
        <time>2026-08-30T09:21:47Z</time>
      </trkpt>
      <trkpt lat="44.74344" lon="6.99359">
        <ele>1766.2</ele>
        <time>2026-08-30T09:21:53Z</time>
      </trkpt>
      <trkpt lat="44.74344" lon="6.99359">
        <ele>1766.2</ele>
        <time>2026-08-30T09:21:58Z</time>
      </trkpt>
      <trkpt lat="44.74344" lon="6.99359">
        <ele>1766.2</ele>
        <time>2026-08-30T09:22:03Z</time>
      </trkpt>
      <trkpt lat="44.74344" lon="6.99359">
        <ele>1766.2</ele>
        <time>2026-08-30T09:22:09Z</time>
      </trkpt>
      <trkpt lat="44.74344" lon="6.99359">
        <ele>1766.2</ele>
        <time>2026-08-30T09:22:14Z</time>
      </trkpt>
      <trkpt lat="44.74344" lon="6.99359">
        <ele>1766.2</ele>
        <time>2026-08-30T09:22:19Z</time>
      </trkpt>
      <trkpt lat="44.74344" lon="6.99359">
        <ele>1766.2</ele>
        <time>2026-08-30T09:22:25Z</time>
      </trkpt>
      <trkpt lat="44.74344" lon="6.99359">
        <ele>1766.2</ele>
        <time>2026-08-30T09:22:30Z</time>
      </trkpt>
      <trkpt lat="44.74344" lon="6.99359">
        <ele>1766.2</ele>
        <time>2026-08-30T09:22:35Z</time>
      </trkpt>
      <trkpt lat="44.74344" lon="6.99359">
        <ele>1766.2</ele>
        <time>2026-08-30T09:22:41Z</time>
      </trkpt>
      <trkpt lat="44.74344" lon="6.99359">
        <ele>1766.2</ele>
        <time>2026-08-30T09:22:46Z</time>
      </trkpt>
      <trkpt lat="44.74344" lon="6.99359">
        <ele>1766.2</ele>
        <time>2026-08-30T09:22:51Z</time>
      </trkpt>
      <trkpt lat="44.74344" lon="6.99359">
        <ele>1766.2</ele>
        <time>2026-08-30T09:22:57Z</time>
      </trkpt>
      <trkpt lat="44.74344" lon="6.99359">
        <ele>1766.2</ele>
        <time>2026-08-30T09:23:02Z</time>
      </trkpt>
      <trkpt lat="44.74344" lon="6.99359">
        <ele>1766.2</ele>
        <time>2026-08-30T09:23:07Z</time>
      </trkpt>
      <trkpt lat="44.74344" lon="6.99359">
        <ele>1766.2</ele>
        <time>2026-08-30T09:23:13Z</time>
      </trkpt>
      <trkpt lat="44.74344" lon="6.99359">
        <ele>1766.2</ele>
        <time>2026-08-30T09:23:18Z</time>
      </trkpt>
      <trkpt lat="44.74344" lon="6.99359">
        <ele>1766.2</ele>
        <time>2026-08-30T09:23:23Z</time>
      </trkpt>
      <trkpt lat="44.74344" lon="6.99359">
        <ele>1766.2</ele>
        <time>2026-08-30T09:23:29Z</time>
      </trkpt>
      <trkpt lat="44.74344" lon="6.99359">
        <ele>1766.2</ele>
        <time>2026-08-30T09:23:34Z</time>
      </trkpt>
      <trkpt lat="44.74344" lon="6.99359">
        <ele>1766.2</ele>
        <time>2026-08-30T09:23:39Z</time>
      </trkpt>
      <trkpt lat="44.74344" lon="6.99359">
        <ele>1766.2</ele>
        <time>2026-08-30T09:23:45Z</time>
      </trkpt>
      <trkpt lat="44.74344" lon="6.99359">
        <ele>1766.2</ele>
        <time>2026-08-30T09:23:50Z</time>
      </trkpt>
      <trkpt lat="44.74344" lon="6.99359">
        <ele>1766.2</ele>
        <time>2026-08-30T09:23:55Z</time>
      </trkpt>
      <trkpt lat="44.74344" lon="6.99359">
        <ele>1766.2</ele>
        <time>2026-08-30T09:24:01Z</time>
      </trkpt>
      <trkpt lat="44.74344" lon="6.99359">
        <ele>1766.2</ele>
        <time>2026-08-30T09:24:06Z</time>
      </trkpt>
      <trkpt lat="44.74344" lon="6.99359">
        <ele>1766.2</ele>
        <time>2026-08-30T09:24:11Z</time>
      </trkpt>
      <trkpt lat="44.74344" lon="6.99359">
        <ele>1766.2</ele>
        <time>2026-08-30T09:24:17Z</time>
      </trkpt>
      <trkpt lat="44.74349" lon="6.99353">
        <ele>1766.2</ele>
        <time>2026-08-30T09:24:22Z</time>
      </trkpt>
      <trkpt lat="44.74345" lon="6.99375">
        <ele>1765.9</ele>
        <time>2026-08-30T09:24:27Z</time>
      </trkpt>
      <trkpt lat="44.74345" lon="6.99375">
        <ele>1765.9</ele>
        <time>2026-08-30T09:24:33Z</time>
      </trkpt>
      <trkpt lat="44.74345" lon="6.99375">
        <ele>1765.9</ele>
        <time>2026-08-30T09:24:38Z</time>
      </trkpt>
      <trkpt lat="44.74342" lon="6.99364">
        <ele>1766.2</ele>
        <time>2026-08-30T09:24:43Z</time>
      </trkpt>
      <trkpt lat="44.74342" lon="6.99364">
        <ele>1766.2</ele>
        <time>2026-08-30T09:24:49Z</time>
      </trkpt>
      <trkpt lat="44.74342" lon="6.99364">
        <ele>1766.2</ele>
        <time>2026-08-30T09:24:54Z</time>
      </trkpt>
      <trkpt lat="44.74342" lon="6.99364">
        <ele>1766.2</ele>
        <time>2026-08-30T09:24:59Z</time>
      </trkpt>
      <trkpt lat="44.74342" lon="6.99364">
        <ele>1766.2</ele>
        <time>2026-08-30T09:25:05Z</time>
      </trkpt>
      <trkpt lat="44.74342" lon="6.99355">
        <ele>1766.4</ele>
        <time>2026-08-30T09:25:10Z</time>
      </trkpt>
      <trkpt lat="44.74336" lon="6.99354">
        <ele>1766.6</ele>
        <time>2026-08-30T09:25:15Z</time>
      </trkpt>
      <trkpt lat="44.74329" lon="6.9935">
        <ele>1767</ele>
        <time>2026-08-30T09:25:21Z</time>
      </trkpt>
      <trkpt lat="44.74327" lon="6.99346">
        <ele>1767.1</ele>
        <time>2026-08-30T09:25:26Z</time>
      </trkpt>
      <trkpt lat="44.74324" lon="6.99341">
        <ele>1767.3</ele>
        <time>2026-08-30T09:25:31Z</time>
      </trkpt>
      <trkpt lat="44.74319" lon="6.99335">
        <ele>1767.5</ele>
        <time>2026-08-30T09:25:37Z</time>
      </trkpt>
      <trkpt lat="44.74315" lon="6.99327">
        <ele>1769.8</ele>
        <time>2026-08-30T09:25:42Z</time>
      </trkpt>
      <trkpt lat="44.7431" lon="6.99321">
        <ele>1772</ele>
        <time>2026-08-30T09:25:47Z</time>
      </trkpt>
      <trkpt lat="44.74302" lon="6.99319">
        <ele>1773.1</ele>
        <time>2026-08-30T09:25:53Z</time>
      </trkpt>
      <trkpt lat="44.74293" lon="6.99319">
        <ele>1773.5</ele>
        <time>2026-08-30T09:25:58Z</time>
      </trkpt>
      <trkpt lat="44.74286" lon="6.9932">
        <ele>1773.5</ele>
        <time>2026-08-30T09:26:03Z</time>
      </trkpt>
      <trkpt lat="44.74277" lon="6.9932">
        <ele>1773.9</ele>
        <time>2026-08-30T09:26:09Z</time>
      </trkpt>
      <trkpt lat="44.74272" lon="6.99318">
        <ele>1774.9</ele>
        <time>2026-08-30T09:26:14Z</time>
      </trkpt>
      <trkpt lat="44.74265" lon="6.99315">
        <ele>1776.3</ele>
        <time>2026-08-30T09:26:19Z</time>
      </trkpt>
      <trkpt lat="44.74257" lon="6.99314">
        <ele>1777.1</ele>
        <time>2026-08-30T09:26:25Z</time>
      </trkpt>
      <trkpt lat="44.7425" lon="6.99314">
        <ele>1777.4</ele>
        <time>2026-08-30T09:26:30Z</time>
      </trkpt>
      <trkpt lat="44.74244" lon="6.99313">
        <ele>1778.3</ele>
        <time>2026-08-30T09:26:35Z</time>
      </trkpt>
      <trkpt lat="44.74236" lon="6.99312">
        <ele>1779.4</ele>
        <time>2026-08-30T09:26:41Z</time>
      </trkpt>
      <trkpt lat="44.7423" lon="6.99311">
        <ele>1780.3</ele>
        <time>2026-08-30T09:26:46Z</time>
      </trkpt>
      <trkpt lat="44.74224" lon="6.99311">
        <ele>1780.8</ele>
        <time>2026-08-30T09:26:51Z</time>
      </trkpt>
      <trkpt lat="44.74218" lon="6.99313">
        <ele>1780.5</ele>
        <time>2026-08-30T09:26:57Z</time>
      </trkpt>
      <trkpt lat="44.7421" lon="6.99315">
        <ele>1780.3</ele>
        <time>2026-08-30T09:27:02Z</time>
      </trkpt>
      <trkpt lat="44.74203" lon="6.99313">
        <ele>1781.7</ele>
        <time>2026-08-30T09:27:07Z</time>
      </trkpt>
      <trkpt lat="44.74196" lon="6.9931">
        <ele>1783.6</ele>
        <time>2026-08-30T09:27:13Z</time>
      </trkpt>
      <trkpt lat="44.7419" lon="6.99308">
        <ele>1784.9</ele>
        <time>2026-08-30T09:27:18Z</time>
      </trkpt>
      <trkpt lat="44.74184" lon="6.99307">
        <ele>1785.9</ele>
        <time>2026-08-30T09:27:23Z</time>
      </trkpt>
      <trkpt lat="44.74177" lon="6.99305">
        <ele>1787.3</ele>
        <time>2026-08-30T09:27:29Z</time>
      </trkpt>
      <trkpt lat="44.74171" lon="6.99305">
        <ele>1787.9</ele>
        <time>2026-08-30T09:27:34Z</time>
      </trkpt>
      <trkpt lat="44.74164" lon="6.99305">
        <ele>1788.5</ele>
        <time>2026-08-30T09:27:39Z</time>
      </trkpt>
      <trkpt lat="44.74156" lon="6.99305">
        <ele>1789.4</ele>
        <time>2026-08-30T09:27:45Z</time>
      </trkpt>
      <trkpt lat="44.74151" lon="6.99303">
        <ele>1790.8</ele>
        <time>2026-08-30T09:27:50Z</time>
      </trkpt>
      <trkpt lat="44.74145" lon="6.99301">
        <ele>1792.4</ele>
        <time>2026-08-30T09:27:55Z</time>
      </trkpt>
      <trkpt lat="44.74137" lon="6.99302">
        <ele>1792.8</ele>
        <time>2026-08-30T09:28:01Z</time>
      </trkpt>
      <trkpt lat="44.7413" lon="6.99301">
        <ele>1794</ele>
        <time>2026-08-30T09:28:06Z</time>
      </trkpt>
      <trkpt lat="44.74124" lon="6.99302">
        <ele>1794.3</ele>
        <time>2026-08-30T09:28:11Z</time>
      </trkpt>
      <trkpt lat="44.74116" lon="6.99303">
        <ele>1794.7</ele>
        <time>2026-08-30T09:28:17Z</time>
      </trkpt>
      <trkpt lat="44.74111" lon="6.99305">
        <ele>1794.5</ele>
        <time>2026-08-30T09:28:22Z</time>
      </trkpt>
      <trkpt lat="44.74111" lon="6.9931">
        <ele>1792.4</ele>
        <time>2026-08-30T09:28:27Z</time>
      </trkpt>
      <trkpt lat="44.74111" lon="6.99315">
        <ele>1790.3</ele>
        <time>2026-08-30T09:28:33Z</time>
      </trkpt>
      <trkpt lat="44.74111" lon="6.99315">
        <ele>1790.3</ele>
        <time>2026-08-30T09:28:38Z</time>
      </trkpt>
      <trkpt lat="44.74111" lon="6.99315">
        <ele>1790.3</ele>
        <time>2026-08-30T09:28:43Z</time>
      </trkpt>
      <trkpt lat="44.74102" lon="6.99317">
        <ele>1790.5</ele>
        <time>2026-08-30T09:28:49Z</time>
      </trkpt>
      <trkpt lat="44.74098" lon="6.99315">
        <ele>1791.8</ele>
        <time>2026-08-30T09:28:54Z</time>
      </trkpt>
      <trkpt lat="44.74091" lon="6.99313">
        <ele>1793.4</ele>
        <time>2026-08-30T09:28:59Z</time>
      </trkpt>
      <trkpt lat="44.74086" lon="6.99311">
        <ele>1794.8</ele>
        <time>2026-08-30T09:29:05Z</time>
      </trkpt>
      <trkpt lat="44.74082" lon="6.99313">
        <ele>1794.6</ele>
        <time>2026-08-30T09:29:10Z</time>
      </trkpt>
      <trkpt lat="44.74076" lon="6.99312">
        <ele>1796.5</ele>
        <time>2026-08-30T09:29:15Z</time>
      </trkpt>
      <trkpt lat="44.74069" lon="6.99315">
        <ele>1796.9</ele>
        <time>2026-08-30T09:29:21Z</time>
      </trkpt>
      <trkpt lat="44.74062" lon="6.99318">
        <ele>1797.4</ele>
        <time>2026-08-30T09:29:26Z</time>
      </trkpt>
      <trkpt lat="44.74057" lon="6.99321">
        <ele>1797.4</ele>
        <time>2026-08-30T09:29:31Z</time>
      </trkpt>
      <trkpt lat="44.7405" lon="6.99326">
        <ele>1797</ele>
        <time>2026-08-30T09:29:37Z</time>
      </trkpt>
      <trkpt lat="44.74047" lon="6.99331">
        <ele>1795.7</ele>
        <time>2026-08-30T09:29:42Z</time>
      </trkpt>
      <trkpt lat="44.74046" lon="6.99335">
        <ele>1794.6</ele>
        <time>2026-08-30T09:29:47Z</time>
      </trkpt>
      <trkpt lat="44.74044" lon="6.99335">
        <ele>1795.1</ele>
        <time>2026-08-30T09:29:53Z</time>
      </trkpt>
      <trkpt lat="44.74039" lon="6.99333">
        <ele>1796.8</ele>
        <time>2026-08-30T09:29:58Z</time>
      </trkpt>
      <trkpt lat="44.74034" lon="6.99333">
        <ele>1798</ele>
        <time>2026-08-30T09:30:03Z</time>
      </trkpt>
      <trkpt lat="44.74028" lon="6.99332">
        <ele>1799.8</ele>
        <time>2026-08-30T09:30:09Z</time>
      </trkpt>
      <trkpt lat="44.74022" lon="6.99335">
        <ele>1800.4</ele>
        <time>2026-08-30T09:30:14Z</time>
      </trkpt>
      <trkpt lat="44.74016" lon="6.99339">
        <ele>1800.9</ele>
        <time>2026-08-30T09:30:19Z</time>
      </trkpt>
      <trkpt lat="44.74011" lon="6.99343">
        <ele>1801.2</ele>
        <time>2026-08-30T09:30:25Z</time>
      </trkpt>
      <trkpt lat="44.74007" lon="6.99345">
        <ele>1801.7</ele>
        <time>2026-08-30T09:30:30Z</time>
      </trkpt>
      <trkpt lat="44.74001" lon="6.9935">
        <ele>1802</ele>
        <time>2026-08-30T09:30:35Z</time>
      </trkpt>
      <trkpt lat="44.73994" lon="6.99355">
        <ele>1803.3</ele>
        <time>2026-08-30T09:30:41Z</time>
      </trkpt>
      <trkpt lat="44.73988" lon="6.9936">
        <ele>1804.4</ele>
        <time>2026-08-30T09:30:46Z</time>
      </trkpt>
      <trkpt lat="44.73981" lon="6.99365">
        <ele>1805.8</ele>
        <time>2026-08-30T09:30:51Z</time>
      </trkpt>
      <trkpt lat="44.73975" lon="6.99373">
        <ele>1805.9</ele>
        <time>2026-08-30T09:30:57Z</time>
      </trkpt>
      <trkpt lat="44.73971" lon="6.99376">
        <ele>1806.5</ele>
        <time>2026-08-30T09:31:02Z</time>
      </trkpt>
      <trkpt lat="44.73967" lon="6.99381">
        <ele>1806.6</ele>
        <time>2026-08-30T09:31:07Z</time>
      </trkpt>
      <trkpt lat="44.73962" lon="6.99388">
        <ele>1806.3</ele>
        <time>2026-08-30T09:31:13Z</time>
      </trkpt>
      <trkpt lat="44.73957" lon="6.99393">
        <ele>1806.6</ele>
        <time>2026-08-30T09:31:18Z</time>
      </trkpt>
      <trkpt lat="44.73953" lon="6.99399">
        <ele>1806.2</ele>
        <time>2026-08-30T09:31:23Z</time>
      </trkpt>
      <trkpt lat="44.73948" lon="6.99404">
        <ele>1806.3</ele>
        <time>2026-08-30T09:31:29Z</time>
      </trkpt>
      <trkpt lat="44.73943" lon="6.9941">
        <ele>1806.1</ele>
        <time>2026-08-30T09:31:34Z</time>
      </trkpt>
      <trkpt lat="44.7394" lon="6.99417">
        <ele>1804.9</ele>
        <time>2026-08-30T09:31:39Z</time>
      </trkpt>
      <trkpt lat="44.73933" lon="6.99425">
        <ele>1804.9</ele>
        <time>2026-08-30T09:31:45Z</time>
      </trkpt>
      <trkpt lat="44.73928" lon="6.99426">
        <ele>1806.1</ele>
        <time>2026-08-30T09:31:50Z</time>
      </trkpt>
      <trkpt lat="44.73922" lon="6.9943">
        <ele>1806.6</ele>
        <time>2026-08-30T09:31:55Z</time>
      </trkpt>
      <trkpt lat="44.73916" lon="6.99436">
        <ele>1806.4</ele>
        <time>2026-08-30T09:32:01Z</time>
      </trkpt>
      <trkpt lat="44.73913" lon="6.99437">
        <ele>1806.7</ele>
        <time>2026-08-30T09:32:06Z</time>
      </trkpt>
      <trkpt lat="44.73908" lon="6.99437">
        <ele>1807.9</ele>
        <time>2026-08-30T09:32:11Z</time>
      </trkpt>
      <trkpt lat="44.73903" lon="6.99437">
        <ele>1809</ele>
        <time>2026-08-30T09:32:17Z</time>
      </trkpt>
      <trkpt lat="44.73898" lon="6.99438">
        <ele>1809.9</ele>
        <time>2026-08-30T09:32:22Z</time>
      </trkpt>
      <trkpt lat="44.73892" lon="6.99444">
        <ele>1809.3</ele>
        <time>2026-08-30T09:32:27Z</time>
      </trkpt>
      <trkpt lat="44.73889" lon="6.99454">
        <ele>1806.8</ele>
        <time>2026-08-30T09:32:33Z</time>
      </trkpt>
      <trkpt lat="44.73884" lon="6.9946">
        <ele>1806</ele>
        <time>2026-08-30T09:32:38Z</time>
      </trkpt>
      <trkpt lat="44.73879" lon="6.99461">
        <ele>1806.8</ele>
        <time>2026-08-30T09:32:43Z</time>
      </trkpt>
      <trkpt lat="44.73872" lon="6.99462">
        <ele>1808</ele>
        <time>2026-08-30T09:32:49Z</time>
      </trkpt>
      <trkpt lat="44.73868" lon="6.99464">
        <ele>1808.2</ele>
        <time>2026-08-30T09:32:54Z</time>
      </trkpt>
      <trkpt lat="44.73863" lon="6.99467">
        <ele>1808.2</ele>
        <time>2026-08-30T09:32:59Z</time>
      </trkpt>
      <trkpt lat="44.73857" lon="6.99472">
        <ele>1807.8</ele>
        <time>2026-08-30T09:33:05Z</time>
      </trkpt>
      <trkpt lat="44.73853" lon="6.99479">
        <ele>1806.3</ele>
        <time>2026-08-30T09:33:10Z</time>
      </trkpt>
      <trkpt lat="44.73849" lon="6.99486">
        <ele>1804.7</ele>
        <time>2026-08-30T09:33:15Z</time>
      </trkpt>
      <trkpt lat="44.73844" lon="6.99493">
        <ele>1803.3</ele>
        <time>2026-08-30T09:33:21Z</time>
      </trkpt>
      <trkpt lat="44.73842" lon="6.99497">
        <ele>1802.4</ele>
        <time>2026-08-30T09:33:26Z</time>
      </trkpt>
      <trkpt lat="44.73839" lon="6.99493">
        <ele>1804.3</ele>
        <time>2026-08-30T09:33:31Z</time>
      </trkpt>
      <trkpt lat="44.73836" lon="6.99494">
        <ele>1804.6</ele>
        <time>2026-08-30T09:33:37Z</time>
      </trkpt>
      <trkpt lat="44.73832" lon="6.99497">
        <ele>1804.4</ele>
        <time>2026-08-30T09:33:42Z</time>
      </trkpt>
      <trkpt lat="44.73827" lon="6.995">
        <ele>1804.7</ele>
        <time>2026-08-30T09:33:47Z</time>
      </trkpt>
      <trkpt lat="44.73827" lon="6.995">
        <ele>1804.7</ele>
        <time>2026-08-30T09:33:53Z</time>
      </trkpt>
      <trkpt lat="44.73827" lon="6.995">
        <ele>1804.7</ele>
        <time>2026-08-30T09:33:58Z</time>
      </trkpt>
      <trkpt lat="44.73827" lon="6.995">
        <ele>1804.7</ele>
        <time>2026-08-30T09:34:03Z</time>
      </trkpt>
      <trkpt lat="44.73827" lon="6.995">
        <ele>1804.7</ele>
        <time>2026-08-30T09:34:09Z</time>
      </trkpt>
      <trkpt lat="44.73824" lon="6.9951">
        <ele>1803.6</ele>
        <time>2026-08-30T09:34:14Z</time>
      </trkpt>
      <trkpt lat="44.73817" lon="6.99512">
        <ele>1805</ele>
        <time>2026-08-30T09:34:19Z</time>
      </trkpt>
      <trkpt lat="44.73811" lon="6.99514">
        <ele>1806.1</ele>
        <time>2026-08-30T09:34:25Z</time>
      </trkpt>
      <trkpt lat="44.73804" lon="6.99514">
        <ele>1807.8</ele>
        <time>2026-08-30T09:34:30Z</time>
      </trkpt>
      <trkpt lat="44.73798" lon="6.99515">
        <ele>1809.1</ele>
        <time>2026-08-30T09:34:35Z</time>
      </trkpt>
      <trkpt lat="44.73792" lon="6.99516">
        <ele>1810.4</ele>
        <time>2026-08-30T09:34:41Z</time>
      </trkpt>
      <trkpt lat="44.73794" lon="6.99517">
        <ele>1809.6</ele>
        <time>2026-08-30T09:34:46Z</time>
      </trkpt>
      <trkpt lat="44.73793" lon="6.9952">
        <ele>1809.2</ele>
        <time>2026-08-30T09:34:51Z</time>
      </trkpt>
      <trkpt lat="44.73787" lon="6.99522">
        <ele>1810.2</ele>
        <time>2026-08-30T09:34:57Z</time>
      </trkpt>
      <trkpt lat="44.73782" lon="6.99523">
        <ele>1811.2</ele>
        <time>2026-08-30T09:35:02Z</time>
      </trkpt>
      <trkpt lat="44.73778" lon="6.99526">
        <ele>1811.5</ele>
        <time>2026-08-30T09:35:07Z</time>
      </trkpt>
      <trkpt lat="44.73772" lon="6.99528">
        <ele>1812.4</ele>
        <time>2026-08-30T09:35:13Z</time>
      </trkpt>
      <trkpt lat="44.73766" lon="6.9953">
        <ele>1813.3</ele>
        <time>2026-08-30T09:35:18Z</time>
      </trkpt>
      <trkpt lat="44.73761" lon="6.99533">
        <ele>1813.7</ele>
        <time>2026-08-30T09:35:23Z</time>
      </trkpt>
      <trkpt lat="44.73758" lon="6.99537">
        <ele>1813.4</ele>
        <time>2026-08-30T09:35:29Z</time>
      </trkpt>
      <trkpt lat="44.73757" lon="6.9954">
        <ele>1812.9</ele>
        <time>2026-08-30T09:35:34Z</time>
      </trkpt>
      <trkpt lat="44.73756" lon="6.9954">
        <ele>1813.1</ele>
        <time>2026-08-30T09:35:39Z</time>
      </trkpt>
      <trkpt lat="44.73756" lon="6.99539">
        <ele>1813.4</ele>
        <time>2026-08-30T09:35:45Z</time>
      </trkpt>
      <trkpt lat="44.73756" lon="6.99539">
        <ele>1813.4</ele>
        <time>2026-08-30T09:35:50Z</time>
      </trkpt>
      <trkpt lat="44.73756" lon="6.99539">
        <ele>1813.4</ele>
        <time>2026-08-30T09:35:55Z</time>
      </trkpt>
      <trkpt lat="44.7375" lon="6.99535">
        <ele>1815.8</ele>
        <time>2026-08-30T09:36:01Z</time>
      </trkpt>
      <trkpt lat="44.73746" lon="6.99539">
        <ele>1815.8</ele>
        <time>2026-08-30T09:36:06Z</time>
      </trkpt>
      <trkpt lat="44.7374" lon="6.99545">
        <ele>1815.7</ele>
        <time>2026-08-30T09:36:11Z</time>
      </trkpt>
      <trkpt lat="44.73736" lon="6.99549">
        <ele>1815.6</ele>
        <time>2026-08-30T09:36:17Z</time>
      </trkpt>
      <trkpt lat="44.73731" lon="6.99556">
        <ele>1814.9</ele>
        <time>2026-08-30T09:36:22Z</time>
      </trkpt>
      <trkpt lat="44.73725" lon="6.99556">
        <ele>1816.4</ele>
        <time>2026-08-30T09:36:27Z</time>
      </trkpt>
      <trkpt lat="44.73724" lon="6.99559">
        <ele>1815.8</ele>
        <time>2026-08-30T09:36:33Z</time>
      </trkpt>
      <trkpt lat="44.73724" lon="6.99564">
        <ele>1814.3</ele>
        <time>2026-08-30T09:36:38Z</time>
      </trkpt>
      <trkpt lat="44.7372" lon="6.99567">
        <ele>1814.4</ele>
        <time>2026-08-30T09:36:43Z</time>
      </trkpt>
      <trkpt lat="44.73715" lon="6.99568">
        <ele>1815.2</ele>
        <time>2026-08-30T09:36:49Z</time>
      </trkpt>
      <trkpt lat="44.73711" lon="6.99572">
        <ele>1814.9</ele>
        <time>2026-08-30T09:36:54Z</time>
      </trkpt>
      <trkpt lat="44.73705" lon="6.99577">
        <ele>1814.7</ele>
        <time>2026-08-30T09:36:59Z</time>
      </trkpt>
      <trkpt lat="44.73697" lon="6.99582">
        <ele>1814.9</ele>
        <time>2026-08-30T09:37:05Z</time>
      </trkpt>
      <trkpt lat="44.73692" lon="6.99586">
        <ele>1815.1</ele>
        <time>2026-08-30T09:37:10Z</time>
      </trkpt>
      <trkpt lat="44.73685" lon="6.99589">
        <ele>1816.1</ele>
        <time>2026-08-30T09:37:15Z</time>
      </trkpt>
      <trkpt lat="44.73678" lon="6.99591">
        <ele>1817.2</ele>
        <time>2026-08-30T09:37:21Z</time>
      </trkpt>
      <trkpt lat="44.73672" lon="6.99595">
        <ele>1817.8</ele>
        <time>2026-08-30T09:37:26Z</time>
      </trkpt>
      <trkpt lat="44.73667" lon="6.99602">
        <ele>1817.6</ele>
        <time>2026-08-30T09:37:31Z</time>
      </trkpt>
      <trkpt lat="44.73661" lon="6.99611">
        <ele>1817.8</ele>
        <time>2026-08-30T09:37:37Z</time>
      </trkpt>
      <trkpt lat="44.73658" lon="6.99616">
        <ele>1817.7</ele>
        <time>2026-08-30T09:37:42Z</time>
      </trkpt>
      <trkpt lat="44.73654" lon="6.99621">
        <ele>1817.9</ele>
        <time>2026-08-30T09:37:47Z</time>
      </trkpt>
      <trkpt lat="44.73648" lon="6.99628">
        <ele>1818.3</ele>
        <time>2026-08-30T09:37:53Z</time>
      </trkpt>
      <trkpt lat="44.73642" lon="6.99631">
        <ele>1819.3</ele>
        <time>2026-08-30T09:37:58Z</time>
      </trkpt>
      <trkpt lat="44.73639" lon="6.99636">
        <ele>1819</ele>
        <time>2026-08-30T09:38:03Z</time>
      </trkpt>
      <trkpt lat="44.73633" lon="6.99644">
        <ele>1818.9</ele>
        <time>2026-08-30T09:38:09Z</time>
      </trkpt>
      <trkpt lat="44.73629" lon="6.99649">
        <ele>1818.7</ele>
        <time>2026-08-30T09:38:14Z</time>
      </trkpt>
      <trkpt lat="44.73626" lon="6.99655">
        <ele>1818.1</ele>
        <time>2026-08-30T09:38:19Z</time>
      </trkpt>
      <trkpt lat="44.73622" lon="6.99663">
        <ele>1817.1</ele>
        <time>2026-08-30T09:38:25Z</time>
      </trkpt>
      <trkpt lat="44.73619" lon="6.99669">
        <ele>1816.6</ele>
        <time>2026-08-30T09:38:30Z</time>
      </trkpt>
      <trkpt lat="44.73617" lon="6.99677">
        <ele>1816</ele>
        <time>2026-08-30T09:38:35Z</time>
      </trkpt>
      <trkpt lat="44.73614" lon="6.99684">
        <ele>1815.7</ele>
        <time>2026-08-30T09:38:41Z</time>
      </trkpt>
      <trkpt lat="44.73611" lon="6.99689">
        <ele>1815.7</ele>
        <time>2026-08-30T09:38:46Z</time>
      </trkpt>
      <trkpt lat="44.73609" lon="6.99695">
        <ele>1815.2</ele>
        <time>2026-08-30T09:38:51Z</time>
      </trkpt>
      <trkpt lat="44.73606" lon="6.99702">
        <ele>1814.8</ele>
        <time>2026-08-30T09:38:57Z</time>
      </trkpt>
      <trkpt lat="44.73603" lon="6.99706">
        <ele>1814.8</ele>
        <time>2026-08-30T09:39:02Z</time>
      </trkpt>
      <trkpt lat="44.736" lon="6.99708">
        <ele>1815</ele>
        <time>2026-08-30T09:39:07Z</time>
      </trkpt>
      <trkpt lat="44.736" lon="6.99708">
        <ele>1815</ele>
        <time>2026-08-30T09:39:13Z</time>
      </trkpt>
      <trkpt lat="44.736" lon="6.99708">
        <ele>1815</ele>
        <time>2026-08-30T09:39:18Z</time>
      </trkpt>
      <trkpt lat="44.736" lon="6.99708">
        <ele>1815</ele>
        <time>2026-08-30T09:39:23Z</time>
      </trkpt>
      <trkpt lat="44.736" lon="6.99708">
        <ele>1815</ele>
        <time>2026-08-30T09:39:29Z</time>
      </trkpt>
      <trkpt lat="44.736" lon="6.99708">
        <ele>1815</ele>
        <time>2026-08-30T09:39:34Z</time>
      </trkpt>
      <trkpt lat="44.736" lon="6.99708">
        <ele>1815</ele>
        <time>2026-08-30T09:39:39Z</time>
      </trkpt>
      <trkpt lat="44.736" lon="6.99708">
        <ele>1815</ele>
        <time>2026-08-30T09:39:45Z</time>
      </trkpt>
      <trkpt lat="44.736" lon="6.99708">
        <ele>1815</ele>
        <time>2026-08-30T09:39:50Z</time>
      </trkpt>
      <trkpt lat="44.736" lon="6.99708">
        <ele>1815</ele>
        <time>2026-08-30T09:39:55Z</time>
      </trkpt>
      <trkpt lat="44.736" lon="6.99708">
        <ele>1815</ele>
        <time>2026-08-30T09:40:01Z</time>
      </trkpt>
      <trkpt lat="44.736" lon="6.99708">
        <ele>1815</ele>
        <time>2026-08-30T09:40:06Z</time>
      </trkpt>
      <trkpt lat="44.736" lon="6.99708">
        <ele>1815</ele>
        <time>2026-08-30T09:40:11Z</time>
      </trkpt>
      <trkpt lat="44.736" lon="6.99708">
        <ele>1815</ele>
        <time>2026-08-30T09:40:17Z</time>
      </trkpt>
      <trkpt lat="44.736" lon="6.99708">
        <ele>1815</ele>
        <time>2026-08-30T09:40:22Z</time>
      </trkpt>
      <trkpt lat="44.736" lon="6.99708">
        <ele>1815</ele>
        <time>2026-08-30T09:40:27Z</time>
      </trkpt>
      <trkpt lat="44.736" lon="6.99708">
        <ele>1815</ele>
        <time>2026-08-30T09:40:33Z</time>
      </trkpt>
      <trkpt lat="44.736" lon="6.99708">
        <ele>1815</ele>
        <time>2026-08-30T09:40:38Z</time>
      </trkpt>
      <trkpt lat="44.736" lon="6.99708">
        <ele>1815</ele>
        <time>2026-08-30T09:40:43Z</time>
      </trkpt>
      <trkpt lat="44.736" lon="6.99708">
        <ele>1815</ele>
        <time>2026-08-30T09:40:49Z</time>
      </trkpt>
      <trkpt lat="44.736" lon="6.99708">
        <ele>1815</ele>
        <time>2026-08-30T09:40:54Z</time>
      </trkpt>
      <trkpt lat="44.736" lon="6.99708">
        <ele>1815</ele>
        <time>2026-08-30T09:40:59Z</time>
      </trkpt>
      <trkpt lat="44.736" lon="6.99708">
        <ele>1815</ele>
        <time>2026-08-30T09:41:05Z</time>
      </trkpt>
      <trkpt lat="44.736" lon="6.99708">
        <ele>1815</ele>
        <time>2026-08-30T09:41:10Z</time>
      </trkpt>
      <trkpt lat="44.736" lon="6.99708">
        <ele>1815</ele>
        <time>2026-08-30T09:41:15Z</time>
      </trkpt>
      <trkpt lat="44.736" lon="6.99708">
        <ele>1815</ele>
        <time>2026-08-30T09:41:21Z</time>
      </trkpt>
      <trkpt lat="44.736" lon="6.99711">
        <ele>1814.6</ele>
        <time>2026-08-30T09:41:26Z</time>
      </trkpt>
      <trkpt lat="44.73594" lon="6.99714">
        <ele>1815.2</ele>
        <time>2026-08-30T09:41:31Z</time>
      </trkpt>
      <trkpt lat="44.73588" lon="6.99716">
        <ele>1815.9</ele>
        <time>2026-08-30T09:41:37Z</time>
      </trkpt>
      <trkpt lat="44.73585" lon="6.99718">
        <ele>1816.1</ele>
        <time>2026-08-30T09:41:42Z</time>
      </trkpt>
      <trkpt lat="44.73582" lon="6.99718">
        <ele>1816.9</ele>
        <time>2026-08-30T09:41:47Z</time>
      </trkpt>
      <trkpt lat="44.73579" lon="6.99718">
        <ele>1818</ele>
        <time>2026-08-30T09:41:53Z</time>
      </trkpt>
      <trkpt lat="44.73575" lon="6.99719">
        <ele>1819.2</ele>
        <time>2026-08-30T09:41:58Z</time>
      </trkpt>
      <trkpt lat="44.73572" lon="6.9972">
        <ele>1820.2</ele>
        <time>2026-08-30T09:42:03Z</time>
      </trkpt>
      <trkpt lat="44.73568" lon="6.99722">
        <ele>1821.3</ele>
        <time>2026-08-30T09:42:09Z</time>
      </trkpt>
      <trkpt lat="44.73564" lon="6.99722">
        <ele>1822.7</ele>
        <time>2026-08-30T09:42:14Z</time>
      </trkpt>
      <trkpt lat="44.7356" lon="6.99721">
        <ele>1824.4</ele>
        <time>2026-08-30T09:42:19Z</time>
      </trkpt>
      <trkpt lat="44.73558" lon="6.99718">
        <ele>1825.6</ele>
        <time>2026-08-30T09:42:25Z</time>
      </trkpt>
      <trkpt lat="44.73555" lon="6.99717">
        <ele>1826.9</ele>
        <time>2026-08-30T09:42:30Z</time>
      </trkpt>
      <trkpt lat="44.73555" lon="6.99719">
        <ele>1826.5</ele>
        <time>2026-08-30T09:42:35Z</time>
      </trkpt>
      <trkpt lat="44.73551" lon="6.9972">
        <ele>1827.8</ele>
        <time>2026-08-30T09:42:41Z</time>
      </trkpt>
      <trkpt lat="44.73549" lon="6.99719">
        <ele>1828.7</ele>
        <time>2026-08-30T09:42:46Z</time>
      </trkpt>
      <trkpt lat="44.73545" lon="6.9972">
        <ele>1830</ele>
        <time>2026-08-30T09:42:51Z</time>
      </trkpt>
      <trkpt lat="44.73541" lon="6.99722">
        <ele>1831.1</ele>
        <time>2026-08-30T09:42:57Z</time>
      </trkpt>
      <trkpt lat="44.73539" lon="6.99722">
        <ele>1831.8</ele>
        <time>2026-08-30T09:43:02Z</time>
      </trkpt>
      <trkpt lat="44.73537" lon="6.99725">
        <ele>1832</ele>
        <time>2026-08-30T09:43:07Z</time>
      </trkpt>
      <trkpt lat="44.73534" lon="6.99728">
        <ele>1832.6</ele>
        <time>2026-08-30T09:43:13Z</time>
      </trkpt>
      <trkpt lat="44.7353" lon="6.9973">
        <ele>1833.7</ele>
        <time>2026-08-30T09:43:18Z</time>
      </trkpt>
      <trkpt lat="44.73526" lon="6.99732">
        <ele>1834.8</ele>
        <time>2026-08-30T09:43:23Z</time>
      </trkpt>
      <trkpt lat="44.73522" lon="6.99737">
        <ele>1835.4</ele>
        <time>2026-08-30T09:43:29Z</time>
      </trkpt>
      <trkpt lat="44.73519" lon="6.9974">
        <ele>1835.9</ele>
        <time>2026-08-30T09:43:34Z</time>
      </trkpt>
      <trkpt lat="44.73516" lon="6.99744">
        <ele>1836.3</ele>
        <time>2026-08-30T09:43:39Z</time>
      </trkpt>
      <trkpt lat="44.73512" lon="6.99748">
        <ele>1837</ele>
        <time>2026-08-30T09:43:45Z</time>
      </trkpt>
      <trkpt lat="44.73509" lon="6.99751">
        <ele>1837.5</ele>
        <time>2026-08-30T09:43:50Z</time>
      </trkpt>
      <trkpt lat="44.73509" lon="6.99751">
        <ele>1837.5</ele>
        <time>2026-08-30T09:43:55Z</time>
      </trkpt>
      <trkpt lat="44.73509" lon="6.99751">
        <ele>1837.5</ele>
        <time>2026-08-30T09:44:01Z</time>
      </trkpt>
      <trkpt lat="44.73509" lon="6.99751">
        <ele>1837.5</ele>
        <time>2026-08-30T09:44:06Z</time>
      </trkpt>
      <trkpt lat="44.73509" lon="6.99751">
        <ele>1837.5</ele>
        <time>2026-08-30T09:44:11Z</time>
      </trkpt>
      <trkpt lat="44.73509" lon="6.99751">
        <ele>1837.5</ele>
        <time>2026-08-30T09:44:17Z</time>
      </trkpt>
      <trkpt lat="44.73509" lon="6.99751">
        <ele>1837.5</ele>
        <time>2026-08-30T09:44:22Z</time>
      </trkpt>
      <trkpt lat="44.73509" lon="6.99751">
        <ele>1837.5</ele>
        <time>2026-08-30T09:44:27Z</time>
      </trkpt>
      <trkpt lat="44.73509" lon="6.99751">
        <ele>1837.5</ele>
        <time>2026-08-30T09:44:33Z</time>
      </trkpt>
      <trkpt lat="44.73509" lon="6.99751">
        <ele>1837.5</ele>
        <time>2026-08-30T09:44:38Z</time>
      </trkpt>
      <trkpt lat="44.73509" lon="6.99751">
        <ele>1837.5</ele>
        <time>2026-08-30T09:44:43Z</time>
      </trkpt>
      <trkpt lat="44.73509" lon="6.99751">
        <ele>1837.5</ele>
        <time>2026-08-30T09:44:49Z</time>
      </trkpt>
      <trkpt lat="44.73509" lon="6.99751">
        <ele>1837.5</ele>
        <time>2026-08-30T09:44:54Z</time>
      </trkpt>
      <trkpt lat="44.73509" lon="6.99751">
        <ele>1837.5</ele>
        <time>2026-08-30T09:44:59Z</time>
      </trkpt>
      <trkpt lat="44.73509" lon="6.99751">
        <ele>1837.5</ele>
        <time>2026-08-30T09:45:05Z</time>
      </trkpt>
      <trkpt lat="44.73509" lon="6.99751">
        <ele>1837.5</ele>
        <time>2026-08-30T09:45:10Z</time>
      </trkpt>
      <trkpt lat="44.73509" lon="6.99751">
        <ele>1837.5</ele>
        <time>2026-08-30T09:45:15Z</time>
      </trkpt>
      <trkpt lat="44.73509" lon="6.99751">
        <ele>1837.5</ele>
        <time>2026-08-30T09:45:21Z</time>
      </trkpt>
      <trkpt lat="44.73509" lon="6.99751">
        <ele>1837.5</ele>
        <time>2026-08-30T09:45:26Z</time>
      </trkpt>
      <trkpt lat="44.73509" lon="6.99751">
        <ele>1837.5</ele>
        <time>2026-08-30T09:45:31Z</time>
      </trkpt>
      <trkpt lat="44.73509" lon="6.99751">
        <ele>1837.5</ele>
        <time>2026-08-30T09:45:37Z</time>
      </trkpt>
      <trkpt lat="44.73509" lon="6.99751">
        <ele>1837.5</ele>
        <time>2026-08-30T09:45:42Z</time>
      </trkpt>
      <trkpt lat="44.73508" lon="6.99758">
        <ele>1836.4</ele>
        <time>2026-08-30T09:45:47Z</time>
      </trkpt>
      <trkpt lat="44.73503" lon="6.99761">
        <ele>1837.5</ele>
        <time>2026-08-30T09:45:53Z</time>
      </trkpt>
      <trkpt lat="44.735" lon="6.99766">
        <ele>1837.4</ele>
        <time>2026-08-30T09:45:58Z</time>
      </trkpt>
      <trkpt lat="44.73498" lon="6.99766">
        <ele>1838.8</ele>
        <time>2026-08-30T09:46:03Z</time>
      </trkpt>
      <trkpt lat="44.73494" lon="6.99768">
        <ele>1841.3</ele>
        <time>2026-08-30T09:46:09Z</time>
      </trkpt>
      <trkpt lat="44.7349" lon="6.99771">
        <ele>1843.5</ele>
        <time>2026-08-30T09:46:14Z</time>
      </trkpt>
      <trkpt lat="44.73485" lon="6.99772">
        <ele>1846.9</ele>
        <time>2026-08-30T09:46:19Z</time>
      </trkpt>
      <trkpt lat="44.7348" lon="6.99774">
        <ele>1850</ele>
        <time>2026-08-30T09:46:25Z</time>
      </trkpt>
      <trkpt lat="44.73475" lon="6.99776">
        <ele>1853</ele>
        <time>2026-08-30T09:46:30Z</time>
      </trkpt>
      <trkpt lat="44.73471" lon="6.99776">
        <ele>1855.8</ele>
        <time>2026-08-30T09:46:35Z</time>
      </trkpt>
      <trkpt lat="44.73464" lon="6.99778">
        <ele>1860.2</ele>
        <time>2026-08-30T09:46:41Z</time>
      </trkpt>
      <trkpt lat="44.7346" lon="6.99778">
        <ele>1863.1</ele>
        <time>2026-08-30T09:46:46Z</time>
      </trkpt>
      <trkpt lat="44.73456" lon="6.99779">
        <ele>1865.6</ele>
        <time>2026-08-30T09:46:51Z</time>
      </trkpt>
      <trkpt lat="44.73453" lon="6.99781">
        <ele>1867</ele>
        <time>2026-08-30T09:46:57Z</time>
      </trkpt>
      <trkpt lat="44.73451" lon="6.99784">
        <ele>1867.4</ele>
        <time>2026-08-30T09:47:02Z</time>
      </trkpt>
      <trkpt lat="44.73447" lon="6.99784">
        <ele>1870.2</ele>
        <time>2026-08-30T09:47:07Z</time>
      </trkpt>
      <trkpt lat="44.73443" lon="6.99783">
        <ele>1873.3</ele>
        <time>2026-08-30T09:47:13Z</time>
      </trkpt>
      <trkpt lat="44.73439" lon="6.99783">
        <ele>1876.1</ele>
        <time>2026-08-30T09:47:18Z</time>
      </trkpt>
      <trkpt lat="44.73434" lon="6.99781">
        <ele>1880.4</ele>
        <time>2026-08-30T09:47:23Z</time>
      </trkpt>
      <trkpt lat="44.73429" lon="6.99778">
        <ele>1885.1</ele>
        <time>2026-08-30T09:47:29Z</time>
      </trkpt>
      <trkpt lat="44.73425" lon="6.99777">
        <ele>1888.4</ele>
        <time>2026-08-30T09:47:34Z</time>
      </trkpt>
      <trkpt lat="44.73422" lon="6.99775">
        <ele>1891.4</ele>
        <time>2026-08-30T09:47:39Z</time>
      </trkpt>
      <trkpt lat="44.73419" lon="6.99775">
        <ele>1893.5</ele>
        <time>2026-08-30T09:47:45Z</time>
      </trkpt>
      <trkpt lat="44.73417" lon="6.99777">
        <ele>1894.1</ele>
        <time>2026-08-30T09:47:50Z</time>
      </trkpt>
      <trkpt lat="44.73417" lon="6.99777">
        <ele>1894.1</ele>
        <time>2026-08-30T09:47:55Z</time>
      </trkpt>
      <trkpt lat="44.73417" lon="6.99777">
        <ele>1894.1</ele>
        <time>2026-08-30T09:48:01Z</time>
      </trkpt>
      <trkpt lat="44.73417" lon="6.99777">
        <ele>1894.1</ele>
        <time>2026-08-30T09:48:06Z</time>
      </trkpt>
      <trkpt lat="44.73417" lon="6.99777">
        <ele>1894.1</ele>
        <time>2026-08-30T09:48:11Z</time>
      </trkpt>
      <trkpt lat="44.73417" lon="6.99777">
        <ele>1894.1</ele>
        <time>2026-08-30T09:48:17Z</time>
      </trkpt>
      <trkpt lat="44.73417" lon="6.99777">
        <ele>1894.1</ele>
        <time>2026-08-30T09:48:22Z</time>
      </trkpt>
      <trkpt lat="44.73417" lon="6.99777">
        <ele>1894.1</ele>
        <time>2026-08-30T09:48:27Z</time>
      </trkpt>
      <trkpt lat="44.73417" lon="6.99777">
        <ele>1894.1</ele>
        <time>2026-08-30T09:48:33Z</time>
      </trkpt>
      <trkpt lat="44.73417" lon="6.99777">
        <ele>1894.1</ele>
        <time>2026-08-30T09:48:38Z</time>
      </trkpt>
      <trkpt lat="44.73417" lon="6.99777">
        <ele>1894.1</ele>
        <time>2026-08-30T09:48:43Z</time>
      </trkpt>
      <trkpt lat="44.73417" lon="6.99777">
        <ele>1894.1</ele>
        <time>2026-08-30T09:48:49Z</time>
      </trkpt>
      <trkpt lat="44.73417" lon="6.99777">
        <ele>1894.1</ele>
        <time>2026-08-30T09:48:54Z</time>
      </trkpt>
      <trkpt lat="44.73407" lon="6.99785">
        <ele>1893.7</ele>
        <time>2026-08-30T09:48:59Z</time>
      </trkpt>
      <trkpt lat="44.73401" lon="6.99787">
        <ele>1894.5</ele>
        <time>2026-08-30T09:49:05Z</time>
      </trkpt>
      <trkpt lat="44.73398" lon="6.99788">
        <ele>1895</ele>
        <time>2026-08-30T09:49:10Z</time>
      </trkpt>
      <trkpt lat="44.73394" lon="6.9979">
        <ele>1895.2</ele>
        <time>2026-08-30T09:49:15Z</time>
      </trkpt>
      <trkpt lat="44.7339" lon="6.99794">
        <ele>1894.7</ele>
        <time>2026-08-30T09:49:21Z</time>
      </trkpt>
      <trkpt lat="44.73387" lon="6.99797">
        <ele>1894.2</ele>
        <time>2026-08-30T09:49:26Z</time>
      </trkpt>
      <trkpt lat="44.73386" lon="6.99797">
        <ele>1894.5</ele>
        <time>2026-08-30T09:49:31Z</time>
      </trkpt>
      <trkpt lat="44.73383" lon="6.99799">
        <ele>1894.5</ele>
        <time>2026-08-30T09:49:37Z</time>
      </trkpt>
      <trkpt lat="44.73381" lon="6.99802">
        <ele>1893.8</ele>
        <time>2026-08-30T09:49:42Z</time>
      </trkpt>
      <trkpt lat="44.73381" lon="6.99806">
        <ele>1892.1</ele>
        <time>2026-08-30T09:49:47Z</time>
      </trkpt>
      <trkpt lat="44.73377" lon="6.99807">
        <ele>1892.8</ele>
        <time>2026-08-30T09:49:53Z</time>
      </trkpt>
      <trkpt lat="44.73376" lon="6.99808">
        <ele>1892.7</ele>
        <time>2026-08-30T09:49:58Z</time>
      </trkpt>
      <trkpt lat="44.73372" lon="6.9981">
        <ele>1892.9</ele>
        <time>2026-08-30T09:50:03Z</time>
      </trkpt>
      <trkpt lat="44.73372" lon="6.9981">
        <ele>1892.9</ele>
        <time>2026-08-30T09:50:09Z</time>
      </trkpt>
      <trkpt lat="44.73372" lon="6.9981">
        <ele>1892.9</ele>
        <time>2026-08-30T09:50:14Z</time>
      </trkpt>
      <trkpt lat="44.73372" lon="6.9981">
        <ele>1892.9</ele>
        <time>2026-08-30T09:50:19Z</time>
      </trkpt>
      <trkpt lat="44.73365" lon="6.99819">
        <ele>1891.1</ele>
        <time>2026-08-30T09:50:25Z</time>
      </trkpt>
      <trkpt lat="44.73365" lon="6.9982">
        <ele>1890.6</ele>
        <time>2026-08-30T09:50:30Z</time>
      </trkpt>
      <trkpt lat="44.73365" lon="6.9982">
        <ele>1890.6</ele>
        <time>2026-08-30T09:50:35Z</time>
      </trkpt>
      <trkpt lat="44.73365" lon="6.9982">
        <ele>1890.6</ele>
        <time>2026-08-30T09:50:41Z</time>
      </trkpt>
      <trkpt lat="44.7336" lon="6.99832">
        <ele>1886.9</ele>
        <time>2026-08-30T09:50:46Z</time>
      </trkpt>
      <trkpt lat="44.73357" lon="6.99837">
        <ele>1886.6</ele>
        <time>2026-08-30T09:50:51Z</time>
      </trkpt>
      <trkpt lat="44.73356" lon="6.99842">
        <ele>1886</ele>
        <time>2026-08-30T09:50:57Z</time>
      </trkpt>
      <trkpt lat="44.73356" lon="6.99843">
        <ele>1885.9</ele>
        <time>2026-08-30T09:51:02Z</time>
      </trkpt>
      <trkpt lat="44.73356" lon="6.99843">
        <ele>1885.9</ele>
        <time>2026-08-30T09:51:07Z</time>
      </trkpt>
      <trkpt lat="44.73356" lon="6.99843">
        <ele>1885.9</ele>
        <time>2026-08-30T09:51:13Z</time>
      </trkpt>
      <trkpt lat="44.73356" lon="6.99843">
        <ele>1885.9</ele>
        <time>2026-08-30T09:51:18Z</time>
      </trkpt>
      <trkpt lat="44.73356" lon="6.99843">
        <ele>1885.9</ele>
        <time>2026-08-30T09:51:23Z</time>
      </trkpt>
      <trkpt lat="44.73356" lon="6.99843">
        <ele>1885.9</ele>
        <time>2026-08-30T09:51:29Z</time>
      </trkpt>
      <trkpt lat="44.73356" lon="6.99843">
        <ele>1885.9</ele>
        <time>2026-08-30T09:51:34Z</time>
      </trkpt>
      <trkpt lat="44.73347" lon="6.99845">
        <ele>1888.3</ele>
        <time>2026-08-30T09:51:39Z</time>
      </trkpt>
      <trkpt lat="44.73347" lon="6.99845">
        <ele>1888.3</ele>
        <time>2026-08-30T09:51:45Z</time>
      </trkpt>
      <trkpt lat="44.73347" lon="6.99845">
        <ele>1888.3</ele>
        <time>2026-08-30T09:51:50Z</time>
      </trkpt>
      <trkpt lat="44.73347" lon="6.99845">
        <ele>1888.3</ele>
        <time>2026-08-30T09:51:55Z</time>
      </trkpt>
      <trkpt lat="44.73339" lon="6.99851">
        <ele>1889.9</ele>
        <time>2026-08-30T09:52:01Z</time>
      </trkpt>
      <trkpt lat="44.73336" lon="6.99854">
        <ele>1890.4</ele>
        <time>2026-08-30T09:52:06Z</time>
      </trkpt>
      <trkpt lat="44.73333" lon="6.99859">
        <ele>1890.7</ele>
        <time>2026-08-30T09:52:11Z</time>
      </trkpt>
      <trkpt lat="44.73332" lon="6.99863">
        <ele>1890.4</ele>
        <time>2026-08-30T09:52:17Z</time>
      </trkpt>
      <trkpt lat="44.73333" lon="6.99865">
        <ele>1889.9</ele>
        <time>2026-08-30T09:52:22Z</time>
      </trkpt>
      <trkpt lat="44.73333" lon="6.99865">
        <ele>1889.9</ele>
        <time>2026-08-30T09:52:27Z</time>
      </trkpt>
      <trkpt lat="44.73333" lon="6.99865">
        <ele>1889.9</ele>
        <time>2026-08-30T09:52:33Z</time>
      </trkpt>
      <trkpt lat="44.73333" lon="6.99865">
        <ele>1889.9</ele>
        <time>2026-08-30T09:52:38Z</time>
      </trkpt>
      <trkpt lat="44.73333" lon="6.99865">
        <ele>1889.9</ele>
        <time>2026-08-30T09:52:43Z</time>
      </trkpt>
      <trkpt lat="44.73333" lon="6.99865">
        <ele>1889.9</ele>
        <time>2026-08-30T09:52:49Z</time>
      </trkpt>
      <trkpt lat="44.7333" lon="6.99877">
        <ele>1889</ele>
        <time>2026-08-30T09:52:54Z</time>
      </trkpt>
      <trkpt lat="44.73329" lon="6.99882">
        <ele>1888.5</ele>
        <time>2026-08-30T09:52:59Z</time>
      </trkpt>
      <trkpt lat="44.73326" lon="6.99884">
        <ele>1888.9</ele>
        <time>2026-08-30T09:53:05Z</time>
      </trkpt>
      <trkpt lat="44.73324" lon="6.99888">
        <ele>1888.9</ele>
        <time>2026-08-30T09:53:10Z</time>
      </trkpt>
      <trkpt lat="44.73321" lon="6.99888">
        <ele>1889.5</ele>
        <time>2026-08-30T09:53:15Z</time>
      </trkpt>
      <trkpt lat="44.73315" lon="6.99889">
        <ele>1890.8</ele>
        <time>2026-08-30T09:53:21Z</time>
      </trkpt>
      <trkpt lat="44.73312" lon="6.99886">
        <ele>1891.8</ele>
        <time>2026-08-30T09:53:26Z</time>
      </trkpt>
      <trkpt lat="44.73311" lon="6.99886">
        <ele>1892</ele>
        <time>2026-08-30T09:53:31Z</time>
      </trkpt>
      <trkpt lat="44.73311" lon="6.99886">
        <ele>1892</ele>
        <time>2026-08-30T09:53:37Z</time>
      </trkpt>
      <trkpt lat="44.73308" lon="6.99899">
        <ele>1891</ele>
        <time>2026-08-30T09:53:42Z</time>
      </trkpt>
      <trkpt lat="44.73309" lon="6.999">
        <ele>1890.7</ele>
        <time>2026-08-30T09:53:47Z</time>
      </trkpt>
      <trkpt lat="44.73309" lon="6.999">
        <ele>1890.7</ele>
        <time>2026-08-30T09:53:53Z</time>
      </trkpt>
      <trkpt lat="44.73305" lon="6.99897">
        <ele>1892</ele>
        <time>2026-08-30T09:53:58Z</time>
      </trkpt>
      <trkpt lat="44.73303" lon="6.99887">
        <ele>1893.7</ele>
        <time>2026-08-30T09:54:03Z</time>
      </trkpt>
      <trkpt lat="44.73299" lon="6.99878">
        <ele>1895.7</ele>
        <time>2026-08-30T09:54:09Z</time>
      </trkpt>
      <trkpt lat="44.73294" lon="6.99873">
        <ele>1897.5</ele>
        <time>2026-08-30T09:54:14Z</time>
      </trkpt>
      <trkpt lat="44.73288" lon="6.99871">
        <ele>1899.1</ele>
        <time>2026-08-30T09:54:19Z</time>
      </trkpt>
      <trkpt lat="44.73283" lon="6.99869">
        <ele>1900.4</ele>
        <time>2026-08-30T09:54:25Z</time>
      </trkpt>
      <trkpt lat="44.73279" lon="6.99869">
        <ele>1901.3</ele>
        <time>2026-08-30T09:54:30Z</time>
      </trkpt>
      <trkpt lat="44.73275" lon="6.99869">
        <ele>1902.2</ele>
        <time>2026-08-30T09:54:35Z</time>
      </trkpt>
      <trkpt lat="44.73275" lon="6.99869">
        <ele>1902.2</ele>
        <time>2026-08-30T09:54:41Z</time>
      </trkpt>
      <trkpt lat="44.73273" lon="6.99864">
        <ele>1903.3</ele>
        <time>2026-08-30T09:54:46Z</time>
      </trkpt>
      <trkpt lat="44.73269" lon="6.99862">
        <ele>1904.4</ele>
        <time>2026-08-30T09:54:51Z</time>
      </trkpt>
      <trkpt lat="44.73266" lon="6.9986">
        <ele>1905.3</ele>
        <time>2026-08-30T09:54:57Z</time>
      </trkpt>
      <trkpt lat="44.73264" lon="6.99858">
        <ele>1906</ele>
        <time>2026-08-30T09:55:02Z</time>
      </trkpt>
      <trkpt lat="44.7326" lon="6.99859">
        <ele>1906.7</ele>
        <time>2026-08-30T09:55:07Z</time>
      </trkpt>
      <trkpt lat="44.73259" lon="6.99859">
        <ele>1906.9</ele>
        <time>2026-08-30T09:55:13Z</time>
      </trkpt>
      <trkpt lat="44.73259" lon="6.99859">
        <ele>1906.9</ele>
        <time>2026-08-30T09:55:18Z</time>
      </trkpt>
      <trkpt lat="44.73259" lon="6.99859">
        <ele>1906.9</ele>
        <time>2026-08-30T09:55:23Z</time>
      </trkpt>
      <trkpt lat="44.73259" lon="6.99859">
        <ele>1906.9</ele>
        <time>2026-08-30T09:55:29Z</time>
      </trkpt>
      <trkpt lat="44.73259" lon="6.99859">
        <ele>1906.9</ele>
        <time>2026-08-30T09:55:34Z</time>
      </trkpt>
      <trkpt lat="44.73259" lon="6.99859">
        <ele>1906.9</ele>
        <time>2026-08-30T09:55:39Z</time>
      </trkpt>
      <trkpt lat="44.73259" lon="6.99859">
        <ele>1906.9</ele>
        <time>2026-08-30T09:55:45Z</time>
      </trkpt>
      <trkpt lat="44.73259" lon="6.99859">
        <ele>1906.9</ele>
        <time>2026-08-30T09:55:50Z</time>
      </trkpt>
      <trkpt lat="44.73259" lon="6.99859">
        <ele>1906.9</ele>
        <time>2026-08-30T09:55:55Z</time>
      </trkpt>
      <trkpt lat="44.73259" lon="6.99859">
        <ele>1906.9</ele>
        <time>2026-08-30T09:56:01Z</time>
      </trkpt>
      <trkpt lat="44.73251" lon="6.99868">
        <ele>1907.6</ele>
        <time>2026-08-30T09:56:06Z</time>
      </trkpt>
      <trkpt lat="44.73252" lon="6.99871">
        <ele>1907</ele>
        <time>2026-08-30T09:56:11Z</time>
      </trkpt>
      <trkpt lat="44.7325" lon="6.99873">
        <ele>1907.2</ele>
        <time>2026-08-30T09:56:17Z</time>
      </trkpt>
      <trkpt lat="44.7325" lon="6.99873">
        <ele>1907.2</ele>
        <time>2026-08-30T09:56:22Z</time>
      </trkpt>
      <trkpt lat="44.7325" lon="6.99873">
        <ele>1907.2</ele>
        <time>2026-08-30T09:56:27Z</time>
      </trkpt>
      <trkpt lat="44.73248" lon="6.99886">
        <ele>1906</ele>
        <time>2026-08-30T09:56:33Z</time>
      </trkpt>
      <trkpt lat="44.73248" lon="6.99887">
        <ele>1905.8</ele>
        <time>2026-08-30T09:56:38Z</time>
      </trkpt>
      <trkpt lat="44.73248" lon="6.99887">
        <ele>1905.8</ele>
        <time>2026-08-30T09:56:43Z</time>
      </trkpt>
      <trkpt lat="44.73248" lon="6.99887">
        <ele>1905.8</ele>
        <time>2026-08-30T09:56:49Z</time>
      </trkpt>
      <trkpt lat="44.73248" lon="6.99887">
        <ele>1905.8</ele>
        <time>2026-08-30T09:56:54Z</time>
      </trkpt>
      <trkpt lat="44.73248" lon="6.99887">
        <ele>1905.8</ele>
        <time>2026-08-30T09:56:59Z</time>
      </trkpt>
      <trkpt lat="44.73248" lon="6.99887">
        <ele>1905.8</ele>
        <time>2026-08-30T09:57:05Z</time>
      </trkpt>
      <trkpt lat="44.73257" lon="6.99894">
        <ele>1903.1</ele>
        <time>2026-08-30T09:57:10Z</time>
      </trkpt>
      <trkpt lat="44.73257" lon="6.99894">
        <ele>1903.1</ele>
        <time>2026-08-30T09:57:15Z</time>
      </trkpt>
      <trkpt lat="44.73257" lon="6.99894">
        <ele>1903.1</ele>
        <time>2026-08-30T09:57:21Z</time>
      </trkpt>
      <trkpt lat="44.73257" lon="6.99894">
        <ele>1903.1</ele>
        <time>2026-08-30T09:57:26Z</time>
      </trkpt>
      <trkpt lat="44.73257" lon="6.99894">
        <ele>1903.1</ele>
        <time>2026-08-30T09:57:31Z</time>
      </trkpt>
      <trkpt lat="44.73257" lon="6.99894">
        <ele>1903.1</ele>
        <time>2026-08-30T09:57:37Z</time>
      </trkpt>
      <trkpt lat="44.73257" lon="6.99894">
        <ele>1903.1</ele>
        <time>2026-08-30T09:57:42Z</time>
      </trkpt>
      <trkpt lat="44.73257" lon="6.99894">
        <ele>1903.1</ele>
        <time>2026-08-30T09:57:47Z</time>
      </trkpt>
      <trkpt lat="44.73256" lon="6.99902">
        <ele>1902.4</ele>
        <time>2026-08-30T09:57:53Z</time>
      </trkpt>
      <trkpt lat="44.73255" lon="6.99903">
        <ele>1902.5</ele>
        <time>2026-08-30T09:57:58Z</time>
      </trkpt>
      <trkpt lat="44.73255" lon="6.99903">
        <ele>1902.5</ele>
        <time>2026-08-30T09:58:03Z</time>
      </trkpt>
      <trkpt lat="44.73255" lon="6.99903">
        <ele>1902.5</ele>
        <time>2026-08-30T09:58:09Z</time>
      </trkpt>
      <trkpt lat="44.73255" lon="6.99903">
        <ele>1902.5</ele>
        <time>2026-08-30T09:58:14Z</time>
      </trkpt>
      <trkpt lat="44.73255" lon="6.99903">
        <ele>1902.5</ele>
        <time>2026-08-30T09:58:19Z</time>
      </trkpt>
      <trkpt lat="44.73255" lon="6.99903">
        <ele>1902.5</ele>
        <time>2026-08-30T09:58:25Z</time>
      </trkpt>
      <trkpt lat="44.73245" lon="6.99901">
        <ele>1904.5</ele>
        <time>2026-08-30T09:58:30Z</time>
      </trkpt>
      <trkpt lat="44.73245" lon="6.99901">
        <ele>1904.5</ele>
        <time>2026-08-30T09:58:35Z</time>
      </trkpt>
      <trkpt lat="44.73245" lon="6.99901">
        <ele>1904.5</ele>
        <time>2026-08-30T09:58:41Z</time>
      </trkpt>
      <trkpt lat="44.73245" lon="6.99901">
        <ele>1904.5</ele>
        <time>2026-08-30T09:58:46Z</time>
      </trkpt>
      <trkpt lat="44.73245" lon="6.99901">
        <ele>1904.5</ele>
        <time>2026-08-30T09:58:51Z</time>
      </trkpt>
      <trkpt lat="44.73245" lon="6.99901">
        <ele>1904.5</ele>
        <time>2026-08-30T09:58:57Z</time>
      </trkpt>
      <trkpt lat="44.73245" lon="6.99901">
        <ele>1904.5</ele>
        <time>2026-08-30T09:59:02Z</time>
      </trkpt>
      <trkpt lat="44.73245" lon="6.99901">
        <ele>1904.5</ele>
        <time>2026-08-30T09:59:07Z</time>
      </trkpt>
      <trkpt lat="44.73245" lon="6.99901">
        <ele>1904.5</ele>
        <time>2026-08-30T09:59:13Z</time>
      </trkpt>
      <trkpt lat="44.73236" lon="6.99898">
        <ele>1906.1</ele>
        <time>2026-08-30T09:59:18Z</time>
      </trkpt>
      <trkpt lat="44.73236" lon="6.99897">
        <ele>1906.2</ele>
        <time>2026-08-30T09:59:23Z</time>
      </trkpt>
      <trkpt lat="44.73236" lon="6.99897">
        <ele>1906.2</ele>
        <time>2026-08-30T09:59:29Z</time>
      </trkpt>
      <trkpt lat="44.73236" lon="6.99897">
        <ele>1906.2</ele>
        <time>2026-08-30T09:59:34Z</time>
      </trkpt>
      <trkpt lat="44.73236" lon="6.99897">
        <ele>1906.2</ele>
        <time>2026-08-30T09:59:39Z</time>
      </trkpt>
      <trkpt lat="44.7323" lon="6.99907">
        <ele>1905.7</ele>
        <time>2026-08-30T09:59:45Z</time>
      </trkpt>
      <trkpt lat="44.7323" lon="6.99907">
        <ele>1905.7</ele>
        <time>2026-08-30T09:59:50Z</time>
      </trkpt>
      <trkpt lat="44.7323" lon="6.99907">
        <ele>1905.7</ele>
        <time>2026-08-30T09:59:55Z</time>
      </trkpt>
      <trkpt lat="44.7323" lon="6.99907">
        <ele>1905.7</ele>
        <time>2026-08-30T10:00:01Z</time>
      </trkpt>
      <trkpt lat="44.7323" lon="6.99907">
        <ele>1905.7</ele>
        <time>2026-08-30T10:00:06Z</time>
      </trkpt>
      <trkpt lat="44.73222" lon="6.99909">
        <ele>1906.4</ele>
        <time>2026-08-30T10:00:11Z</time>
      </trkpt>
      <trkpt lat="44.73222" lon="6.99906">
        <ele>1906.8</ele>
        <time>2026-08-30T10:00:17Z</time>
      </trkpt>
      <trkpt lat="44.73222" lon="6.99906">
        <ele>1906.8</ele>
        <time>2026-08-30T10:00:22Z</time>
      </trkpt>
      <trkpt lat="44.73222" lon="6.99906">
        <ele>1906.8</ele>
        <time>2026-08-30T10:00:27Z</time>
      </trkpt>
      <trkpt lat="44.73222" lon="6.99906">
        <ele>1906.8</ele>
        <time>2026-08-30T10:00:33Z</time>
      </trkpt>
      <trkpt lat="44.73212" lon="6.99897">
        <ele>1909.4</ele>
        <time>2026-08-30T10:00:38Z</time>
      </trkpt>
      <trkpt lat="44.7321" lon="6.99897">
        <ele>1909.6</ele>
        <time>2026-08-30T10:00:43Z</time>
      </trkpt>
      <trkpt lat="44.7321" lon="6.99898">
        <ele>1909.5</ele>
        <time>2026-08-30T10:00:49Z</time>
      </trkpt>
      <trkpt lat="44.7321" lon="6.99898">
        <ele>1909.5</ele>
        <time>2026-08-30T10:00:54Z</time>
      </trkpt>
      <trkpt lat="44.732" lon="6.99895">
        <ele>1911.2</ele>
        <time>2026-08-30T10:00:59Z</time>
      </trkpt>
      <trkpt lat="44.73197" lon="6.99893">
        <ele>1911.9</ele>
        <time>2026-08-30T10:01:05Z</time>
      </trkpt>
      <trkpt lat="44.73193" lon="6.99893">
        <ele>1912.5</ele>
        <time>2026-08-30T10:01:10Z</time>
      </trkpt>
      <trkpt lat="44.7319" lon="6.99895">
        <ele>1912.5</ele>
        <time>2026-08-30T10:01:15Z</time>
      </trkpt>
      <trkpt lat="44.73187" lon="6.99896">
        <ele>1912.8</ele>
        <time>2026-08-30T10:01:21Z</time>
      </trkpt>
      <trkpt lat="44.73185" lon="6.99898">
        <ele>1912.7</ele>
        <time>2026-08-30T10:01:26Z</time>
      </trkpt>
      <trkpt lat="44.73183" lon="6.99902">
        <ele>1912.4</ele>
        <time>2026-08-30T10:01:31Z</time>
      </trkpt>
      <trkpt lat="44.73183" lon="6.99902">
        <ele>1912.4</ele>
        <time>2026-08-30T10:01:37Z</time>
      </trkpt>
      <trkpt lat="44.73179" lon="6.99908">
        <ele>1911.9</ele>
        <time>2026-08-30T10:01:42Z</time>
      </trkpt>
      <trkpt lat="44.73178" lon="6.9991">
        <ele>1911.7</ele>
        <time>2026-08-30T10:01:47Z</time>
      </trkpt>
      <trkpt lat="44.73179" lon="6.99915">
        <ele>1910.8</ele>
        <time>2026-08-30T10:01:53Z</time>
      </trkpt>
      <trkpt lat="44.73178" lon="6.99919">
        <ele>1910.2</ele>
        <time>2026-08-30T10:01:58Z</time>
      </trkpt>
      <trkpt lat="44.73177" lon="6.99922">
        <ele>1909.8</ele>
        <time>2026-08-30T10:02:03Z</time>
      </trkpt>
      <trkpt lat="44.73174" lon="6.99927">
        <ele>1909.3</ele>
        <time>2026-08-30T10:02:09Z</time>
      </trkpt>
      <trkpt lat="44.73172" lon="6.99927">
        <ele>1909.5</ele>
        <time>2026-08-30T10:02:14Z</time>
      </trkpt>
      <trkpt lat="44.73172" lon="6.99927">
        <ele>1909.5</ele>
        <time>2026-08-30T10:02:19Z</time>
      </trkpt>
      <trkpt lat="44.73172" lon="6.99927">
        <ele>1909.5</ele>
        <time>2026-08-30T10:02:25Z</time>
      </trkpt>
      <trkpt lat="44.73172" lon="6.99927">
        <ele>1909.5</ele>
        <time>2026-08-30T10:02:30Z</time>
      </trkpt>
      <trkpt lat="44.73172" lon="6.99927">
        <ele>1909.5</ele>
        <time>2026-08-30T10:02:35Z</time>
      </trkpt>
      <trkpt lat="44.73172" lon="6.99927">
        <ele>1909.5</ele>
        <time>2026-08-30T10:02:41Z</time>
      </trkpt>
      <trkpt lat="44.7317" lon="6.99937">
        <ele>1907.9</ele>
        <time>2026-08-30T10:02:46Z</time>
      </trkpt>
      <trkpt lat="44.73166" lon="6.99941">
        <ele>1907.7</ele>
        <time>2026-08-30T10:02:51Z</time>
      </trkpt>
      <trkpt lat="44.73162" lon="6.99947">
        <ele>1907.4</ele>
        <time>2026-08-30T10:02:57Z</time>
      </trkpt>
      <trkpt lat="44.73157" lon="6.99951">
        <ele>1907.6</ele>
        <time>2026-08-30T10:03:02Z</time>
      </trkpt>
      <trkpt lat="44.73153" lon="6.99956">
        <ele>1907.4</ele>
        <time>2026-08-30T10:03:07Z</time>
      </trkpt>
      <trkpt lat="44.73145" lon="6.99961">
        <ele>1907.9</ele>
        <time>2026-08-30T10:03:13Z</time>
      </trkpt>
      <trkpt lat="44.7314" lon="6.99965">
        <ele>1908.1</ele>
        <time>2026-08-30T10:03:18Z</time>
      </trkpt>
      <trkpt lat="44.73133" lon="6.99968">
        <ele>1908.8</ele>
        <time>2026-08-30T10:03:23Z</time>
      </trkpt>
      <trkpt lat="44.73126" lon="6.99971">
        <ele>1909.5</ele>
        <time>2026-08-30T10:03:29Z</time>
      </trkpt>
      <trkpt lat="44.73121" lon="6.99971">
        <ele>1910.4</ele>
        <time>2026-08-30T10:03:34Z</time>
      </trkpt>
      <trkpt lat="44.73115" lon="6.9997">
        <ele>1911.7</ele>
        <time>2026-08-30T10:03:39Z</time>
      </trkpt>
      <trkpt lat="44.73111" lon="6.99977">
        <ele>1911.2</ele>
        <time>2026-08-30T10:03:45Z</time>
      </trkpt>
      <trkpt lat="44.73104" lon="6.99981">
        <ele>1911.7</ele>
        <time>2026-08-30T10:03:50Z</time>
      </trkpt>
      <trkpt lat="44.73099" lon="6.99985">
        <ele>1911.9</ele>
        <time>2026-08-30T10:03:55Z</time>
      </trkpt>
      <trkpt lat="44.73091" lon="6.99987">
        <ele>1913</ele>
        <time>2026-08-30T10:04:01Z</time>
      </trkpt>
      <trkpt lat="44.73085" lon="6.99991">
        <ele>1913.3</ele>
        <time>2026-08-30T10:04:06Z</time>
      </trkpt>
      <trkpt lat="44.7308" lon="6.99995">
        <ele>1913.9</ele>
        <time>2026-08-30T10:04:11Z</time>
      </trkpt>
      <trkpt lat="44.73074" lon="7.00003">
        <ele>1914.6</ele>
        <time>2026-08-30T10:04:17Z</time>
      </trkpt>
      <trkpt lat="44.73072" lon="7.00007">
        <ele>1914.7</ele>
        <time>2026-08-30T10:04:22Z</time>
      </trkpt>
      <trkpt lat="44.7307" lon="7.00009">
        <ele>1915.1</ele>
        <time>2026-08-30T10:04:27Z</time>
      </trkpt>
      <trkpt lat="44.73062" lon="7.00015">
        <ele>1916.9</ele>
        <time>2026-08-30T10:04:33Z</time>
      </trkpt>
      <trkpt lat="44.73058" lon="7.00019">
        <ele>1917.6</ele>
        <time>2026-08-30T10:04:38Z</time>
      </trkpt>
      <trkpt lat="44.73055" lon="7.00022">
        <ele>1918.2</ele>
        <time>2026-08-30T10:04:43Z</time>
      </trkpt>
      <trkpt lat="44.7305" lon="7.00029">
        <ele>1918.9</ele>
        <time>2026-08-30T10:04:49Z</time>
      </trkpt>
      <trkpt lat="44.73047" lon="7.00034">
        <ele>1919.1</ele>
        <time>2026-08-30T10:04:54Z</time>
      </trkpt>
      <trkpt lat="44.73045" lon="7.00042">
        <ele>1918.7</ele>
        <time>2026-08-30T10:04:59Z</time>
      </trkpt>
      <trkpt lat="44.73045" lon="7.00051">
        <ele>1917.6</ele>
        <time>2026-08-30T10:05:05Z</time>
      </trkpt>
      <trkpt lat="44.73045" lon="7.00058">
        <ele>1916.7</ele>
        <time>2026-08-30T10:05:10Z</time>
      </trkpt>
      <trkpt lat="44.73043" lon="7.00063">
        <ele>1916.7</ele>
        <time>2026-08-30T10:05:15Z</time>
      </trkpt>
      <trkpt lat="44.73042" lon="7.00072">
        <ele>1915.8</ele>
        <time>2026-08-30T10:05:21Z</time>
      </trkpt>
      <trkpt lat="44.7304" lon="7.00079">
        <ele>1915.5</ele>
        <time>2026-08-30T10:05:26Z</time>
      </trkpt>
      <trkpt lat="44.73037" lon="7.00086">
        <ele>1915.6</ele>
        <time>2026-08-30T10:05:31Z</time>
      </trkpt>
      <trkpt lat="44.73032" lon="7.00092">
        <ele>1916.5</ele>
        <time>2026-08-30T10:05:37Z</time>
      </trkpt>
      <trkpt lat="44.73028" lon="7.00098">
        <ele>1917</ele>
        <time>2026-08-30T10:05:42Z</time>
      </trkpt>
      <trkpt lat="44.73023" lon="7.00102">
        <ele>1917.8</ele>
        <time>2026-08-30T10:05:47Z</time>
      </trkpt>
      <trkpt lat="44.73018" lon="7.00103">
        <ele>1918.7</ele>
        <time>2026-08-30T10:05:53Z</time>
      </trkpt>
      <trkpt lat="44.73016" lon="7.00104">
        <ele>1919.1</ele>
        <time>2026-08-30T10:05:58Z</time>
      </trkpt>
      <trkpt lat="44.73015" lon="7.00106">
        <ele>1919</ele>
        <time>2026-08-30T10:06:03Z</time>
      </trkpt>
      <trkpt lat="44.73015" lon="7.00106">
        <ele>1919</ele>
        <time>2026-08-30T10:06:09Z</time>
      </trkpt>
      <trkpt lat="44.73015" lon="7.00106">
        <ele>1919</ele>
        <time>2026-08-30T10:06:14Z</time>
      </trkpt>
      <trkpt lat="44.73015" lon="7.00106">
        <ele>1919</ele>
        <time>2026-08-30T10:06:19Z</time>
      </trkpt>
      <trkpt lat="44.73013" lon="7.00105">
        <ele>1919.6</ele>
        <time>2026-08-30T10:06:25Z</time>
      </trkpt>
      <trkpt lat="44.73007" lon="7.00105">
        <ele>1920.9</ele>
        <time>2026-08-30T10:06:30Z</time>
      </trkpt>
      <trkpt lat="44.73001" lon="7.00108">
        <ele>1921.7</ele>
        <time>2026-08-30T10:06:35Z</time>
      </trkpt>
      <trkpt lat="44.72994" lon="7.00111">
        <ele>1923</ele>
        <time>2026-08-30T10:06:41Z</time>
      </trkpt>
      <trkpt lat="44.72991" lon="7.00113">
        <ele>1923.4</ele>
        <time>2026-08-30T10:06:46Z</time>
      </trkpt>
      <trkpt lat="44.72988" lon="7.00113">
        <ele>1924.2</ele>
        <time>2026-08-30T10:06:51Z</time>
      </trkpt>
      <trkpt lat="44.72982" lon="7.00117">
        <ele>1925.1</ele>
        <time>2026-08-30T10:06:57Z</time>
      </trkpt>
      <trkpt lat="44.7298" lon="7.00119">
        <ele>1925.3</ele>
        <time>2026-08-30T10:07:02Z</time>
      </trkpt>
      <trkpt lat="44.72977" lon="7.00123">
        <ele>1925.3</ele>
        <time>2026-08-30T10:07:07Z</time>
      </trkpt>
      <trkpt lat="44.72973" lon="7.00129">
        <ele>1925.2</ele>
        <time>2026-08-30T10:07:13Z</time>
      </trkpt>
      <trkpt lat="44.72969" lon="7.00132">
        <ele>1925.7</ele>
        <time>2026-08-30T10:07:18Z</time>
      </trkpt>
      <trkpt lat="44.72966" lon="7.00138">
        <ele>1925.3</ele>
        <time>2026-08-30T10:07:23Z</time>
      </trkpt>
      <trkpt lat="44.72963" lon="7.00141">
        <ele>1925.4</ele>
        <time>2026-08-30T10:07:29Z</time>
      </trkpt>
      <trkpt lat="44.72959" lon="7.00142">
        <ele>1926.2</ele>
        <time>2026-08-30T10:07:34Z</time>
      </trkpt>
      <trkpt lat="44.72955" lon="7.00145">
        <ele>1926.6</ele>
        <time>2026-08-30T10:07:39Z</time>
      </trkpt>
      <trkpt lat="44.72951" lon="7.00147">
        <ele>1927.2</ele>
        <time>2026-08-30T10:07:45Z</time>
      </trkpt>
      <trkpt lat="44.72948" lon="7.0015">
        <ele>1927.3</ele>
        <time>2026-08-30T10:07:50Z</time>
      </trkpt>
      <trkpt lat="44.72945" lon="7.00153">
        <ele>1927.4</ele>
        <time>2026-08-30T10:07:55Z</time>
      </trkpt>
      <trkpt lat="44.72944" lon="7.00155">
        <ele>1927.2</ele>
        <time>2026-08-30T10:08:01Z</time>
      </trkpt>
      <trkpt lat="44.72944" lon="7.00155">
        <ele>1927.2</ele>
        <time>2026-08-30T10:08:06Z</time>
      </trkpt>
      <trkpt lat="44.72951" lon="7.0016">
        <ele>1924.5</ele>
        <time>2026-08-30T10:08:11Z</time>
      </trkpt>
      <trkpt lat="44.72954" lon="7.00157">
        <ele>1924.4</ele>
        <time>2026-08-30T10:08:17Z</time>
      </trkpt>
      <trkpt lat="44.72957" lon="7.00153">
        <ele>1924.5</ele>
        <time>2026-08-30T10:08:22Z</time>
      </trkpt>
      <trkpt lat="44.72961" lon="7.00151">
        <ele>1924</ele>
        <time>2026-08-30T10:08:27Z</time>
      </trkpt>
      <trkpt lat="44.72963" lon="7.0015">
        <ele>1923.7</ele>
        <time>2026-08-30T10:08:33Z</time>
      </trkpt>
      <trkpt lat="44.72963" lon="7.0015">
        <ele>1923.7</ele>
        <time>2026-08-30T10:08:38Z</time>
      </trkpt>
      <trkpt lat="44.72963" lon="7.0015">
        <ele>1923.7</ele>
        <time>2026-08-30T10:08:43Z</time>
      </trkpt>
      <trkpt lat="44.72963" lon="7.0015">
        <ele>1923.7</ele>
        <time>2026-08-30T10:08:49Z</time>
      </trkpt>
      <trkpt lat="44.72963" lon="7.0015">
        <ele>1923.7</ele>
        <time>2026-08-30T10:08:54Z</time>
      </trkpt>
      <trkpt lat="44.72963" lon="7.0015">
        <ele>1923.7</ele>
        <time>2026-08-30T10:08:59Z</time>
      </trkpt>
      <trkpt lat="44.72963" lon="7.0015">
        <ele>1923.7</ele>
        <time>2026-08-30T10:09:05Z</time>
      </trkpt>
      <trkpt lat="44.72963" lon="7.0015">
        <ele>1923.7</ele>
        <time>2026-08-30T10:09:10Z</time>
      </trkpt>
      <trkpt lat="44.72963" lon="7.0015">
        <ele>1923.7</ele>
        <time>2026-08-30T10:09:15Z</time>
      </trkpt>
      <trkpt lat="44.72963" lon="7.0015">
        <ele>1923.7</ele>
        <time>2026-08-30T10:09:21Z</time>
      </trkpt>
      <trkpt lat="44.72963" lon="7.0015">
        <ele>1923.7</ele>
        <time>2026-08-30T10:09:26Z</time>
      </trkpt>
      <trkpt lat="44.72963" lon="7.0015">
        <ele>1923.7</ele>
        <time>2026-08-30T10:09:31Z</time>
      </trkpt>
      <trkpt lat="44.72963" lon="7.0015">
        <ele>1923.7</ele>
        <time>2026-08-30T10:09:37Z</time>
      </trkpt>
      <trkpt lat="44.72963" lon="7.0015">
        <ele>1923.7</ele>
        <time>2026-08-30T10:09:42Z</time>
      </trkpt>
      <trkpt lat="44.72963" lon="7.0015">
        <ele>1923.7</ele>
        <time>2026-08-30T10:09:47Z</time>
      </trkpt>
      <trkpt lat="44.72963" lon="7.0015">
        <ele>1923.7</ele>
        <time>2026-08-30T10:09:53Z</time>
      </trkpt>
      <trkpt lat="44.72966" lon="7.00151">
        <ele>1922.8</ele>
        <time>2026-08-30T10:09:58Z</time>
      </trkpt>
      <trkpt lat="44.72969" lon="7.00144">
        <ele>1923.4</ele>
        <time>2026-08-30T10:10:03Z</time>
      </trkpt>
      <trkpt lat="44.72973" lon="7.00135">
        <ele>1924.1</ele>
        <time>2026-08-30T10:10:09Z</time>
      </trkpt>
      <trkpt lat="44.72977" lon="7.00131">
        <ele>1923.8</ele>
        <time>2026-08-30T10:10:14Z</time>
      </trkpt>
      <trkpt lat="44.7298" lon="7.00127">
        <ele>1923.8</ele>
        <time>2026-08-30T10:10:19Z</time>
      </trkpt>
      <trkpt lat="44.72982" lon="7.00123">
        <ele>1924</ele>
        <time>2026-08-30T10:10:25Z</time>
      </trkpt>
      <trkpt lat="44.72986" lon="7.00121">
        <ele>1923.3</ele>
        <time>2026-08-30T10:10:30Z</time>
      </trkpt>
      <trkpt lat="44.72988" lon="7.00118">
        <ele>1923.3</ele>
        <time>2026-08-30T10:10:35Z</time>
      </trkpt>
      <trkpt lat="44.72991" lon="7.00113">
        <ele>1923.4</ele>
        <time>2026-08-30T10:10:41Z</time>
      </trkpt>
      <trkpt lat="44.72992" lon="7.00111">
        <ele>1923.5</ele>
        <time>2026-08-30T10:10:46Z</time>
      </trkpt>
      <trkpt lat="44.72996" lon="7.0011">
        <ele>1922.6</ele>
        <time>2026-08-30T10:10:51Z</time>
      </trkpt>
      <trkpt lat="44.73003" lon="7.00107">
        <ele>1921.4</ele>
        <time>2026-08-30T10:10:57Z</time>
      </trkpt>
      <trkpt lat="44.73007" lon="7.00106">
        <ele>1920.7</ele>
        <time>2026-08-30T10:11:02Z</time>
      </trkpt>
      <trkpt lat="44.73011" lon="7.00106">
        <ele>1919.9</ele>
        <time>2026-08-30T10:11:07Z</time>
      </trkpt>
      <trkpt lat="44.73018" lon="7.00106">
        <ele>1918.4</ele>
        <time>2026-08-30T10:11:13Z</time>
      </trkpt>
      <trkpt lat="44.73023" lon="7.00104">
        <ele>1917.5</ele>
        <time>2026-08-30T10:11:18Z</time>
      </trkpt>
      <trkpt lat="44.73029" lon="7.00101">
        <ele>1916.5</ele>
        <time>2026-08-30T10:11:23Z</time>
      </trkpt>
      <trkpt lat="44.73035" lon="7.00094">
        <ele>1915.6</ele>
        <time>2026-08-30T10:11:29Z</time>
      </trkpt>
      <trkpt lat="44.7304" lon="7.00087">
        <ele>1914.8</ele>
        <time>2026-08-30T10:11:34Z</time>
      </trkpt>
      <trkpt lat="44.73043" lon="7.0008">
        <ele>1914.6</ele>
        <time>2026-08-30T10:11:39Z</time>
      </trkpt>
      <trkpt lat="44.73043" lon="7.00072">
        <ele>1915.6</ele>
        <time>2026-08-30T10:11:45Z</time>
      </trkpt>
      <trkpt lat="44.73043" lon="7.00063">
        <ele>1916.7</ele>
        <time>2026-08-30T10:11:50Z</time>
      </trkpt>
      <trkpt lat="44.73045" lon="7.00055">
        <ele>1917.1</ele>
        <time>2026-08-30T10:11:55Z</time>
      </trkpt>
      <trkpt lat="44.73046" lon="7.00045">
        <ele>1918.1</ele>
        <time>2026-08-30T10:12:01Z</time>
      </trkpt>
      <trkpt lat="44.73048" lon="7.00037">
        <ele>1918.5</ele>
        <time>2026-08-30T10:12:06Z</time>
      </trkpt>
      <trkpt lat="44.7305" lon="7.00032">
        <ele>1918.5</ele>
        <time>2026-08-30T10:12:11Z</time>
      </trkpt>
      <trkpt lat="44.73055" lon="7.00025">
        <ele>1917.8</ele>
        <time>2026-08-30T10:12:17Z</time>
      </trkpt>
      <trkpt lat="44.73059" lon="7.00019">
        <ele>1917.3</ele>
        <time>2026-08-30T10:12:22Z</time>
      </trkpt>
      <trkpt lat="44.73064" lon="7.00014">
        <ele>1916.4</ele>
        <time>2026-08-30T10:12:27Z</time>
      </trkpt>
      <trkpt lat="44.7307" lon="7.00008">
        <ele>1915.2</ele>
        <time>2026-08-30T10:12:33Z</time>
      </trkpt>
      <trkpt lat="44.73076" lon="7.00004">
        <ele>1913.8</ele>
        <time>2026-08-30T10:12:38Z</time>
      </trkpt>
      <trkpt lat="44.73082" lon="6.99998">
        <ele>1912.8</ele>
        <time>2026-08-30T10:12:43Z</time>
      </trkpt>
      <trkpt lat="44.73086" lon="6.99992">
        <ele>1913</ele>
        <time>2026-08-30T10:12:49Z</time>
      </trkpt>
      <trkpt lat="44.73087" lon="6.9999">
        <ele>1913.1</ele>
        <time>2026-08-30T10:12:54Z</time>
      </trkpt>
      <trkpt lat="44.73093" lon="6.99987">
        <ele>1912.6</ele>
        <time>2026-08-30T10:12:59Z</time>
      </trkpt>
      <trkpt lat="44.73101" lon="6.99985">
        <ele>1911.5</ele>
        <time>2026-08-30T10:13:05Z</time>
      </trkpt>
      <trkpt lat="44.73108" lon="6.99982">
        <ele>1910.8</ele>
        <time>2026-08-30T10:13:10Z</time>
      </trkpt>
      <trkpt lat="44.73113" lon="6.99977">
        <ele>1910.8</ele>
        <time>2026-08-30T10:13:15Z</time>
      </trkpt>
      <trkpt lat="44.73117" lon="6.99971">
        <ele>1911.2</ele>
        <time>2026-08-30T10:13:21Z</time>
      </trkpt>
      <trkpt lat="44.73122" lon="6.9997">
        <ele>1910.4</ele>
        <time>2026-08-30T10:13:26Z</time>
      </trkpt>
      <trkpt lat="44.73128" lon="6.99972">
        <ele>1909</ele>
        <time>2026-08-30T10:13:31Z</time>
      </trkpt>
      <trkpt lat="44.73136" lon="6.9997">
        <ele>1907.9</ele>
        <time>2026-08-30T10:13:37Z</time>
      </trkpt>
      <trkpt lat="44.73141" lon="6.99967">
        <ele>1907.6</ele>
        <time>2026-08-30T10:13:42Z</time>
      </trkpt>
      <trkpt lat="44.73147" lon="6.99963">
        <ele>1907.2</ele>
        <time>2026-08-30T10:13:47Z</time>
      </trkpt>
      <trkpt lat="44.73153" lon="6.99955">
        <ele>1907.6</ele>
        <time>2026-08-30T10:13:53Z</time>
      </trkpt>
      <trkpt lat="44.73157" lon="6.9995">
        <ele>1907.7</ele>
        <time>2026-08-30T10:13:58Z</time>
      </trkpt>
      <trkpt lat="44.73162" lon="6.99946">
        <ele>1907.6</ele>
        <time>2026-08-30T10:14:03Z</time>
      </trkpt>
      <trkpt lat="44.73167" lon="6.99939">
        <ele>1907.9</ele>
        <time>2026-08-30T10:14:09Z</time>
      </trkpt>
      <trkpt lat="44.7317" lon="6.99933">
        <ele>1908.7</ele>
        <time>2026-08-30T10:14:14Z</time>
      </trkpt>
      <trkpt lat="44.73175" lon="6.99929">
        <ele>1908.8</ele>
        <time>2026-08-30T10:14:19Z</time>
      </trkpt>
      <trkpt lat="44.73177" lon="6.99933">
        <ele>1907.8</ele>
        <time>2026-08-30T10:14:25Z</time>
      </trkpt>
      <trkpt lat="44.73177" lon="6.99934">
        <ele>1907.7</ele>
        <time>2026-08-30T10:14:30Z</time>
      </trkpt>
      <trkpt lat="44.73177" lon="6.99934">
        <ele>1907.7</ele>
        <time>2026-08-30T10:14:35Z</time>
      </trkpt>
      <trkpt lat="44.73177" lon="6.99934">
        <ele>1907.7</ele>
        <time>2026-08-30T10:14:41Z</time>
      </trkpt>
      <trkpt lat="44.73185" lon="6.99935">
        <ele>1906.5</ele>
        <time>2026-08-30T10:14:46Z</time>
      </trkpt>
      <trkpt lat="44.73192" lon="6.99935">
        <ele>1905.7</ele>
        <time>2026-08-30T10:14:51Z</time>
      </trkpt>
      <trkpt lat="44.73198" lon="6.99934">
        <ele>1905.2</ele>
        <time>2026-08-30T10:14:57Z</time>
      </trkpt>
      <trkpt lat="44.73198" lon="6.99937">
        <ele>1904.7</ele>
        <time>2026-08-30T10:15:02Z</time>
      </trkpt>
      <trkpt lat="44.73197" lon="6.99937">
        <ele>1904.8</ele>
        <time>2026-08-30T10:15:07Z</time>
      </trkpt>
      <trkpt lat="44.73197" lon="6.99937">
        <ele>1904.8</ele>
        <time>2026-08-30T10:15:13Z</time>
      </trkpt>
      <trkpt lat="44.73197" lon="6.99937">
        <ele>1904.8</ele>
        <time>2026-08-30T10:15:18Z</time>
      </trkpt>
      <trkpt lat="44.73197" lon="6.99937">
        <ele>1904.8</ele>
        <time>2026-08-30T10:15:23Z</time>
      </trkpt>
      <trkpt lat="44.73197" lon="6.99937">
        <ele>1904.8</ele>
        <time>2026-08-30T10:15:29Z</time>
      </trkpt>
      <trkpt lat="44.73197" lon="6.99937">
        <ele>1904.8</ele>
        <time>2026-08-30T10:15:34Z</time>
      </trkpt>
      <trkpt lat="44.73197" lon="6.99937">
        <ele>1904.8</ele>
        <time>2026-08-30T10:15:39Z</time>
      </trkpt>
      <trkpt lat="44.73197" lon="6.99937">
        <ele>1904.8</ele>
        <time>2026-08-30T10:15:45Z</time>
      </trkpt>
      <trkpt lat="44.73197" lon="6.99937">
        <ele>1904.8</ele>
        <time>2026-08-30T10:15:50Z</time>
      </trkpt>
      <trkpt lat="44.73197" lon="6.99937">
        <ele>1904.8</ele>
        <time>2026-08-30T10:15:55Z</time>
      </trkpt>
      <trkpt lat="44.73197" lon="6.99937">
        <ele>1904.8</ele>
        <time>2026-08-30T10:16:01Z</time>
      </trkpt>
      <trkpt lat="44.73197" lon="6.99937">
        <ele>1904.8</ele>
        <time>2026-08-30T10:16:06Z</time>
      </trkpt>
      <trkpt lat="44.73197" lon="6.99937">
        <ele>1904.8</ele>
        <time>2026-08-30T10:16:11Z</time>
      </trkpt>
      <trkpt lat="44.73197" lon="6.99937">
        <ele>1904.8</ele>
        <time>2026-08-30T10:16:17Z</time>
      </trkpt>
      <trkpt lat="44.73197" lon="6.99937">
        <ele>1904.8</ele>
        <time>2026-08-30T10:16:22Z</time>
      </trkpt>
      <trkpt lat="44.73197" lon="6.99937">
        <ele>1904.8</ele>
        <time>2026-08-30T10:16:27Z</time>
      </trkpt>
      <trkpt lat="44.73197" lon="6.99937">
        <ele>1904.8</ele>
        <time>2026-08-30T10:16:33Z</time>
      </trkpt>
      <trkpt lat="44.73197" lon="6.99937">
        <ele>1904.8</ele>
        <time>2026-08-30T10:16:38Z</time>
      </trkpt>
      <trkpt lat="44.73197" lon="6.99937">
        <ele>1904.8</ele>
        <time>2026-08-30T10:16:43Z</time>
      </trkpt>
      <trkpt lat="44.73197" lon="6.99937">
        <ele>1904.8</ele>
        <time>2026-08-30T10:16:49Z</time>
      </trkpt>
      <trkpt lat="44.73197" lon="6.99937">
        <ele>1904.8</ele>
        <time>2026-08-30T10:16:54Z</time>
      </trkpt>
      <trkpt lat="44.73197" lon="6.99937">
        <ele>1904.8</ele>
        <time>2026-08-30T10:16:59Z</time>
      </trkpt>
      <trkpt lat="44.73197" lon="6.99937">
        <ele>1904.8</ele>
        <time>2026-08-30T10:17:05Z</time>
      </trkpt>
      <trkpt lat="44.73197" lon="6.99937">
        <ele>1904.8</ele>
        <time>2026-08-30T10:17:10Z</time>
      </trkpt>
      <trkpt lat="44.73197" lon="6.99937">
        <ele>1904.8</ele>
        <time>2026-08-30T10:17:15Z</time>
      </trkpt>
      <trkpt lat="44.73197" lon="6.99937">
        <ele>1904.8</ele>
        <time>2026-08-30T10:17:21Z</time>
      </trkpt>
      <trkpt lat="44.73197" lon="6.99937">
        <ele>1904.8</ele>
        <time>2026-08-30T10:17:26Z</time>
      </trkpt>
      <trkpt lat="44.73197" lon="6.99937">
        <ele>1904.8</ele>
        <time>2026-08-30T10:17:31Z</time>
      </trkpt>
      <trkpt lat="44.73197" lon="6.99937">
        <ele>1904.8</ele>
        <time>2026-08-30T10:17:37Z</time>
      </trkpt>
      <trkpt lat="44.73197" lon="6.99937">
        <ele>1904.8</ele>
        <time>2026-08-30T10:17:42Z</time>
      </trkpt>
      <trkpt lat="44.73197" lon="6.99937">
        <ele>1904.8</ele>
        <time>2026-08-30T10:17:47Z</time>
      </trkpt>
      <trkpt lat="44.73197" lon="6.99937">
        <ele>1904.8</ele>
        <time>2026-08-30T10:17:53Z</time>
      </trkpt>
      <trkpt lat="44.73197" lon="6.99937">
        <ele>1904.8</ele>
        <time>2026-08-30T10:17:58Z</time>
      </trkpt>
      <trkpt lat="44.73197" lon="6.99937">
        <ele>1904.8</ele>
        <time>2026-08-30T10:18:03Z</time>
      </trkpt>
      <trkpt lat="44.73197" lon="6.99937">
        <ele>1904.8</ele>
        <time>2026-08-30T10:18:09Z</time>
      </trkpt>
      <trkpt lat="44.73197" lon="6.99937">
        <ele>1904.8</ele>
        <time>2026-08-30T10:18:14Z</time>
      </trkpt>
      <trkpt lat="44.73197" lon="6.99937">
        <ele>1904.8</ele>
        <time>2026-08-30T10:18:19Z</time>
      </trkpt>
      <trkpt lat="44.73197" lon="6.99937">
        <ele>1904.8</ele>
        <time>2026-08-30T10:18:25Z</time>
      </trkpt>
      <trkpt lat="44.73197" lon="6.99937">
        <ele>1904.8</ele>
        <time>2026-08-30T10:18:30Z</time>
      </trkpt>
      <trkpt lat="44.73197" lon="6.99937">
        <ele>1904.8</ele>
        <time>2026-08-30T10:18:35Z</time>
      </trkpt>
      <trkpt lat="44.73197" lon="6.99937">
        <ele>1904.8</ele>
        <time>2026-08-30T10:18:41Z</time>
      </trkpt>
      <trkpt lat="44.73197" lon="6.99937">
        <ele>1904.8</ele>
        <time>2026-08-30T10:18:46Z</time>
      </trkpt>
      <trkpt lat="44.73197" lon="6.99937">
        <ele>1904.8</ele>
        <time>2026-08-30T10:18:51Z</time>
      </trkpt>
      <trkpt lat="44.73197" lon="6.99937">
        <ele>1904.8</ele>
        <time>2026-08-30T10:18:57Z</time>
      </trkpt>
      <trkpt lat="44.73197" lon="6.99937">
        <ele>1904.8</ele>
        <time>2026-08-30T10:19:02Z</time>
      </trkpt>
      <trkpt lat="44.73197" lon="6.99937">
        <ele>1904.8</ele>
        <time>2026-08-30T10:19:07Z</time>
      </trkpt>
      <trkpt lat="44.73197" lon="6.99937">
        <ele>1904.8</ele>
        <time>2026-08-30T10:19:13Z</time>
      </trkpt>
      <trkpt lat="44.73197" lon="6.99937">
        <ele>1904.8</ele>
        <time>2026-08-30T10:19:18Z</time>
      </trkpt>
      <trkpt lat="44.73197" lon="6.99937">
        <ele>1904.8</ele>
        <time>2026-08-30T10:19:23Z</time>
      </trkpt>
      <trkpt lat="44.73197" lon="6.99937">
        <ele>1904.8</ele>
        <time>2026-08-30T10:19:29Z</time>
      </trkpt>
      <trkpt lat="44.73197" lon="6.99937">
        <ele>1904.8</ele>
        <time>2026-08-30T10:19:34Z</time>
      </trkpt>
      <trkpt lat="44.73197" lon="6.99937">
        <ele>1904.8</ele>
        <time>2026-08-30T10:19:39Z</time>
      </trkpt>
      <trkpt lat="44.73197" lon="6.99937">
        <ele>1904.8</ele>
        <time>2026-08-30T10:19:45Z</time>
      </trkpt>
      <trkpt lat="44.73197" lon="6.99937">
        <ele>1904.8</ele>
        <time>2026-08-30T10:19:50Z</time>
      </trkpt>
      <trkpt lat="44.73197" lon="6.99937">
        <ele>1904.8</ele>
        <time>2026-08-30T10:19:55Z</time>
      </trkpt>
      <trkpt lat="44.73197" lon="6.99937">
        <ele>1904.8</ele>
        <time>2026-08-30T10:20:01Z</time>
      </trkpt>
      <trkpt lat="44.73197" lon="6.99937">
        <ele>1904.8</ele>
        <time>2026-08-30T10:20:06Z</time>
      </trkpt>
      <trkpt lat="44.73197" lon="6.99937">
        <ele>1904.8</ele>
        <time>2026-08-30T10:20:11Z</time>
      </trkpt>
      <trkpt lat="44.73197" lon="6.99937">
        <ele>1904.8</ele>
        <time>2026-08-30T10:20:17Z</time>
      </trkpt>
      <trkpt lat="44.73197" lon="6.99937">
        <ele>1904.8</ele>
        <time>2026-08-30T10:20:22Z</time>
      </trkpt>
      <trkpt lat="44.73197" lon="6.99937">
        <ele>1904.8</ele>
        <time>2026-08-30T10:20:27Z</time>
      </trkpt>
      <trkpt lat="44.73197" lon="6.99937">
        <ele>1904.8</ele>
        <time>2026-08-30T10:20:33Z</time>
      </trkpt>
      <trkpt lat="44.73197" lon="6.99937">
        <ele>1904.8</ele>
        <time>2026-08-30T10:20:38Z</time>
      </trkpt>
      <trkpt lat="44.73197" lon="6.99937">
        <ele>1904.8</ele>
        <time>2026-08-30T10:20:43Z</time>
      </trkpt>
      <trkpt lat="44.73197" lon="6.99937">
        <ele>1904.8</ele>
        <time>2026-08-30T10:20:49Z</time>
      </trkpt>
      <trkpt lat="44.73197" lon="6.99937">
        <ele>1904.8</ele>
        <time>2026-08-30T10:20:54Z</time>
      </trkpt>
      <trkpt lat="44.73197" lon="6.99937">
        <ele>1904.8</ele>
        <time>2026-08-30T10:20:59Z</time>
      </trkpt>
      <trkpt lat="44.73197" lon="6.99937">
        <ele>1904.8</ele>
        <time>2026-08-30T10:21:05Z</time>
      </trkpt>
      <trkpt lat="44.73197" lon="6.99937">
        <ele>1904.8</ele>
        <time>2026-08-30T10:21:10Z</time>
      </trkpt>
      <trkpt lat="44.73197" lon="6.99937">
        <ele>1904.8</ele>
        <time>2026-08-30T10:21:15Z</time>
      </trkpt>
      <trkpt lat="44.73197" lon="6.99937">
        <ele>1904.8</ele>
        <time>2026-08-30T10:21:21Z</time>
      </trkpt>
      <trkpt lat="44.73197" lon="6.99937">
        <ele>1904.8</ele>
        <time>2026-08-30T10:21:26Z</time>
      </trkpt>
      <trkpt lat="44.73197" lon="6.99937">
        <ele>1904.8</ele>
        <time>2026-08-30T10:21:31Z</time>
      </trkpt>
      <trkpt lat="44.73197" lon="6.99937">
        <ele>1904.8</ele>
        <time>2026-08-30T10:21:37Z</time>
      </trkpt>
      <trkpt lat="44.73197" lon="6.99937">
        <ele>1904.8</ele>
        <time>2026-08-30T10:21:42Z</time>
      </trkpt>
      <trkpt lat="44.73197" lon="6.99937">
        <ele>1904.8</ele>
        <time>2026-08-30T10:21:47Z</time>
      </trkpt>
      <trkpt lat="44.73197" lon="6.99937">
        <ele>1904.8</ele>
        <time>2026-08-30T10:21:53Z</time>
      </trkpt>
      <trkpt lat="44.73197" lon="6.99937">
        <ele>1904.8</ele>
        <time>2026-08-30T10:21:58Z</time>
      </trkpt>
      <trkpt lat="44.73197" lon="6.99937">
        <ele>1904.8</ele>
        <time>2026-08-30T10:22:03Z</time>
      </trkpt>
      <trkpt lat="44.73197" lon="6.99937">
        <ele>1904.8</ele>
        <time>2026-08-30T10:22:09Z</time>
      </trkpt>
    </trkseg>
  </trk>
</gpx>